<?xml version="1.0" encoding="UTF-8" standalone="no" ?>
<gpx xmlns="http://www.topografix.com/GPX/1/1" xmlns:xsi="http://www.w3.org/2001/XMLSchema-instance" xsi:schemaLocation="http://www.topografix.com/GPX/1/1 http://www.topografix.com/GPX/1/1/gpx.xsd" version="1.1" creator="VisuGPX - https://www.visugpx.com">
  <metadata>
    <name>Luzet et mont Chauvet</name>
    <desc><![CDATA[Boucle au départ du Pilhon. Très belle vue sur le sud Vercors et le Devoluy depuis la crête de Luzet.]]></desc>
  </metadata>
  <trk>
    <name><![CDATA[2021-05-09 15:03:07]]></name>
    <trkseg>
      <trkpt lat="44.59335" lon="5.60077">
        <ele>1100.37</ele>
        <time>2021-05-09T07:34:57Z</time>
      </trkpt>
      <trkpt lat="44.59334" lon="5.60079">
        <ele>1099.4</ele>
        <time>2021-05-09T07:35:24Z</time>
      </trkpt>
      <trkpt lat="44.59335" lon="5.60082">
        <ele>1097</ele>
        <time>2021-05-09T07:35:43Z</time>
      </trkpt>
      <trkpt lat="44.59337" lon="5.60082">
        <ele>1098.44</ele>
        <time>2021-05-09T07:35:58Z</time>
      </trkpt>
      <trkpt lat="44.59333" lon="5.60085">
        <ele>1099.89</ele>
        <time>2021-05-09T07:36:15Z</time>
      </trkpt>
      <trkpt lat="44.59331" lon="5.60087">
        <ele>1099.89</ele>
        <time>2021-05-09T07:36:29Z</time>
      </trkpt>
      <trkpt lat="44.59325" lon="5.60078">
        <ele>1098.92</ele>
        <time>2021-05-09T07:36:45Z</time>
      </trkpt>
      <trkpt lat="44.59327" lon="5.60067">
        <ele>1098.92</ele>
        <time>2021-05-09T07:37:00Z</time>
      </trkpt>
      <trkpt lat="44.5932" lon="5.60074">
        <ele>1099.89</ele>
        <time>2021-05-09T07:37:15Z</time>
      </trkpt>
      <trkpt lat="44.59314" lon="5.60084">
        <ele>1097</ele>
        <time>2021-05-09T07:37:25Z</time>
      </trkpt>
      <trkpt lat="44.59307" lon="5.60097">
        <ele>1094.6</ele>
        <time>2021-05-09T07:37:37Z</time>
      </trkpt>
      <trkpt lat="44.59305" lon="5.60101">
        <ele>1093.64</ele>
        <time>2021-05-09T07:37:49Z</time>
      </trkpt>
      <trkpt lat="44.59303" lon="5.60104">
        <ele>1093.16</ele>
        <time>2021-05-09T07:38:02Z</time>
      </trkpt>
      <trkpt lat="44.59306" lon="5.60109">
        <ele>1091.71</ele>
        <time>2021-05-09T07:38:10Z</time>
      </trkpt>
      <trkpt lat="44.5931" lon="5.60115">
        <ele>1089.79</ele>
        <time>2021-05-09T07:38:20Z</time>
      </trkpt>
      <trkpt lat="44.59312" lon="5.60135">
        <ele>1087.39</ele>
        <time>2021-05-09T07:38:35Z</time>
      </trkpt>
      <trkpt lat="44.59311" lon="5.60143">
        <ele>1087.39</ele>
        <time>2021-05-09T07:38:39Z</time>
      </trkpt>
      <trkpt lat="44.59313" lon="5.6017">
        <ele>1085.95</ele>
        <time>2021-05-09T07:38:55Z</time>
      </trkpt>
      <trkpt lat="44.59325" lon="5.60191">
        <ele>1084.99</ele>
        <time>2021-05-09T07:39:12Z</time>
      </trkpt>
      <trkpt lat="44.59332" lon="5.60205">
        <ele>1083.06</ele>
        <time>2021-05-09T07:39:21Z</time>
      </trkpt>
      <trkpt lat="44.5934" lon="5.60233">
        <ele>1081.14</ele>
        <time>2021-05-09T07:39:38Z</time>
      </trkpt>
      <trkpt lat="44.59341" lon="5.60253">
        <ele>1082.1</ele>
        <time>2021-05-09T07:39:51Z</time>
      </trkpt>
      <trkpt lat="44.59343" lon="5.60258">
        <ele>1081.14</ele>
        <time>2021-05-09T07:39:54Z</time>
      </trkpt>
      <trkpt lat="44.59346" lon="5.60273">
        <ele>1080.18</ele>
        <time>2021-05-09T07:40:03Z</time>
      </trkpt>
      <trkpt lat="44.59344" lon="5.60293">
        <ele>1077.78</ele>
        <time>2021-05-09T07:40:16Z</time>
      </trkpt>
      <trkpt lat="44.59342" lon="5.60297">
        <ele>1077.29</ele>
        <time>2021-05-09T07:40:20Z</time>
      </trkpt>
      <trkpt lat="44.59335" lon="5.60305">
        <ele>1076.33</ele>
        <time>2021-05-09T07:40:29Z</time>
      </trkpt>
      <trkpt lat="44.59316" lon="5.60315">
        <ele>1078.74</ele>
        <time>2021-05-09T07:40:46Z</time>
      </trkpt>
      <trkpt lat="44.59303" lon="5.60322">
        <ele>1080.18</ele>
        <time>2021-05-09T07:40:58Z</time>
      </trkpt>
      <trkpt lat="44.59284" lon="5.60333">
        <ele>1081.14</ele>
        <time>2021-05-09T07:41:14Z</time>
      </trkpt>
      <trkpt lat="44.59268" lon="5.60348">
        <ele>1083.54</ele>
        <time>2021-05-09T07:41:29Z</time>
      </trkpt>
      <trkpt lat="44.59259" lon="5.60357">
        <ele>1084.02</ele>
        <time>2021-05-09T07:41:41Z</time>
      </trkpt>
      <trkpt lat="44.59241" lon="5.6036">
        <ele>1084.99</ele>
        <time>2021-05-09T07:41:55Z</time>
      </trkpt>
      <trkpt lat="44.59229" lon="5.6036">
        <ele>1085.95</ele>
        <time>2021-05-09T07:42:05Z</time>
      </trkpt>
      <trkpt lat="44.59213" lon="5.60357">
        <ele>1086.91</ele>
        <time>2021-05-09T07:42:17Z</time>
      </trkpt>
      <trkpt lat="44.59194" lon="5.60347">
        <ele>1087.39</ele>
        <time>2021-05-09T07:42:32Z</time>
      </trkpt>
      <trkpt lat="44.59188" lon="5.60346">
        <ele>1087.87</ele>
        <time>2021-05-09T07:42:38Z</time>
      </trkpt>
      <trkpt lat="44.59178" lon="5.60339">
        <ele>1088.83</ele>
        <time>2021-05-09T07:42:47Z</time>
      </trkpt>
      <trkpt lat="44.59165" lon="5.60324">
        <ele>1091.23</ele>
        <time>2021-05-09T07:43:02Z</time>
      </trkpt>
      <trkpt lat="44.59152" lon="5.60308">
        <ele>1093.16</ele>
        <time>2021-05-09T07:43:16Z</time>
      </trkpt>
      <trkpt lat="44.59147" lon="5.60299">
        <ele>1094.12</ele>
        <time>2021-05-09T07:43:24Z</time>
      </trkpt>
      <trkpt lat="44.59145" lon="5.60297">
        <ele>1094.12</ele>
        <time>2021-05-09T07:43:26Z</time>
      </trkpt>
      <trkpt lat="44.59134" lon="5.60278">
        <ele>1096.52</ele>
        <time>2021-05-09T07:43:40Z</time>
      </trkpt>
      <trkpt lat="44.5912" lon="5.60262">
        <ele>1097.48</ele>
        <time>2021-05-09T07:43:55Z</time>
      </trkpt>
      <trkpt lat="44.59105" lon="5.60244">
        <ele>1098.92</ele>
        <time>2021-05-09T07:44:11Z</time>
      </trkpt>
      <trkpt lat="44.59097" lon="5.60235">
        <ele>1097.96</ele>
        <time>2021-05-09T07:44:19Z</time>
      </trkpt>
      <trkpt lat="44.59083" lon="5.60218">
        <ele>1097</ele>
        <time>2021-05-09T07:44:39Z</time>
      </trkpt>
      <trkpt lat="44.59077" lon="5.60224">
        <ele>1097.96</ele>
        <time>2021-05-09T07:44:49Z</time>
      </trkpt>
      <trkpt lat="44.59071" lon="5.60236">
        <ele>1101.81</ele>
        <time>2021-05-09T07:45:02Z</time>
      </trkpt>
      <trkpt lat="44.59068" lon="5.60242">
        <ele>1102.77</ele>
        <time>2021-05-09T07:45:07Z</time>
      </trkpt>
      <trkpt lat="44.5906" lon="5.60258">
        <ele>1104.21</ele>
        <time>2021-05-09T07:45:21Z</time>
      </trkpt>
      <trkpt lat="44.59047" lon="5.60278">
        <ele>1107.1</ele>
        <time>2021-05-09T07:45:39Z</time>
      </trkpt>
      <trkpt lat="44.5904" lon="5.6029">
        <ele>1109.02</ele>
        <time>2021-05-09T07:45:49Z</time>
      </trkpt>
      <trkpt lat="44.59039" lon="5.60294">
        <ele>1108.06</ele>
        <time>2021-05-09T07:45:53Z</time>
      </trkpt>
      <trkpt lat="44.59043" lon="5.60302">
        <ele>1109.5</ele>
        <time>2021-05-09T07:46:06Z</time>
      </trkpt>
      <trkpt lat="44.59049" lon="5.60313">
        <ele>1110.46</ele>
        <time>2021-05-09T07:46:18Z</time>
      </trkpt>
      <trkpt lat="44.59056" lon="5.60334">
        <ele>1109.98</ele>
        <time>2021-05-09T07:46:33Z</time>
      </trkpt>
      <trkpt lat="44.59057" lon="5.60337">
        <ele>1109.02</ele>
        <time>2021-05-09T07:46:35Z</time>
      </trkpt>
      <trkpt lat="44.59058" lon="5.60339">
        <ele>1109.02</ele>
        <time>2021-05-09T07:46:36Z</time>
      </trkpt>
      <trkpt lat="44.59065" lon="5.60369">
        <ele>1109.02</ele>
        <time>2021-05-09T07:46:54Z</time>
      </trkpt>
      <trkpt lat="44.59065" lon="5.60376">
        <ele>1109.02</ele>
        <time>2021-05-09T07:46:58Z</time>
      </trkpt>
      <trkpt lat="44.59067" lon="5.60397">
        <ele>1109.02</ele>
        <time>2021-05-09T07:47:12Z</time>
      </trkpt>
      <trkpt lat="44.59069" lon="5.6041">
        <ele>1109.98</ele>
        <time>2021-05-09T07:47:21Z</time>
      </trkpt>
      <trkpt lat="44.59073" lon="5.60432">
        <ele>1111.42</ele>
        <time>2021-05-09T07:47:36Z</time>
      </trkpt>
      <trkpt lat="44.59077" lon="5.60455">
        <ele>1112.86</ele>
        <time>2021-05-09T07:47:50Z</time>
      </trkpt>
      <trkpt lat="44.59078" lon="5.60475">
        <ele>1113.34</ele>
        <time>2021-05-09T07:48:04Z</time>
      </trkpt>
      <trkpt lat="44.59083" lon="5.60497">
        <ele>1114.31</ele>
        <time>2021-05-09T07:48:19Z</time>
      </trkpt>
      <trkpt lat="44.59086" lon="5.6052">
        <ele>1116.23</ele>
        <time>2021-05-09T07:48:35Z</time>
      </trkpt>
      <trkpt lat="44.59091" lon="5.6054">
        <ele>1117.67</ele>
        <time>2021-05-09T07:48:50Z</time>
      </trkpt>
      <trkpt lat="44.59096" lon="5.6056">
        <ele>1119.59</ele>
        <time>2021-05-09T07:49:05Z</time>
      </trkpt>
      <trkpt lat="44.59101" lon="5.60581">
        <ele>1122</ele>
        <time>2021-05-09T07:49:20Z</time>
      </trkpt>
      <trkpt lat="44.59104" lon="5.60595">
        <ele>1123.92</ele>
        <time>2021-05-09T07:49:33Z</time>
      </trkpt>
      <trkpt lat="44.5911" lon="5.60612">
        <ele>1125.84</ele>
        <time>2021-05-09T07:49:48Z</time>
      </trkpt>
      <trkpt lat="44.59115" lon="5.60637">
        <ele>1128.73</ele>
        <time>2021-05-09T07:50:07Z</time>
      </trkpt>
      <trkpt lat="44.5912" lon="5.60657">
        <ele>1130.17</ele>
        <time>2021-05-09T07:50:22Z</time>
      </trkpt>
      <trkpt lat="44.59126" lon="5.60672">
        <ele>1132.57</ele>
        <time>2021-05-09T07:50:37Z</time>
      </trkpt>
      <trkpt lat="44.59132" lon="5.60688">
        <ele>1134.49</ele>
        <time>2021-05-09T07:50:52Z</time>
      </trkpt>
      <trkpt lat="44.59134" lon="5.60692">
        <ele>1134.97</ele>
        <time>2021-05-09T07:50:56Z</time>
      </trkpt>
      <trkpt lat="44.59141" lon="5.60712">
        <ele>1137.38</ele>
        <time>2021-05-09T07:51:12Z</time>
      </trkpt>
      <trkpt lat="44.59148" lon="5.60728">
        <ele>1139.78</ele>
        <time>2021-05-09T07:51:26Z</time>
      </trkpt>
      <trkpt lat="44.59155" lon="5.60741">
        <ele>1142.66</ele>
        <time>2021-05-09T07:51:41Z</time>
      </trkpt>
      <trkpt lat="44.59163" lon="5.60755">
        <ele>1144.59</ele>
        <time>2021-05-09T07:51:57Z</time>
      </trkpt>
      <trkpt lat="44.59167" lon="5.60767">
        <ele>1146.03</ele>
        <time>2021-05-09T07:52:09Z</time>
      </trkpt>
      <trkpt lat="44.59169" lon="5.60787">
        <ele>1148.43</ele>
        <time>2021-05-09T07:52:23Z</time>
      </trkpt>
      <trkpt lat="44.59169" lon="5.60802">
        <ele>1149.87</ele>
        <time>2021-05-09T07:52:37Z</time>
      </trkpt>
      <trkpt lat="44.59167" lon="5.60817">
        <ele>1151.32</ele>
        <time>2021-05-09T07:52:49Z</time>
      </trkpt>
      <trkpt lat="44.59166" lon="5.60825">
        <ele>1152.28</ele>
        <time>2021-05-09T07:52:55Z</time>
      </trkpt>
      <trkpt lat="44.59162" lon="5.60845">
        <ele>1154.2</ele>
        <time>2021-05-09T07:53:09Z</time>
      </trkpt>
      <trkpt lat="44.59159" lon="5.60864">
        <ele>1156.12</ele>
        <time>2021-05-09T07:53:23Z</time>
      </trkpt>
      <trkpt lat="44.59154" lon="5.6088">
        <ele>1158.05</ele>
        <time>2021-05-09T07:53:35Z</time>
      </trkpt>
      <trkpt lat="44.59151" lon="5.60883">
        <ele>1158.05</ele>
        <time>2021-05-09T07:53:39Z</time>
      </trkpt>
      <trkpt lat="44.59149" lon="5.60888">
        <ele>1158.05</ele>
        <time>2021-05-09T07:53:43Z</time>
      </trkpt>
      <trkpt lat="44.59145" lon="5.60903">
        <ele>1159.49</ele>
        <time>2021-05-09T07:53:56Z</time>
      </trkpt>
      <trkpt lat="44.59141" lon="5.60919">
        <ele>1161.41</ele>
        <time>2021-05-09T07:54:08Z</time>
      </trkpt>
      <trkpt lat="44.59135" lon="5.60934">
        <ele>1162.85</ele>
        <time>2021-05-09T07:54:21Z</time>
      </trkpt>
      <trkpt lat="44.59132" lon="5.60941">
        <ele>1163.33</ele>
        <time>2021-05-09T07:57:15Z</time>
      </trkpt>
      <trkpt lat="44.59133" lon="5.60933">
        <ele>1163.33</ele>
        <time>2021-05-09T07:57:34Z</time>
      </trkpt>
      <trkpt lat="44.59131" lon="5.60921">
        <ele>1163.33</ele>
        <time>2021-05-09T07:57:46Z</time>
      </trkpt>
      <trkpt lat="44.5913" lon="5.60918">
        <ele>1163.33</ele>
        <time>2021-05-09T07:58:01Z</time>
      </trkpt>
      <trkpt lat="44.59129" lon="5.60912">
        <ele>1163.33</ele>
        <time>2021-05-09T07:58:15Z</time>
      </trkpt>
      <trkpt lat="44.59128" lon="5.60908">
        <ele>1164.29</ele>
        <time>2021-05-09T07:58:18Z</time>
      </trkpt>
      <trkpt lat="44.59124" lon="5.60895">
        <ele>1165.74</ele>
        <time>2021-05-09T07:58:27Z</time>
      </trkpt>
      <trkpt lat="44.59125" lon="5.60874">
        <ele>1167.66</ele>
        <time>2021-05-09T07:58:42Z</time>
      </trkpt>
      <trkpt lat="44.59122" lon="5.60862">
        <ele>1168.14</ele>
        <time>2021-05-09T07:58:53Z</time>
      </trkpt>
      <trkpt lat="44.59115" lon="5.60846">
        <ele>1169.1</ele>
        <time>2021-05-09T07:59:07Z</time>
      </trkpt>
      <trkpt lat="44.59114" lon="5.60843">
        <ele>1169.1</ele>
        <time>2021-05-09T07:59:10Z</time>
      </trkpt>
      <trkpt lat="44.59104" lon="5.60831">
        <ele>1170.54</ele>
        <time>2021-05-09T07:59:26Z</time>
      </trkpt>
      <trkpt lat="44.59096" lon="5.60832">
        <ele>1171.98</ele>
        <time>2021-05-09T07:59:41Z</time>
      </trkpt>
      <trkpt lat="44.59091" lon="5.60847">
        <ele>1171.98</ele>
        <time>2021-05-09T07:59:57Z</time>
      </trkpt>
      <trkpt lat="44.59089" lon="5.60863">
        <ele>1173.43</ele>
        <time>2021-05-09T08:00:12Z</time>
      </trkpt>
      <trkpt lat="44.59089" lon="5.60866">
        <ele>1173.91</ele>
        <time>2021-05-09T08:00:21Z</time>
      </trkpt>
      <trkpt lat="44.59089" lon="5.6087">
        <ele>1174.87</ele>
        <time>2021-05-09T08:00:24Z</time>
      </trkpt>
      <trkpt lat="44.59087" lon="5.60876">
        <ele>1175.83</ele>
        <time>2021-05-09T08:00:30Z</time>
      </trkpt>
      <trkpt lat="44.59082" lon="5.60888">
        <ele>1179.19</ele>
        <time>2021-05-09T08:00:43Z</time>
      </trkpt>
      <trkpt lat="44.59077" lon="5.60895">
        <ele>1181.6</ele>
        <time>2021-05-09T08:00:56Z</time>
      </trkpt>
      <trkpt lat="44.59079" lon="5.60908">
        <ele>1183.52</ele>
        <time>2021-05-09T08:01:10Z</time>
      </trkpt>
      <trkpt lat="44.59074" lon="5.60921">
        <ele>1185.44</ele>
        <time>2021-05-09T08:01:26Z</time>
      </trkpt>
      <trkpt lat="44.59072" lon="5.60933">
        <ele>1187.37</ele>
        <time>2021-05-09T08:01:40Z</time>
      </trkpt>
      <trkpt lat="44.59071" lon="5.60949">
        <ele>1189.77</ele>
        <time>2021-05-09T08:01:57Z</time>
      </trkpt>
      <trkpt lat="44.59068" lon="5.60957">
        <ele>1192.17</ele>
        <time>2021-05-09T08:02:12Z</time>
      </trkpt>
      <trkpt lat="44.59065" lon="5.60966">
        <ele>1195.06</ele>
        <time>2021-05-09T08:02:28Z</time>
      </trkpt>
      <trkpt lat="44.59061" lon="5.60977">
        <ele>1196.98</ele>
        <time>2021-05-09T08:02:44Z</time>
      </trkpt>
      <trkpt lat="44.5906" lon="5.60986">
        <ele>1199.86</ele>
        <time>2021-05-09T08:02:57Z</time>
      </trkpt>
      <trkpt lat="44.59059" lon="5.60992">
        <ele>1201.79</ele>
        <time>2021-05-09T08:03:10Z</time>
      </trkpt>
      <trkpt lat="44.59058" lon="5.60999">
        <ele>1203.71</ele>
        <time>2021-05-09T08:03:23Z</time>
      </trkpt>
      <trkpt lat="44.59056" lon="5.61003">
        <ele>1206.11</ele>
        <time>2021-05-09T08:03:40Z</time>
      </trkpt>
      <trkpt lat="44.59048" lon="5.6101">
        <ele>1208.51</ele>
        <time>2021-05-09T08:03:56Z</time>
      </trkpt>
      <trkpt lat="44.59044" lon="5.61016">
        <ele>1208.51</ele>
        <time>2021-05-09T08:06:27Z</time>
      </trkpt>
      <trkpt lat="44.59043" lon="5.61019">
        <ele>1209.48</ele>
        <time>2021-05-09T08:06:31Z</time>
      </trkpt>
      <trkpt lat="44.59038" lon="5.61026">
        <ele>1211.88</ele>
        <time>2021-05-09T08:06:46Z</time>
      </trkpt>
      <trkpt lat="44.59038" lon="5.61038">
        <ele>1213.8</ele>
        <time>2021-05-09T08:07:04Z</time>
      </trkpt>
      <trkpt lat="44.59036" lon="5.6105">
        <ele>1216.21</ele>
        <time>2021-05-09T08:07:19Z</time>
      </trkpt>
      <trkpt lat="44.59033" lon="5.61061">
        <ele>1218.13</ele>
        <time>2021-05-09T08:07:33Z</time>
      </trkpt>
      <trkpt lat="44.59029" lon="5.61063">
        <ele>1220.05</ele>
        <time>2021-05-09T08:07:48Z</time>
      </trkpt>
      <trkpt lat="44.59027" lon="5.61069">
        <ele>1220.53</ele>
        <time>2021-05-09T08:08:19Z</time>
      </trkpt>
      <trkpt lat="44.59031" lon="5.61086">
        <ele>1221.49</ele>
        <time>2021-05-09T08:08:36Z</time>
      </trkpt>
      <trkpt lat="44.5903" lon="5.61095">
        <ele>1222.45</ele>
        <time>2021-05-09T08:08:50Z</time>
      </trkpt>
      <trkpt lat="44.59029" lon="5.61109">
        <ele>1224.38</ele>
        <time>2021-05-09T08:09:08Z</time>
      </trkpt>
      <trkpt lat="44.5903" lon="5.61125">
        <ele>1227.26</ele>
        <time>2021-05-09T08:09:23Z</time>
      </trkpt>
      <trkpt lat="44.59027" lon="5.6114">
        <ele>1228.22</ele>
        <time>2021-05-09T08:09:40Z</time>
      </trkpt>
      <trkpt lat="44.59025" lon="5.61154">
        <ele>1230.62</ele>
        <time>2021-05-09T08:09:56Z</time>
      </trkpt>
      <trkpt lat="44.59024" lon="5.61168">
        <ele>1231.59</ele>
        <time>2021-05-09T08:10:10Z</time>
      </trkpt>
      <trkpt lat="44.59025" lon="5.61183">
        <ele>1233.03</ele>
        <time>2021-05-09T08:10:27Z</time>
      </trkpt>
      <trkpt lat="44.59023" lon="5.61196">
        <ele>1234.47</ele>
        <time>2021-05-09T08:10:42Z</time>
      </trkpt>
      <trkpt lat="44.59024" lon="5.61216">
        <ele>1235.91</ele>
        <time>2021-05-09T08:10:58Z</time>
      </trkpt>
      <trkpt lat="44.59026" lon="5.61231">
        <ele>1237.35</ele>
        <time>2021-05-09T08:11:13Z</time>
      </trkpt>
      <trkpt lat="44.59028" lon="5.61247">
        <ele>1238.8</ele>
        <time>2021-05-09T08:11:27Z</time>
      </trkpt>
      <trkpt lat="44.59027" lon="5.61258">
        <ele>1241.2</ele>
        <time>2021-05-09T08:11:41Z</time>
      </trkpt>
      <trkpt lat="44.59026" lon="5.61262">
        <ele>1243.12</ele>
        <time>2021-05-09T08:11:57Z</time>
      </trkpt>
      <trkpt lat="44.59026" lon="5.61269">
        <ele>1244.08</ele>
        <time>2021-05-09T08:12:17Z</time>
      </trkpt>
      <trkpt lat="44.59027" lon="5.61274">
        <ele>1245.53</ele>
        <time>2021-05-09T08:12:35Z</time>
      </trkpt>
      <trkpt lat="44.59023" lon="5.61286">
        <ele>1246.01</ele>
        <time>2021-05-09T08:12:56Z</time>
      </trkpt>
      <trkpt lat="44.59019" lon="5.61293">
        <ele>1248.41</ele>
        <time>2021-05-09T08:13:11Z</time>
      </trkpt>
      <trkpt lat="44.59018" lon="5.613">
        <ele>1250.33</ele>
        <time>2021-05-09T08:13:26Z</time>
      </trkpt>
      <trkpt lat="44.59016" lon="5.6131">
        <ele>1251.77</ele>
        <time>2021-05-09T08:13:42Z</time>
      </trkpt>
      <trkpt lat="44.59013" lon="5.61319">
        <ele>1254.18</ele>
        <time>2021-05-09T08:14:01Z</time>
      </trkpt>
      <trkpt lat="44.5901" lon="5.61327">
        <ele>1257.06</ele>
        <time>2021-05-09T08:14:16Z</time>
      </trkpt>
      <trkpt lat="44.59007" lon="5.61334">
        <ele>1260.43</ele>
        <time>2021-05-09T08:14:30Z</time>
      </trkpt>
      <trkpt lat="44.59002" lon="5.61338">
        <ele>1262.83</ele>
        <time>2021-05-09T08:14:46Z</time>
      </trkpt>
      <trkpt lat="44.59" lon="5.61343">
        <ele>1264.75</ele>
        <time>2021-05-09T08:15:02Z</time>
      </trkpt>
      <trkpt lat="44.58999" lon="5.61348">
        <ele>1266.67</ele>
        <time>2021-05-09T08:15:17Z</time>
      </trkpt>
      <trkpt lat="44.58993" lon="5.6135">
        <ele>1267.64</ele>
        <time>2021-05-09T08:15:32Z</time>
      </trkpt>
      <trkpt lat="44.58994" lon="5.61361">
        <ele>1270.04</ele>
        <time>2021-05-09T08:15:50Z</time>
      </trkpt>
      <trkpt lat="44.58994" lon="5.61364">
        <ele>1271.48</ele>
        <time>2021-05-09T08:16:07Z</time>
      </trkpt>
      <trkpt lat="44.58989" lon="5.61375">
        <ele>1274.36</ele>
        <time>2021-05-09T08:17:04Z</time>
      </trkpt>
      <trkpt lat="44.58988" lon="5.6138">
        <ele>1274.85</ele>
        <time>2021-05-09T08:17:21Z</time>
      </trkpt>
      <trkpt lat="44.58986" lon="5.61383">
        <ele>1275.33</ele>
        <time>2021-05-09T08:17:35Z</time>
      </trkpt>
      <trkpt lat="44.58981" lon="5.61399">
        <ele>1279.65</ele>
        <time>2021-05-09T08:18:36Z</time>
      </trkpt>
      <trkpt lat="44.58978" lon="5.61392">
        <ele>1281.09</ele>
        <time>2021-05-09T08:18:43Z</time>
      </trkpt>
      <trkpt lat="44.5897" lon="5.61376">
        <ele>1282.54</ele>
        <time>2021-05-09T08:18:56Z</time>
      </trkpt>
      <trkpt lat="44.58965" lon="5.61362">
        <ele>1282.54</ele>
        <time>2021-05-09T08:19:08Z</time>
      </trkpt>
      <trkpt lat="44.58959" lon="5.61351">
        <ele>1283.98</ele>
        <time>2021-05-09T08:19:20Z</time>
      </trkpt>
      <trkpt lat="44.58959" lon="5.61351">
        <ele>1283.98</ele>
        <time>2021-05-09T08:19:21Z</time>
      </trkpt>
      <trkpt lat="44.58956" lon="5.61341">
        <ele>1285.42</ele>
        <time>2021-05-09T08:19:34Z</time>
      </trkpt>
      <trkpt lat="44.58958" lon="5.61327">
        <ele>1286.38</ele>
        <time>2021-05-09T08:19:48Z</time>
      </trkpt>
      <trkpt lat="44.58959" lon="5.61312">
        <ele>1286.86</ele>
        <time>2021-05-09T08:20:01Z</time>
      </trkpt>
      <trkpt lat="44.5896" lon="5.61293">
        <ele>1288.78</ele>
        <time>2021-05-09T08:20:15Z</time>
      </trkpt>
      <trkpt lat="44.58961" lon="5.61288">
        <ele>1288.78</ele>
        <time>2021-05-09T08:20:17Z</time>
      </trkpt>
      <trkpt lat="44.58961" lon="5.61293">
        <ele>1289.27</ele>
        <time>2021-05-09T08:20:29Z</time>
      </trkpt>
      <trkpt lat="44.58955" lon="5.61301">
        <ele>1291.19</ele>
        <time>2021-05-09T08:20:45Z</time>
      </trkpt>
      <trkpt lat="44.58948" lon="5.61313">
        <ele>1292.63</ele>
        <time>2021-05-09T08:20:59Z</time>
      </trkpt>
      <trkpt lat="44.5894" lon="5.61331">
        <ele>1295.03</ele>
        <time>2021-05-09T08:21:16Z</time>
      </trkpt>
      <trkpt lat="44.58939" lon="5.61353">
        <ele>1296.48</ele>
        <time>2021-05-09T08:21:32Z</time>
      </trkpt>
      <trkpt lat="44.58941" lon="5.61372">
        <ele>1296.96</ele>
        <time>2021-05-09T08:21:44Z</time>
      </trkpt>
      <trkpt lat="44.58944" lon="5.61387">
        <ele>1298.4</ele>
        <time>2021-05-09T08:21:57Z</time>
      </trkpt>
      <trkpt lat="44.58949" lon="5.61408">
        <ele>1300.8</ele>
        <time>2021-05-09T08:22:12Z</time>
      </trkpt>
      <trkpt lat="44.58952" lon="5.61422">
        <ele>1302.24</ele>
        <time>2021-05-09T08:22:26Z</time>
      </trkpt>
      <trkpt lat="44.58956" lon="5.61436">
        <ele>1304.17</ele>
        <time>2021-05-09T08:22:42Z</time>
      </trkpt>
      <trkpt lat="44.58958" lon="5.61447">
        <ele>1305.61</ele>
        <time>2021-05-09T08:22:55Z</time>
      </trkpt>
      <trkpt lat="44.58964" lon="5.61455">
        <ele>1306.09</ele>
        <time>2021-05-09T08:23:08Z</time>
      </trkpt>
      <trkpt lat="44.58969" lon="5.61467">
        <ele>1307.53</ele>
        <time>2021-05-09T08:23:23Z</time>
      </trkpt>
      <trkpt lat="44.58977" lon="5.61477">
        <ele>1308.49</ele>
        <time>2021-05-09T08:23:36Z</time>
      </trkpt>
      <trkpt lat="44.5898" lon="5.61488">
        <ele>1309.45</ele>
        <time>2021-05-09T08:23:49Z</time>
      </trkpt>
      <trkpt lat="44.58986" lon="5.61498">
        <ele>1310.9</ele>
        <time>2021-05-09T08:24:05Z</time>
      </trkpt>
      <trkpt lat="44.58996" lon="5.61508">
        <ele>1310.9</ele>
        <time>2021-05-09T08:24:18Z</time>
      </trkpt>
      <trkpt lat="44.59005" lon="5.61525">
        <ele>1310.41</ele>
        <time>2021-05-09T08:24:35Z</time>
      </trkpt>
      <trkpt lat="44.59015" lon="5.61536">
        <ele>1310.41</ele>
        <time>2021-05-09T08:24:49Z</time>
      </trkpt>
      <trkpt lat="44.59019" lon="5.61534">
        <ele>1311.38</ele>
        <time>2021-05-09T08:25:03Z</time>
      </trkpt>
      <trkpt lat="44.59023" lon="5.61549">
        <ele>1313.78</ele>
        <time>2021-05-09T08:25:18Z</time>
      </trkpt>
      <trkpt lat="44.59028" lon="5.61567">
        <ele>1315.7</ele>
        <time>2021-05-09T08:25:30Z</time>
      </trkpt>
      <trkpt lat="44.59036" lon="5.61582">
        <ele>1317.62</ele>
        <time>2021-05-09T08:25:45Z</time>
      </trkpt>
      <trkpt lat="44.59035" lon="5.61592">
        <ele>1318.1</ele>
        <time>2021-05-09T08:26:02Z</time>
      </trkpt>
      <trkpt lat="44.59031" lon="5.61597">
        <ele>1317.14</ele>
        <time>2021-05-09T08:26:10Z</time>
      </trkpt>
      <trkpt lat="44.59021" lon="5.61608">
        <ele>1317.14</ele>
        <time>2021-05-09T08:26:25Z</time>
      </trkpt>
      <trkpt lat="44.59014" lon="5.61615">
        <ele>1317.14</ele>
        <time>2021-05-09T08:26:37Z</time>
      </trkpt>
      <trkpt lat="44.59007" lon="5.61626">
        <ele>1317.14</ele>
        <time>2021-05-09T08:26:50Z</time>
      </trkpt>
      <trkpt lat="44.59002" lon="5.61637">
        <ele>1319.07</ele>
        <time>2021-05-09T08:27:03Z</time>
      </trkpt>
      <trkpt lat="44.59001" lon="5.61648">
        <ele>1321.47</ele>
        <time>2021-05-09T08:27:17Z</time>
      </trkpt>
      <trkpt lat="44.58998" lon="5.61657">
        <ele>1324.83</ele>
        <time>2021-05-09T08:27:33Z</time>
      </trkpt>
      <trkpt lat="44.58995" lon="5.61664">
        <ele>1328.68</ele>
        <time>2021-05-09T08:27:48Z</time>
      </trkpt>
      <trkpt lat="44.58991" lon="5.61672">
        <ele>1330.12</ele>
        <time>2021-05-09T08:28:05Z</time>
      </trkpt>
      <trkpt lat="44.58985" lon="5.61678">
        <ele>1331.56</ele>
        <time>2021-05-09T08:28:24Z</time>
      </trkpt>
      <trkpt lat="44.58977" lon="5.61685">
        <ele>1332.52</ele>
        <time>2021-05-09T08:28:39Z</time>
      </trkpt>
      <trkpt lat="44.58972" lon="5.61692">
        <ele>1333.01</ele>
        <time>2021-05-09T08:29:04Z</time>
      </trkpt>
      <trkpt lat="44.5897" lon="5.61698">
        <ele>1333.97</ele>
        <time>2021-05-09T08:29:30Z</time>
      </trkpt>
      <trkpt lat="44.58967" lon="5.617">
        <ele>1335.41</ele>
        <time>2021-05-09T08:29:54Z</time>
      </trkpt>
      <trkpt lat="44.58963" lon="5.61706">
        <ele>1337.81</ele>
        <time>2021-05-09T08:30:12Z</time>
      </trkpt>
      <trkpt lat="44.58954" lon="5.61709">
        <ele>1339.73</ele>
        <time>2021-05-09T08:30:26Z</time>
      </trkpt>
      <trkpt lat="44.58946" lon="5.61714">
        <ele>1342.62</ele>
        <time>2021-05-09T08:30:38Z</time>
      </trkpt>
      <trkpt lat="44.58938" lon="5.61722">
        <ele>1345.02</ele>
        <time>2021-05-09T08:30:55Z</time>
      </trkpt>
      <trkpt lat="44.58935" lon="5.61725">
        <ele>1347.43</ele>
        <time>2021-05-09T08:31:09Z</time>
      </trkpt>
      <trkpt lat="44.58928" lon="5.6173">
        <ele>1349.35</ele>
        <time>2021-05-09T08:31:24Z</time>
      </trkpt>
      <trkpt lat="44.58923" lon="5.61737">
        <ele>1349.83</ele>
        <time>2021-05-09T08:31:35Z</time>
      </trkpt>
      <trkpt lat="44.5892" lon="5.61746">
        <ele>1350.31</ele>
        <time>2021-05-09T08:31:48Z</time>
      </trkpt>
      <trkpt lat="44.5891" lon="5.61745">
        <ele>1352.71</ele>
        <time>2021-05-09T08:32:03Z</time>
      </trkpt>
      <trkpt lat="44.58902" lon="5.61747">
        <ele>1355.6</ele>
        <time>2021-05-09T08:32:20Z</time>
      </trkpt>
      <trkpt lat="44.58896" lon="5.61753">
        <ele>1358.48</ele>
        <time>2021-05-09T08:32:36Z</time>
      </trkpt>
      <trkpt lat="44.58883" lon="5.61757">
        <ele>1359.92</ele>
        <time>2021-05-09T08:32:53Z</time>
      </trkpt>
      <trkpt lat="44.58875" lon="5.61759">
        <ele>1361.84</ele>
        <time>2021-05-09T08:33:06Z</time>
      </trkpt>
      <trkpt lat="44.58867" lon="5.61756">
        <ele>1364.73</ele>
        <time>2021-05-09T08:33:21Z</time>
      </trkpt>
      <trkpt lat="44.58862" lon="5.61753">
        <ele>1367.61</ele>
        <time>2021-05-09T08:33:34Z</time>
      </trkpt>
      <trkpt lat="44.58856" lon="5.61753">
        <ele>1369.05</ele>
        <time>2021-05-09T08:33:49Z</time>
      </trkpt>
      <trkpt lat="44.58848" lon="5.61755">
        <ele>1371.46</ele>
        <time>2021-05-09T08:34:07Z</time>
      </trkpt>
      <trkpt lat="44.58843" lon="5.61756">
        <ele>1374.34</ele>
        <time>2021-05-09T08:34:26Z</time>
      </trkpt>
      <trkpt lat="44.58838" lon="5.61755">
        <ele>1376.26</ele>
        <time>2021-05-09T08:34:44Z</time>
      </trkpt>
      <trkpt lat="44.58838" lon="5.61755">
        <ele>1376.75</ele>
        <time>2021-05-09T08:35:00Z</time>
      </trkpt>
      <trkpt lat="44.58835" lon="5.61751">
        <ele>1378.67</ele>
        <time>2021-05-09T08:35:18Z</time>
      </trkpt>
      <trkpt lat="44.58831" lon="5.61762">
        <ele>1380.59</ele>
        <time>2021-05-09T08:35:37Z</time>
      </trkpt>
      <trkpt lat="44.58825" lon="5.61759">
        <ele>1383.47</ele>
        <time>2021-05-09T08:35:57Z</time>
      </trkpt>
      <trkpt lat="44.58819" lon="5.61759">
        <ele>1385.88</ele>
        <time>2021-05-09T08:36:12Z</time>
      </trkpt>
      <trkpt lat="44.58813" lon="5.61758">
        <ele>1388.76</ele>
        <time>2021-05-09T08:36:29Z</time>
      </trkpt>
      <trkpt lat="44.58804" lon="5.61754">
        <ele>1390.68</ele>
        <time>2021-05-09T08:36:48Z</time>
      </trkpt>
      <trkpt lat="44.58795" lon="5.61754">
        <ele>1394.05</ele>
        <time>2021-05-09T08:37:06Z</time>
      </trkpt>
      <trkpt lat="44.58788" lon="5.61759">
        <ele>1395.97</ele>
        <time>2021-05-09T08:37:23Z</time>
      </trkpt>
      <trkpt lat="44.58783" lon="5.61763">
        <ele>1398.86</ele>
        <time>2021-05-09T08:37:39Z</time>
      </trkpt>
      <trkpt lat="44.58776" lon="5.61766">
        <ele>1401.26</ele>
        <time>2021-05-09T08:37:56Z</time>
      </trkpt>
      <trkpt lat="44.58774" lon="5.61767">
        <ele>1403.66</ele>
        <time>2021-05-09T08:38:12Z</time>
      </trkpt>
      <trkpt lat="44.5877" lon="5.6176">
        <ele>1406.07</ele>
        <time>2021-05-09T08:38:27Z</time>
      </trkpt>
      <trkpt lat="44.58762" lon="5.61758">
        <ele>1408.95</ele>
        <time>2021-05-09T08:38:47Z</time>
      </trkpt>
      <trkpt lat="44.58755" lon="5.61758">
        <ele>1411.83</ele>
        <time>2021-05-09T08:39:04Z</time>
      </trkpt>
      <trkpt lat="44.58751" lon="5.61749">
        <ele>1414.24</ele>
        <time>2021-05-09T08:39:20Z</time>
      </trkpt>
      <trkpt lat="44.58744" lon="5.61745">
        <ele>1417.6</ele>
        <time>2021-05-09T08:39:37Z</time>
      </trkpt>
      <trkpt lat="44.5874" lon="5.61745">
        <ele>1419.52</ele>
        <time>2021-05-09T08:39:53Z</time>
      </trkpt>
      <trkpt lat="44.5874" lon="5.61756">
        <ele>1422.41</ele>
        <time>2021-05-09T08:43:45Z</time>
      </trkpt>
      <trkpt lat="44.58732" lon="5.61757">
        <ele>1425.29</ele>
        <time>2021-05-09T08:44:01Z</time>
      </trkpt>
      <trkpt lat="44.58727" lon="5.61751">
        <ele>1428.18</ele>
        <time>2021-05-09T08:44:14Z</time>
      </trkpt>
      <trkpt lat="44.58721" lon="5.61751">
        <ele>1431.06</ele>
        <time>2021-05-09T08:44:29Z</time>
      </trkpt>
      <trkpt lat="44.58716" lon="5.61751">
        <ele>1433.46</ele>
        <time>2021-05-09T08:44:46Z</time>
      </trkpt>
      <trkpt lat="44.58713" lon="5.61753">
        <ele>1435.87</ele>
        <time>2021-05-09T08:45:04Z</time>
      </trkpt>
      <trkpt lat="44.58712" lon="5.61766">
        <ele>1438.27</ele>
        <time>2021-05-09T08:45:22Z</time>
      </trkpt>
      <trkpt lat="44.58704" lon="5.61768">
        <ele>1440.19</ele>
        <time>2021-05-09T08:45:40Z</time>
      </trkpt>
      <trkpt lat="44.58698" lon="5.61765">
        <ele>1442.11</ele>
        <time>2021-05-09T08:45:57Z</time>
      </trkpt>
      <trkpt lat="44.5869" lon="5.61759">
        <ele>1444.52</ele>
        <time>2021-05-09T08:46:13Z</time>
      </trkpt>
      <trkpt lat="44.5868" lon="5.61759">
        <ele>1446.44</ele>
        <time>2021-05-09T08:46:31Z</time>
      </trkpt>
      <trkpt lat="44.58672" lon="5.61758">
        <ele>1448.84</ele>
        <time>2021-05-09T08:46:50Z</time>
      </trkpt>
      <trkpt lat="44.58665" lon="5.61756">
        <ele>1451.25</ele>
        <time>2021-05-09T08:47:08Z</time>
      </trkpt>
      <trkpt lat="44.58658" lon="5.61756">
        <ele>1454.13</ele>
        <time>2021-05-09T08:47:25Z</time>
      </trkpt>
      <trkpt lat="44.5865" lon="5.61757">
        <ele>1457.5</ele>
        <time>2021-05-09T08:47:43Z</time>
      </trkpt>
      <trkpt lat="44.58642" lon="5.61755">
        <ele>1460.38</ele>
        <time>2021-05-09T08:47:59Z</time>
      </trkpt>
      <trkpt lat="44.58635" lon="5.61749">
        <ele>1463.26</ele>
        <time>2021-05-09T08:48:15Z</time>
      </trkpt>
      <trkpt lat="44.58629" lon="5.61746">
        <ele>1466.63</ele>
        <time>2021-05-09T08:48:34Z</time>
      </trkpt>
      <trkpt lat="44.58622" lon="5.61743">
        <ele>1468.55</ele>
        <time>2021-05-09T08:48:53Z</time>
      </trkpt>
      <trkpt lat="44.58614" lon="5.61735">
        <ele>1470.47</ele>
        <time>2021-05-09T08:49:08Z</time>
      </trkpt>
      <trkpt lat="44.58605" lon="5.61726">
        <ele>1471.92</ele>
        <time>2021-05-09T08:49:28Z</time>
      </trkpt>
      <trkpt lat="44.58601" lon="5.61724">
        <ele>1473.36</ele>
        <time>2021-05-09T08:49:41Z</time>
      </trkpt>
      <trkpt lat="44.58592" lon="5.6172">
        <ele>1476.72</ele>
        <time>2021-05-09T08:50:00Z</time>
      </trkpt>
      <trkpt lat="44.58584" lon="5.61716">
        <ele>1479.61</ele>
        <time>2021-05-09T08:50:16Z</time>
      </trkpt>
      <trkpt lat="44.58576" lon="5.61713">
        <ele>1481.53</ele>
        <time>2021-05-09T08:50:33Z</time>
      </trkpt>
      <trkpt lat="44.58569" lon="5.61702">
        <ele>1483.93</ele>
        <time>2021-05-09T08:50:49Z</time>
      </trkpt>
      <trkpt lat="44.58568" lon="5.61692">
        <ele>1485.37</ele>
        <time>2021-05-09T08:51:04Z</time>
      </trkpt>
      <trkpt lat="44.58562" lon="5.61692">
        <ele>1487.3</ele>
        <time>2021-05-09T08:51:16Z</time>
      </trkpt>
      <trkpt lat="44.58556" lon="5.61684">
        <ele>1490.18</ele>
        <time>2021-05-09T08:51:32Z</time>
      </trkpt>
      <trkpt lat="44.5855" lon="5.61674">
        <ele>1491.62</ele>
        <time>2021-05-09T08:51:48Z</time>
      </trkpt>
      <trkpt lat="44.58542" lon="5.61675">
        <ele>1493.06</ele>
        <time>2021-05-09T08:52:03Z</time>
      </trkpt>
      <trkpt lat="44.58535" lon="5.61678">
        <ele>1495.47</ele>
        <time>2021-05-09T08:52:17Z</time>
      </trkpt>
      <trkpt lat="44.58534" lon="5.61675">
        <ele>1496.43</ele>
        <time>2021-05-09T08:52:30Z</time>
      </trkpt>
      <trkpt lat="44.58531" lon="5.61685">
        <ele>1499.79</ele>
        <time>2021-05-09T08:52:50Z</time>
      </trkpt>
      <trkpt lat="44.58525" lon="5.61686">
        <ele>1502.68</ele>
        <time>2021-05-09T08:53:05Z</time>
      </trkpt>
      <trkpt lat="44.5852" lon="5.61676">
        <ele>1504.6</ele>
        <time>2021-05-09T08:53:23Z</time>
      </trkpt>
      <trkpt lat="44.58516" lon="5.61667">
        <ele>1506.04</ele>
        <time>2021-05-09T08:53:40Z</time>
      </trkpt>
      <trkpt lat="44.58506" lon="5.61658">
        <ele>1508.93</ele>
        <time>2021-05-09T08:53:59Z</time>
      </trkpt>
      <trkpt lat="44.58502" lon="5.61645">
        <ele>1511.33</ele>
        <time>2021-05-09T08:54:16Z</time>
      </trkpt>
      <trkpt lat="44.585" lon="5.61638">
        <ele>1513.25</ele>
        <time>2021-05-09T08:54:24Z</time>
      </trkpt>
      <trkpt lat="44.58493" lon="5.61626">
        <ele>1514.21</ele>
        <time>2021-05-09T08:54:38Z</time>
      </trkpt>
      <trkpt lat="44.58485" lon="5.61621">
        <ele>1515.66</ele>
        <time>2021-05-09T08:54:55Z</time>
      </trkpt>
      <trkpt lat="44.58482" lon="5.61619">
        <ele>1517.1</ele>
        <time>2021-05-09T08:54:59Z</time>
      </trkpt>
      <trkpt lat="44.58476" lon="5.61611">
        <ele>1517.58</ele>
        <time>2021-05-09T08:55:14Z</time>
      </trkpt>
      <trkpt lat="44.58475" lon="5.61608">
        <ele>1519.98</ele>
        <time>2021-05-09T08:55:19Z</time>
      </trkpt>
      <trkpt lat="44.58465" lon="5.61602">
        <ele>1520.46</ele>
        <time>2021-05-09T08:55:39Z</time>
      </trkpt>
      <trkpt lat="44.58461" lon="5.61599">
        <ele>1521.42</ele>
        <time>2021-05-09T08:56:02Z</time>
      </trkpt>
      <trkpt lat="44.58462" lon="5.61605">
        <ele>1520.46</ele>
        <time>2021-05-09T08:56:23Z</time>
      </trkpt>
      <trkpt lat="44.58461" lon="5.61617">
        <ele>1521.42</ele>
        <time>2021-05-09T08:56:39Z</time>
      </trkpt>
      <trkpt lat="44.58461" lon="5.61632">
        <ele>1524.31</ele>
        <time>2021-05-09T08:56:56Z</time>
      </trkpt>
      <trkpt lat="44.58461" lon="5.6165">
        <ele>1525.75</ele>
        <time>2021-05-09T08:57:13Z</time>
      </trkpt>
      <trkpt lat="44.58462" lon="5.61663">
        <ele>1526.23</ele>
        <time>2021-05-09T08:57:26Z</time>
      </trkpt>
      <trkpt lat="44.58461" lon="5.61679">
        <ele>1526.71</ele>
        <time>2021-05-09T08:57:43Z</time>
      </trkpt>
      <trkpt lat="44.58459" lon="5.61689">
        <ele>1527.19</ele>
        <time>2021-05-09T08:57:59Z</time>
      </trkpt>
      <trkpt lat="44.58461" lon="5.61702">
        <ele>1527.67</ele>
        <time>2021-05-09T08:58:13Z</time>
      </trkpt>
      <trkpt lat="44.58468" lon="5.61719">
        <ele>1528.63</ele>
        <time>2021-05-09T08:58:28Z</time>
      </trkpt>
      <trkpt lat="44.58474" lon="5.61729">
        <ele>1531.04</ele>
        <time>2021-05-09T08:58:45Z</time>
      </trkpt>
      <trkpt lat="44.58482" lon="5.61745">
        <ele>1532.96</ele>
        <time>2021-05-09T08:59:05Z</time>
      </trkpt>
      <trkpt lat="44.58488" lon="5.61756">
        <ele>1535.36</ele>
        <time>2021-05-09T08:59:23Z</time>
      </trkpt>
      <trkpt lat="44.58492" lon="5.61764">
        <ele>1536.8</ele>
        <time>2021-05-09T08:59:37Z</time>
      </trkpt>
      <trkpt lat="44.58493" lon="5.61768">
        <ele>1539.69</ele>
        <time>2021-05-09T08:59:46Z</time>
      </trkpt>
      <trkpt lat="44.58494" lon="5.61772">
        <ele>1541.13</ele>
        <time>2021-05-09T08:59:53Z</time>
      </trkpt>
      <trkpt lat="44.58499" lon="5.6178">
        <ele>1540.17</ele>
        <time>2021-05-09T09:00:08Z</time>
      </trkpt>
      <trkpt lat="44.58504" lon="5.61792">
        <ele>1540.17</ele>
        <time>2021-05-09T09:00:22Z</time>
      </trkpt>
      <trkpt lat="44.58512" lon="5.61804">
        <ele>1542.09</ele>
        <time>2021-05-09T09:00:37Z</time>
      </trkpt>
      <trkpt lat="44.5852" lon="5.61816">
        <ele>1543.05</ele>
        <time>2021-05-09T09:00:55Z</time>
      </trkpt>
      <trkpt lat="44.58526" lon="5.61827">
        <ele>1544.01</ele>
        <time>2021-05-09T09:01:11Z</time>
      </trkpt>
      <trkpt lat="44.58535" lon="5.61834">
        <ele>1544.01</ele>
        <time>2021-05-09T09:01:25Z</time>
      </trkpt>
      <trkpt lat="44.58541" lon="5.61845">
        <ele>1544.01</ele>
        <time>2021-05-09T09:01:39Z</time>
      </trkpt>
      <trkpt lat="44.58543" lon="5.61851">
        <ele>1544.5</ele>
        <time>2021-05-09T09:01:49Z</time>
      </trkpt>
      <trkpt lat="44.58548" lon="5.61857">
        <ele>1546.42</ele>
        <time>2021-05-09T09:03:20Z</time>
      </trkpt>
      <trkpt lat="44.5855" lon="5.61857">
        <ele>1546.9</ele>
        <time>2021-05-09T09:03:36Z</time>
      </trkpt>
      <trkpt lat="44.58556" lon="5.61862">
        <ele>1546.9</ele>
        <time>2021-05-09T09:03:53Z</time>
      </trkpt>
      <trkpt lat="44.58565" lon="5.61875">
        <ele>1547.38</ele>
        <time>2021-05-09T09:04:10Z</time>
      </trkpt>
      <trkpt lat="44.58573" lon="5.61888">
        <ele>1547.86</ele>
        <time>2021-05-09T09:04:28Z</time>
      </trkpt>
      <trkpt lat="44.58569" lon="5.61887">
        <ele>1548.82</ele>
        <time>2021-05-09T09:04:42Z</time>
      </trkpt>
      <trkpt lat="44.58564" lon="5.61884">
        <ele>1549.78</ele>
        <time>2021-05-09T09:04:57Z</time>
      </trkpt>
      <trkpt lat="44.58558" lon="5.61884">
        <ele>1552.67</ele>
        <time>2021-05-09T09:05:11Z</time>
      </trkpt>
      <trkpt lat="44.58553" lon="5.61884">
        <ele>1555.55</ele>
        <time>2021-05-09T09:05:24Z</time>
      </trkpt>
      <trkpt lat="44.58547" lon="5.61884">
        <ele>1556.99</ele>
        <time>2021-05-09T09:05:38Z</time>
      </trkpt>
      <trkpt lat="44.58539" lon="5.61881">
        <ele>1558.92</ele>
        <time>2021-05-09T09:05:52Z</time>
      </trkpt>
      <trkpt lat="44.58536" lon="5.61883">
        <ele>1561.32</ele>
        <time>2021-05-09T09:06:05Z</time>
      </trkpt>
      <trkpt lat="44.58529" lon="5.61884">
        <ele>1563.72</ele>
        <time>2021-05-09T09:06:22Z</time>
      </trkpt>
      <trkpt lat="44.58525" lon="5.61886">
        <ele>1566.12</ele>
        <time>2021-05-09T09:06:37Z</time>
      </trkpt>
      <trkpt lat="44.58528" lon="5.61894">
        <ele>1568.05</ele>
        <time>2021-05-09T09:06:52Z</time>
      </trkpt>
      <trkpt lat="44.5853" lon="5.61896">
        <ele>1569.01</ele>
        <time>2021-05-09T09:07:09Z</time>
      </trkpt>
      <trkpt lat="44.5853" lon="5.61896">
        <ele>1569.49</ele>
        <time>2021-05-09T09:07:31Z</time>
      </trkpt>
      <trkpt lat="44.58532" lon="5.61898">
        <ele>1569.97</ele>
        <time>2021-05-09T09:08:10Z</time>
      </trkpt>
      <trkpt lat="44.58536" lon="5.61909">
        <ele>1571.41</ele>
        <time>2021-05-09T09:08:22Z</time>
      </trkpt>
      <trkpt lat="44.58539" lon="5.61924">
        <ele>1572.85</ele>
        <time>2021-05-09T09:08:36Z</time>
      </trkpt>
      <trkpt lat="44.58544" lon="5.61938">
        <ele>1573.82</ele>
        <time>2021-05-09T09:08:53Z</time>
      </trkpt>
      <trkpt lat="44.58552" lon="5.61948">
        <ele>1574.78</ele>
        <time>2021-05-09T09:09:10Z</time>
      </trkpt>
      <trkpt lat="44.58553" lon="5.61952">
        <ele>1574.3</ele>
        <time>2021-05-09T09:11:01Z</time>
      </trkpt>
      <trkpt lat="44.58555" lon="5.61954">
        <ele>1577.66</ele>
        <time>2021-05-09T09:13:19Z</time>
      </trkpt>
      <trkpt lat="44.58557" lon="5.61961">
        <ele>1578.14</ele>
        <time>2021-05-09T09:13:34Z</time>
      </trkpt>
      <trkpt lat="44.58559" lon="5.61974">
        <ele>1579.58</ele>
        <time>2021-05-09T09:13:53Z</time>
      </trkpt>
      <trkpt lat="44.58562" lon="5.61988">
        <ele>1581.51</ele>
        <time>2021-05-09T09:14:11Z</time>
      </trkpt>
      <trkpt lat="44.58565" lon="5.61998">
        <ele>1581.99</ele>
        <time>2021-05-09T09:14:27Z</time>
      </trkpt>
      <trkpt lat="44.58565" lon="5.62007">
        <ele>1583.43</ele>
        <time>2021-05-09T09:14:43Z</time>
      </trkpt>
      <trkpt lat="44.58564" lon="5.6201">
        <ele>1583.91</ele>
        <time>2021-05-09T09:14:59Z</time>
      </trkpt>
      <trkpt lat="44.58566" lon="5.62021">
        <ele>1586.31</ele>
        <time>2021-05-09T09:15:16Z</time>
      </trkpt>
      <trkpt lat="44.58568" lon="5.62031">
        <ele>1589.2</ele>
        <time>2021-05-09T09:15:31Z</time>
      </trkpt>
      <trkpt lat="44.5857" lon="5.62036">
        <ele>1589.68</ele>
        <time>2021-05-09T09:15:46Z</time>
      </trkpt>
      <trkpt lat="44.58571" lon="5.62042">
        <ele>1590.64</ele>
        <time>2021-05-09T09:16:00Z</time>
      </trkpt>
      <trkpt lat="44.58574" lon="5.62049">
        <ele>1592.56</ele>
        <time>2021-05-09T09:16:17Z</time>
      </trkpt>
      <trkpt lat="44.58576" lon="5.62055">
        <ele>1595.45</ele>
        <time>2021-05-09T09:16:33Z</time>
      </trkpt>
      <trkpt lat="44.58577" lon="5.62062">
        <ele>1596.89</ele>
        <time>2021-05-09T09:16:46Z</time>
      </trkpt>
      <trkpt lat="44.58582" lon="5.62069">
        <ele>1597.37</ele>
        <time>2021-05-09T09:17:01Z</time>
      </trkpt>
      <trkpt lat="44.5859" lon="5.62083">
        <ele>1597.85</ele>
        <time>2021-05-09T09:17:17Z</time>
      </trkpt>
      <trkpt lat="44.58596" lon="5.62094">
        <ele>1597.85</ele>
        <time>2021-05-09T09:17:35Z</time>
      </trkpt>
      <trkpt lat="44.58603" lon="5.62107">
        <ele>1597.85</ele>
        <time>2021-05-09T09:17:53Z</time>
      </trkpt>
      <trkpt lat="44.58606" lon="5.62118">
        <ele>1598.81</ele>
        <time>2021-05-09T09:18:08Z</time>
      </trkpt>
      <trkpt lat="44.58611" lon="5.62132">
        <ele>1599.77</ele>
        <time>2021-05-09T09:18:25Z</time>
      </trkpt>
      <trkpt lat="44.58618" lon="5.62147">
        <ele>1600.25</ele>
        <time>2021-05-09T09:18:40Z</time>
      </trkpt>
      <trkpt lat="44.58628" lon="5.62163">
        <ele>1599.29</ele>
        <time>2021-05-09T09:18:58Z</time>
      </trkpt>
      <trkpt lat="44.58634" lon="5.62173">
        <ele>1599.29</ele>
        <time>2021-05-09T09:19:13Z</time>
      </trkpt>
      <trkpt lat="44.58639" lon="5.62182">
        <ele>1598.33</ele>
        <time>2021-05-09T09:19:31Z</time>
      </trkpt>
      <trkpt lat="44.58645" lon="5.62198">
        <ele>1598.33</ele>
        <time>2021-05-09T09:19:46Z</time>
      </trkpt>
      <trkpt lat="44.58651" lon="5.62212">
        <ele>1597.85</ele>
        <time>2021-05-09T09:20:02Z</time>
      </trkpt>
      <trkpt lat="44.58655" lon="5.62223">
        <ele>1597.85</ele>
        <time>2021-05-09T09:20:15Z</time>
      </trkpt>
      <trkpt lat="44.58658" lon="5.62236">
        <ele>1597.85</ele>
        <time>2021-05-09T09:20:31Z</time>
      </trkpt>
      <trkpt lat="44.58661" lon="5.62251">
        <ele>1597.85</ele>
        <time>2021-05-09T09:20:45Z</time>
      </trkpt>
      <trkpt lat="44.58664" lon="5.62257">
        <ele>1597.37</ele>
        <time>2021-05-09T09:20:58Z</time>
      </trkpt>
      <trkpt lat="44.58667" lon="5.62266">
        <ele>1599.29</ele>
        <time>2021-05-09T09:21:12Z</time>
      </trkpt>
      <trkpt lat="44.58667" lon="5.62281">
        <ele>1599.77</ele>
        <time>2021-05-09T09:21:28Z</time>
      </trkpt>
      <trkpt lat="44.58671" lon="5.62287">
        <ele>1600.25</ele>
        <time>2021-05-09T09:21:44Z</time>
      </trkpt>
      <trkpt lat="44.5867" lon="5.62288">
        <ele>1598.81</ele>
        <time>2021-05-09T09:21:52Z</time>
      </trkpt>
      <trkpt lat="44.58672" lon="5.62292">
        <ele>1599.29</ele>
        <time>2021-05-09T09:22:07Z</time>
      </trkpt>
      <trkpt lat="44.58668" lon="5.62293">
        <ele>1600.73</ele>
        <time>2021-05-09T09:22:19Z</time>
      </trkpt>
      <trkpt lat="44.58668" lon="5.62294">
        <ele>1600.73</ele>
        <time>2021-05-09T09:22:39Z</time>
      </trkpt>
      <trkpt lat="44.58669" lon="5.62296">
        <ele>1602.17</ele>
        <time>2021-05-09T09:23:11Z</time>
      </trkpt>
      <trkpt lat="44.58664" lon="5.62289">
        <ele>1603.62</ele>
        <time>2021-05-09T09:23:31Z</time>
      </trkpt>
      <trkpt lat="44.58665" lon="5.62289">
        <ele>1603.62</ele>
        <time>2021-05-09T09:23:32Z</time>
      </trkpt>
      <trkpt lat="44.58663" lon="5.6229">
        <ele>1602.66</ele>
        <time>2021-05-09T09:24:41Z</time>
      </trkpt>
      <trkpt lat="44.5866" lon="5.62286">
        <ele>1606.02</ele>
        <time>2021-05-09T09:24:54Z</time>
      </trkpt>
      <trkpt lat="44.58659" lon="5.62291">
        <ele>1607.46</ele>
        <time>2021-05-09T09:25:05Z</time>
      </trkpt>
      <trkpt lat="44.58659" lon="5.62297">
        <ele>1607.94</ele>
        <time>2021-05-09T09:25:21Z</time>
      </trkpt>
      <trkpt lat="44.58654" lon="5.62297">
        <ele>1611.79</ele>
        <time>2021-05-09T09:25:37Z</time>
      </trkpt>
      <trkpt lat="44.58654" lon="5.62296">
        <ele>1611.79</ele>
        <time>2021-05-09T09:25:38Z</time>
      </trkpt>
      <trkpt lat="44.5865" lon="5.62297">
        <ele>1613.71</ele>
        <time>2021-05-09T09:25:54Z</time>
      </trkpt>
      <trkpt lat="44.58649" lon="5.62298">
        <ele>1616.11</ele>
        <time>2021-05-09T09:26:10Z</time>
      </trkpt>
      <trkpt lat="44.58644" lon="5.62296">
        <ele>1617.07</ele>
        <time>2021-05-09T09:26:26Z</time>
      </trkpt>
      <trkpt lat="44.58641" lon="5.62293">
        <ele>1618.52</ele>
        <time>2021-05-09T09:26:42Z</time>
      </trkpt>
      <trkpt lat="44.58638" lon="5.62288">
        <ele>1621.4</ele>
        <time>2021-05-09T09:26:56Z</time>
      </trkpt>
      <trkpt lat="44.58638" lon="5.62288">
        <ele>1622.36</ele>
        <time>2021-05-09T09:26:58Z</time>
      </trkpt>
      <trkpt lat="44.58636" lon="5.62284">
        <ele>1620.92</ele>
        <time>2021-05-09T09:27:07Z</time>
      </trkpt>
      <trkpt lat="44.58635" lon="5.62282">
        <ele>1624.28</ele>
        <time>2021-05-09T09:27:13Z</time>
      </trkpt>
      <trkpt lat="44.58635" lon="5.62281">
        <ele>1624.28</ele>
        <time>2021-05-09T09:27:14Z</time>
      </trkpt>
      <trkpt lat="44.58633" lon="5.6228">
        <ele>1623.32</ele>
        <time>2021-05-09T09:27:18Z</time>
      </trkpt>
      <trkpt lat="44.58632" lon="5.6228">
        <ele>1626.69</ele>
        <time>2021-05-09T09:27:26Z</time>
      </trkpt>
      <trkpt lat="44.58631" lon="5.6228">
        <ele>1625.73</ele>
        <time>2021-05-09T09:27:41Z</time>
      </trkpt>
      <trkpt lat="44.58631" lon="5.62277">
        <ele>1627.17</ele>
        <time>2021-05-09T09:27:47Z</time>
      </trkpt>
      <trkpt lat="44.58629" lon="5.62272">
        <ele>1631.01</ele>
        <time>2021-05-09T09:27:58Z</time>
      </trkpt>
      <trkpt lat="44.58629" lon="5.6227">
        <ele>1627.65</ele>
        <time>2021-05-09T09:28:03Z</time>
      </trkpt>
      <trkpt lat="44.58627" lon="5.62265">
        <ele>1628.61</ele>
        <time>2021-05-09T09:28:17Z</time>
      </trkpt>
      <trkpt lat="44.58626" lon="5.62265">
        <ele>1630.53</ele>
        <time>2021-05-09T09:28:21Z</time>
      </trkpt>
      <trkpt lat="44.58626" lon="5.62264">
        <ele>1631.98</ele>
        <time>2021-05-09T09:28:24Z</time>
      </trkpt>
      <trkpt lat="44.58625" lon="5.62265">
        <ele>1635.34</ele>
        <time>2021-05-09T09:28:28Z</time>
      </trkpt>
      <trkpt lat="44.58625" lon="5.62267">
        <ele>1634.38</ele>
        <time>2021-05-09T09:28:31Z</time>
      </trkpt>
      <trkpt lat="44.58622" lon="5.62269">
        <ele>1633.9</ele>
        <time>2021-05-09T09:28:46Z</time>
      </trkpt>
      <trkpt lat="44.58622" lon="5.62278">
        <ele>1636.78</ele>
        <time>2021-05-09T09:29:01Z</time>
      </trkpt>
      <trkpt lat="44.58619" lon="5.62289">
        <ele>1638.7</ele>
        <time>2021-05-09T09:29:16Z</time>
      </trkpt>
      <trkpt lat="44.58617" lon="5.62293">
        <ele>1638.22</ele>
        <time>2021-05-09T09:29:32Z</time>
      </trkpt>
      <trkpt lat="44.58617" lon="5.62291">
        <ele>1639.19</ele>
        <time>2021-05-09T09:29:37Z</time>
      </trkpt>
      <trkpt lat="44.58614" lon="5.62286">
        <ele>1641.11</ele>
        <time>2021-05-09T09:29:52Z</time>
      </trkpt>
      <trkpt lat="44.58609" lon="5.62281">
        <ele>1643.03</ele>
        <time>2021-05-09T09:30:07Z</time>
      </trkpt>
      <trkpt lat="44.58603" lon="5.62276">
        <ele>1646.4</ele>
        <time>2021-05-09T09:30:23Z</time>
      </trkpt>
      <trkpt lat="44.58602" lon="5.62276">
        <ele>1647.84</ele>
        <time>2021-05-09T09:30:25Z</time>
      </trkpt>
      <trkpt lat="44.58595" lon="5.62273">
        <ele>1648.32</ele>
        <time>2021-05-09T09:30:41Z</time>
      </trkpt>
      <trkpt lat="44.58592" lon="5.62271">
        <ele>1651.2</ele>
        <time>2021-05-09T09:30:52Z</time>
      </trkpt>
      <trkpt lat="44.58588" lon="5.62267">
        <ele>1651.2</ele>
        <time>2021-05-09T09:31:05Z</time>
      </trkpt>
      <trkpt lat="44.58586" lon="5.62267">
        <ele>1653.12</ele>
        <time>2021-05-09T09:31:07Z</time>
      </trkpt>
      <trkpt lat="44.58584" lon="5.62267">
        <ele>1656.97</ele>
        <time>2021-05-09T09:31:13Z</time>
      </trkpt>
      <trkpt lat="44.58585" lon="5.6227">
        <ele>1653.6</ele>
        <time>2021-05-09T09:31:23Z</time>
      </trkpt>
      <trkpt lat="44.58585" lon="5.6227">
        <ele>1653.6</ele>
        <time>2021-05-09T09:31:24Z</time>
      </trkpt>
      <trkpt lat="44.58584" lon="5.62276">
        <ele>1656.97</ele>
        <time>2021-05-09T09:31:30Z</time>
      </trkpt>
      <trkpt lat="44.58584" lon="5.62277">
        <ele>1656.97</ele>
        <time>2021-05-09T09:31:31Z</time>
      </trkpt>
      <trkpt lat="44.58582" lon="5.62288">
        <ele>1659.85</ele>
        <time>2021-05-09T09:31:47Z</time>
      </trkpt>
      <trkpt lat="44.5858" lon="5.62295">
        <ele>1662.74</ele>
        <time>2021-05-09T09:31:57Z</time>
      </trkpt>
      <trkpt lat="44.5858" lon="5.62296">
        <ele>1662.74</ele>
        <time>2021-05-09T09:31:58Z</time>
      </trkpt>
      <trkpt lat="44.5858" lon="5.62298">
        <ele>1661.3</ele>
        <time>2021-05-09T09:32:00Z</time>
      </trkpt>
      <trkpt lat="44.5858" lon="5.62305">
        <ele>1663.7</ele>
        <time>2021-05-09T09:32:11Z</time>
      </trkpt>
      <trkpt lat="44.58579" lon="5.62312">
        <ele>1667.06</ele>
        <time>2021-05-09T09:32:22Z</time>
      </trkpt>
      <trkpt lat="44.58579" lon="5.62315">
        <ele>1665.14</ele>
        <time>2021-05-09T09:32:29Z</time>
      </trkpt>
      <trkpt lat="44.58578" lon="5.62316">
        <ele>1667.06</ele>
        <time>2021-05-09T09:32:32Z</time>
      </trkpt>
      <trkpt lat="44.58578" lon="5.62317">
        <ele>1668.51</ele>
        <time>2021-05-09T09:32:35Z</time>
      </trkpt>
      <trkpt lat="44.58577" lon="5.62318">
        <ele>1667.54</ele>
        <time>2021-05-09T09:32:37Z</time>
      </trkpt>
      <trkpt lat="44.58577" lon="5.62321">
        <ele>1670.43</ele>
        <time>2021-05-09T09:32:41Z</time>
      </trkpt>
      <trkpt lat="44.58576" lon="5.62329">
        <ele>1668.51</ele>
        <time>2021-05-09T09:32:55Z</time>
      </trkpt>
      <trkpt lat="44.58576" lon="5.62331">
        <ele>1670.91</ele>
        <time>2021-05-09T09:32:57Z</time>
      </trkpt>
      <trkpt lat="44.58575" lon="5.62334">
        <ele>1676.68</ele>
        <time>2021-05-09T09:33:01Z</time>
      </trkpt>
      <trkpt lat="44.58575" lon="5.62334">
        <ele>1673.31</ele>
        <time>2021-05-09T09:33:02Z</time>
      </trkpt>
      <trkpt lat="44.58574" lon="5.62336">
        <ele>1671.39</ele>
        <time>2021-05-09T09:33:04Z</time>
      </trkpt>
      <trkpt lat="44.58573" lon="5.62346">
        <ele>1675.23</ele>
        <time>2021-05-09T09:33:15Z</time>
      </trkpt>
      <trkpt lat="44.58572" lon="5.6235">
        <ele>1673.31</ele>
        <time>2021-05-09T09:33:19Z</time>
      </trkpt>
      <trkpt lat="44.5857" lon="5.62362">
        <ele>1674.27</ele>
        <time>2021-05-09T09:33:32Z</time>
      </trkpt>
      <trkpt lat="44.5857" lon="5.62366">
        <ele>1675.23</ele>
        <time>2021-05-09T09:33:36Z</time>
      </trkpt>
      <trkpt lat="44.5857" lon="5.62367">
        <ele>1676.68</ele>
        <time>2021-05-09T09:33:38Z</time>
      </trkpt>
      <trkpt lat="44.58569" lon="5.62373">
        <ele>1680.04</ele>
        <time>2021-05-09T09:33:46Z</time>
      </trkpt>
      <trkpt lat="44.58569" lon="5.62373">
        <ele>1680.04</ele>
        <time>2021-05-09T09:33:47Z</time>
      </trkpt>
      <trkpt lat="44.58568" lon="5.62384">
        <ele>1681.96</ele>
        <time>2021-05-09T09:34:03Z</time>
      </trkpt>
      <trkpt lat="44.58568" lon="5.62385">
        <ele>1679.08</ele>
        <time>2021-05-09T09:34:06Z</time>
      </trkpt>
      <trkpt lat="44.58568" lon="5.62386">
        <ele>1683.89</ele>
        <time>2021-05-09T09:34:09Z</time>
      </trkpt>
      <trkpt lat="44.58568" lon="5.62387">
        <ele>1686.29</ele>
        <time>2021-05-09T09:34:11Z</time>
      </trkpt>
      <trkpt lat="44.58569" lon="5.62394">
        <ele>1688.69</ele>
        <time>2021-05-09T09:34:21Z</time>
      </trkpt>
      <trkpt lat="44.5857" lon="5.62395">
        <ele>1687.73</ele>
        <time>2021-05-09T09:37:30Z</time>
      </trkpt>
      <trkpt lat="44.58571" lon="5.62397">
        <ele>1686.29</ele>
        <time>2021-05-09T09:37:41Z</time>
      </trkpt>
      <trkpt lat="44.58571" lon="5.62398">
        <ele>1689.17</ele>
        <time>2021-05-09T09:37:44Z</time>
      </trkpt>
      <trkpt lat="44.58571" lon="5.62398">
        <ele>1689.17</ele>
        <time>2021-05-09T09:37:45Z</time>
      </trkpt>
      <trkpt lat="44.58571" lon="5.62398">
        <ele>1687.73</ele>
        <time>2021-05-09T09:37:48Z</time>
      </trkpt>
      <trkpt lat="44.58571" lon="5.62399">
        <ele>1684.37</ele>
        <time>2021-05-09T09:37:54Z</time>
      </trkpt>
      <trkpt lat="44.58571" lon="5.62401">
        <ele>1683.41</ele>
        <time>2021-05-09T09:37:56Z</time>
      </trkpt>
      <trkpt lat="44.58571" lon="5.62404">
        <ele>1683.41</ele>
        <time>2021-05-09T09:37:58Z</time>
      </trkpt>
      <trkpt lat="44.58571" lon="5.62409">
        <ele>1686.29</ele>
        <time>2021-05-09T09:38:02Z</time>
      </trkpt>
      <trkpt lat="44.58573" lon="5.62425">
        <ele>1685.33</ele>
        <time>2021-05-09T09:38:16Z</time>
      </trkpt>
      <trkpt lat="44.58573" lon="5.62428">
        <ele>1686.77</ele>
        <time>2021-05-09T09:38:20Z</time>
      </trkpt>
      <trkpt lat="44.58575" lon="5.62448">
        <ele>1687.25</ele>
        <time>2021-05-09T09:38:36Z</time>
      </trkpt>
      <trkpt lat="44.58576" lon="5.62452">
        <ele>1685.81</ele>
        <time>2021-05-09T09:38:39Z</time>
      </trkpt>
      <trkpt lat="44.58577" lon="5.62461">
        <ele>1687.25</ele>
        <time>2021-05-09T09:38:44Z</time>
      </trkpt>
      <trkpt lat="44.58577" lon="5.62464">
        <ele>1685.81</ele>
        <time>2021-05-09T09:38:47Z</time>
      </trkpt>
      <trkpt lat="44.58579" lon="5.62476">
        <ele>1685.81</ele>
        <time>2021-05-09T09:38:57Z</time>
      </trkpt>
      <trkpt lat="44.58582" lon="5.62489">
        <ele>1686.77</ele>
        <time>2021-05-09T09:39:12Z</time>
      </trkpt>
      <trkpt lat="44.58582" lon="5.62491">
        <ele>1689.65</ele>
        <time>2021-05-09T09:39:15Z</time>
      </trkpt>
      <trkpt lat="44.58582" lon="5.62491">
        <ele>1691.58</ele>
        <time>2021-05-09T09:39:17Z</time>
      </trkpt>
      <trkpt lat="44.58582" lon="5.62495">
        <ele>1687.73</ele>
        <time>2021-05-09T09:39:21Z</time>
      </trkpt>
      <trkpt lat="44.58582" lon="5.62496">
        <ele>1687.73</ele>
        <time>2021-05-09T09:39:22Z</time>
      </trkpt>
      <trkpt lat="44.58583" lon="5.62502">
        <ele>1688.69</ele>
        <time>2021-05-09T09:39:28Z</time>
      </trkpt>
      <trkpt lat="44.58583" lon="5.62505">
        <ele>1687.25</ele>
        <time>2021-05-09T09:39:31Z</time>
      </trkpt>
      <trkpt lat="44.58585" lon="5.62512">
        <ele>1686.29</ele>
        <time>2021-05-09T09:39:35Z</time>
      </trkpt>
      <trkpt lat="44.58587" lon="5.62521">
        <ele>1687.73</ele>
        <time>2021-05-09T09:39:41Z</time>
      </trkpt>
      <trkpt lat="44.58589" lon="5.62526">
        <ele>1686.29</ele>
        <time>2021-05-09T09:39:44Z</time>
      </trkpt>
      <trkpt lat="44.58596" lon="5.62543">
        <ele>1689.17</ele>
        <time>2021-05-09T09:39:58Z</time>
      </trkpt>
      <trkpt lat="44.58602" lon="5.62554">
        <ele>1688.69</ele>
        <time>2021-05-09T09:40:06Z</time>
      </trkpt>
      <trkpt lat="44.5861" lon="5.6257">
        <ele>1692.06</ele>
        <time>2021-05-09T09:40:20Z</time>
      </trkpt>
      <trkpt lat="44.5861" lon="5.62571">
        <ele>1692.06</ele>
        <time>2021-05-09T09:40:21Z</time>
      </trkpt>
      <trkpt lat="44.58611" lon="5.62574">
        <ele>1688.69</ele>
        <time>2021-05-09T09:40:23Z</time>
      </trkpt>
      <trkpt lat="44.58611" lon="5.62575">
        <ele>1688.69</ele>
        <time>2021-05-09T09:40:24Z</time>
      </trkpt>
      <trkpt lat="44.58613" lon="5.6258">
        <ele>1687.73</ele>
        <time>2021-05-09T09:40:29Z</time>
      </trkpt>
      <trkpt lat="44.58618" lon="5.6259">
        <ele>1692.06</ele>
        <time>2021-05-09T09:40:39Z</time>
      </trkpt>
      <trkpt lat="44.58619" lon="5.62593">
        <ele>1688.69</ele>
        <time>2021-05-09T09:40:42Z</time>
      </trkpt>
      <trkpt lat="44.58619" lon="5.62594">
        <ele>1688.69</ele>
        <time>2021-05-09T09:40:43Z</time>
      </trkpt>
      <trkpt lat="44.58624" lon="5.62604">
        <ele>1693.5</ele>
        <time>2021-05-09T09:40:55Z</time>
      </trkpt>
      <trkpt lat="44.58624" lon="5.62605">
        <ele>1692.54</ele>
        <time>2021-05-09T09:40:56Z</time>
      </trkpt>
      <trkpt lat="44.58627" lon="5.62607">
        <ele>1691.58</ele>
        <time>2021-05-09T09:41:00Z</time>
      </trkpt>
      <trkpt lat="44.58629" lon="5.62609">
        <ele>1692.06</ele>
        <time>2021-05-09T09:41:04Z</time>
      </trkpt>
      <trkpt lat="44.58631" lon="5.6261">
        <ele>1690.14</ele>
        <time>2021-05-09T09:41:11Z</time>
      </trkpt>
      <trkpt lat="44.58641" lon="5.62617">
        <ele>1687.25</ele>
        <time>2021-05-09T09:41:25Z</time>
      </trkpt>
      <trkpt lat="44.58649" lon="5.62624">
        <ele>1685.81</ele>
        <time>2021-05-09T09:41:35Z</time>
      </trkpt>
      <trkpt lat="44.58662" lon="5.62631">
        <ele>1685.33</ele>
        <time>2021-05-09T09:41:50Z</time>
      </trkpt>
      <trkpt lat="44.58672" lon="5.62639">
        <ele>1684.37</ele>
        <time>2021-05-09T09:42:06Z</time>
      </trkpt>
      <trkpt lat="44.58686" lon="5.62648">
        <ele>1684.85</ele>
        <time>2021-05-09T09:42:22Z</time>
      </trkpt>
      <trkpt lat="44.58687" lon="5.62648">
        <ele>1683.41</ele>
        <time>2021-05-09T09:42:34Z</time>
      </trkpt>
      <trkpt lat="44.58687" lon="5.62648">
        <ele>1684.85</ele>
        <time>2021-05-09T09:42:37Z</time>
      </trkpt>
      <trkpt lat="44.58687" lon="5.62651">
        <ele>1685.33</ele>
        <time>2021-05-09T09:42:52Z</time>
      </trkpt>
      <trkpt lat="44.58688" lon="5.62654">
        <ele>1683.89</ele>
        <time>2021-05-09T09:42:56Z</time>
      </trkpt>
      <trkpt lat="44.58689" lon="5.62654">
        <ele>1685.81</ele>
        <time>2021-05-09T09:43:02Z</time>
      </trkpt>
      <trkpt lat="44.5869" lon="5.62653">
        <ele>1684.85</ele>
        <time>2021-05-09T09:43:04Z</time>
      </trkpt>
      <trkpt lat="44.58692" lon="5.62654">
        <ele>1683.89</ele>
        <time>2021-05-09T09:43:09Z</time>
      </trkpt>
      <trkpt lat="44.58698" lon="5.62655">
        <ele>1682.93</ele>
        <time>2021-05-09T09:43:21Z</time>
      </trkpt>
      <trkpt lat="44.5871" lon="5.6266">
        <ele>1681.48</ele>
        <time>2021-05-09T09:43:38Z</time>
      </trkpt>
      <trkpt lat="44.58721" lon="5.62665">
        <ele>1680.04</ele>
        <time>2021-05-09T09:43:55Z</time>
      </trkpt>
      <trkpt lat="44.58726" lon="5.62666">
        <ele>1676.68</ele>
        <time>2021-05-09T09:44:02Z</time>
      </trkpt>
      <trkpt lat="44.58728" lon="5.62666">
        <ele>1676.68</ele>
        <time>2021-05-09T09:44:06Z</time>
      </trkpt>
      <trkpt lat="44.58739" lon="5.62669">
        <ele>1673.79</ele>
        <time>2021-05-09T09:44:22Z</time>
      </trkpt>
      <trkpt lat="44.58745" lon="5.6267">
        <ele>1671.87</ele>
        <time>2021-05-09T09:44:31Z</time>
      </trkpt>
      <trkpt lat="44.58753" lon="5.62674">
        <ele>1672.83</ele>
        <time>2021-05-09T09:44:47Z</time>
      </trkpt>
      <trkpt lat="44.58757" lon="5.62675">
        <ele>1670.43</ele>
        <time>2021-05-09T09:44:53Z</time>
      </trkpt>
      <trkpt lat="44.58758" lon="5.62676">
        <ele>1668.51</ele>
        <time>2021-05-09T09:44:55Z</time>
      </trkpt>
      <trkpt lat="44.58764" lon="5.62675">
        <ele>1667.54</ele>
        <time>2021-05-09T09:45:06Z</time>
      </trkpt>
      <trkpt lat="44.58766" lon="5.62675">
        <ele>1666.1</ele>
        <time>2021-05-09T09:45:09Z</time>
      </trkpt>
      <trkpt lat="44.58772" lon="5.62674">
        <ele>1663.7</ele>
        <time>2021-05-09T09:45:21Z</time>
      </trkpt>
      <trkpt lat="44.58781" lon="5.62673">
        <ele>1665.62</ele>
        <time>2021-05-09T09:45:36Z</time>
      </trkpt>
      <trkpt lat="44.58785" lon="5.62673">
        <ele>1661.3</ele>
        <time>2021-05-09T09:45:41Z</time>
      </trkpt>
      <trkpt lat="44.58788" lon="5.62672">
        <ele>1658.41</ele>
        <time>2021-05-09T09:45:46Z</time>
      </trkpt>
      <trkpt lat="44.58796" lon="5.62672">
        <ele>1656.97</ele>
        <time>2021-05-09T09:46:01Z</time>
      </trkpt>
      <trkpt lat="44.58801" lon="5.62673">
        <ele>1656.01</ele>
        <time>2021-05-09T09:46:16Z</time>
      </trkpt>
      <trkpt lat="44.58801" lon="5.62673">
        <ele>1656.01</ele>
        <time>2021-05-09T09:46:17Z</time>
      </trkpt>
      <trkpt lat="44.58801" lon="5.62672">
        <ele>1655.53</ele>
        <time>2021-05-09T09:46:40Z</time>
      </trkpt>
      <trkpt lat="44.58802" lon="5.62672">
        <ele>1656.49</ele>
        <time>2021-05-09T09:46:50Z</time>
      </trkpt>
      <trkpt lat="44.58806" lon="5.62669">
        <ele>1656.01</ele>
        <time>2021-05-09T09:47:02Z</time>
      </trkpt>
      <trkpt lat="44.5881" lon="5.62669">
        <ele>1652.64</ele>
        <time>2021-05-09T09:47:10Z</time>
      </trkpt>
      <trkpt lat="44.58811" lon="5.62669">
        <ele>1652.64</ele>
        <time>2021-05-09T09:47:11Z</time>
      </trkpt>
      <trkpt lat="44.58815" lon="5.62667">
        <ele>1649.28</ele>
        <time>2021-05-09T09:47:19Z</time>
      </trkpt>
      <trkpt lat="44.58817" lon="5.62664">
        <ele>1648.8</ele>
        <time>2021-05-09T09:47:22Z</time>
      </trkpt>
      <trkpt lat="44.58827" lon="5.62662">
        <ele>1646.4</ele>
        <time>2021-05-09T09:47:37Z</time>
      </trkpt>
      <trkpt lat="44.58833" lon="5.6266">
        <ele>1642.55</ele>
        <time>2021-05-09T09:47:45Z</time>
      </trkpt>
      <trkpt lat="44.58839" lon="5.62658">
        <ele>1638.7</ele>
        <time>2021-05-09T09:47:52Z</time>
      </trkpt>
      <trkpt lat="44.58842" lon="5.62657">
        <ele>1637.26</ele>
        <time>2021-05-09T09:47:56Z</time>
      </trkpt>
      <trkpt lat="44.58849" lon="5.62656">
        <ele>1636.78</ele>
        <time>2021-05-09T09:48:10Z</time>
      </trkpt>
      <trkpt lat="44.58854" lon="5.62653">
        <ele>1633.42</ele>
        <time>2021-05-09T09:48:18Z</time>
      </trkpt>
      <trkpt lat="44.5886" lon="5.62652">
        <ele>1630.53</ele>
        <time>2021-05-09T09:48:25Z</time>
      </trkpt>
      <trkpt lat="44.58865" lon="5.62651">
        <ele>1627.65</ele>
        <time>2021-05-09T09:48:30Z</time>
      </trkpt>
      <trkpt lat="44.58871" lon="5.62648">
        <ele>1628.61</ele>
        <time>2021-05-09T09:48:38Z</time>
      </trkpt>
      <trkpt lat="44.58873" lon="5.62648">
        <ele>1626.21</ele>
        <time>2021-05-09T09:48:50Z</time>
      </trkpt>
      <trkpt lat="44.58874" lon="5.62648">
        <ele>1627.17</ele>
        <time>2021-05-09T09:48:52Z</time>
      </trkpt>
      <trkpt lat="44.58881" lon="5.62647">
        <ele>1627.17</ele>
        <time>2021-05-09T09:49:02Z</time>
      </trkpt>
      <trkpt lat="44.58881" lon="5.62645">
        <ele>1630.05</ele>
        <time>2021-05-09T09:49:13Z</time>
      </trkpt>
      <trkpt lat="44.58883" lon="5.62644">
        <ele>1626.69</ele>
        <time>2021-05-09T09:49:15Z</time>
      </trkpt>
      <trkpt lat="44.58889" lon="5.6264">
        <ele>1628.13</ele>
        <time>2021-05-09T09:49:22Z</time>
      </trkpt>
      <trkpt lat="44.58899" lon="5.62633">
        <ele>1630.53</ele>
        <time>2021-05-09T09:49:38Z</time>
      </trkpt>
      <trkpt lat="44.58907" lon="5.62628">
        <ele>1632.94</ele>
        <time>2021-05-09T09:49:48Z</time>
      </trkpt>
      <trkpt lat="44.58915" lon="5.62622">
        <ele>1633.42</ele>
        <time>2021-05-09T09:50:05Z</time>
      </trkpt>
      <trkpt lat="44.58916" lon="5.62621">
        <ele>1631.98</ele>
        <time>2021-05-09T09:50:07Z</time>
      </trkpt>
      <trkpt lat="44.58922" lon="5.62616">
        <ele>1635.82</ele>
        <time>2021-05-09T09:50:24Z</time>
      </trkpt>
      <trkpt lat="44.58925" lon="5.62613">
        <ele>1639.19</ele>
        <time>2021-05-09T09:50:33Z</time>
      </trkpt>
      <trkpt lat="44.58926" lon="5.62613">
        <ele>1640.15</ele>
        <time>2021-05-09T09:50:35Z</time>
      </trkpt>
      <trkpt lat="44.58929" lon="5.62612">
        <ele>1643.51</ele>
        <time>2021-05-09T09:50:42Z</time>
      </trkpt>
      <trkpt lat="44.58933" lon="5.6261">
        <ele>1644.47</ele>
        <time>2021-05-09T09:50:49Z</time>
      </trkpt>
      <trkpt lat="44.58939" lon="5.62605">
        <ele>1648.32</ele>
        <time>2021-05-09T09:51:03Z</time>
      </trkpt>
      <trkpt lat="44.58939" lon="5.62605">
        <ele>1648.32</ele>
        <time>2021-05-09T09:51:04Z</time>
      </trkpt>
      <trkpt lat="44.58941" lon="5.62604">
        <ele>1649.76</ele>
        <time>2021-05-09T09:51:08Z</time>
      </trkpt>
      <trkpt lat="44.58943" lon="5.62603">
        <ele>1651.68</ele>
        <time>2021-05-09T09:51:11Z</time>
      </trkpt>
      <trkpt lat="44.58943" lon="5.62602">
        <ele>1653.12</ele>
        <time>2021-05-09T09:51:13Z</time>
      </trkpt>
      <trkpt lat="44.58945" lon="5.62601">
        <ele>1658.41</ele>
        <time>2021-05-09T09:51:17Z</time>
      </trkpt>
      <trkpt lat="44.58946" lon="5.626">
        <ele>1654.57</ele>
        <time>2021-05-09T09:51:20Z</time>
      </trkpt>
      <trkpt lat="44.58947" lon="5.626">
        <ele>1649.76</ele>
        <time>2021-05-09T09:51:21Z</time>
      </trkpt>
      <trkpt lat="44.58948" lon="5.626">
        <ele>1653.12</ele>
        <time>2021-05-09T09:51:25Z</time>
      </trkpt>
      <trkpt lat="44.58951" lon="5.62597">
        <ele>1656.97</ele>
        <time>2021-05-09T09:51:32Z</time>
      </trkpt>
      <trkpt lat="44.58952" lon="5.62597">
        <ele>1656.49</ele>
        <time>2021-05-09T09:51:33Z</time>
      </trkpt>
      <trkpt lat="44.58956" lon="5.62595">
        <ele>1659.85</ele>
        <time>2021-05-09T09:51:38Z</time>
      </trkpt>
      <trkpt lat="44.58956" lon="5.62595">
        <ele>1659.85</ele>
        <time>2021-05-09T09:51:39Z</time>
      </trkpt>
      <trkpt lat="44.58959" lon="5.62595">
        <ele>1666.58</ele>
        <time>2021-05-09T09:51:43Z</time>
      </trkpt>
      <trkpt lat="44.5896" lon="5.62595">
        <ele>1664.66</ele>
        <time>2021-05-09T09:51:44Z</time>
      </trkpt>
      <trkpt lat="44.58962" lon="5.62595">
        <ele>1665.62</ele>
        <time>2021-05-09T09:51:47Z</time>
      </trkpt>
      <trkpt lat="44.58964" lon="5.62595">
        <ele>1665.62</ele>
        <time>2021-05-09T09:51:49Z</time>
      </trkpt>
      <trkpt lat="44.58968" lon="5.62598">
        <ele>1668.99</ele>
        <time>2021-05-09T09:51:55Z</time>
      </trkpt>
      <trkpt lat="44.5897" lon="5.62599">
        <ele>1672.35</ele>
        <time>2021-05-09T09:51:57Z</time>
      </trkpt>
      <trkpt lat="44.58971" lon="5.626">
        <ele>1666.1</ele>
        <time>2021-05-09T09:51:59Z</time>
      </trkpt>
      <trkpt lat="44.58972" lon="5.626">
        <ele>1670.43</ele>
        <time>2021-05-09T09:52:00Z</time>
      </trkpt>
      <trkpt lat="44.58973" lon="5.62601">
        <ele>1667.06</ele>
        <time>2021-05-09T09:52:01Z</time>
      </trkpt>
      <trkpt lat="44.58973" lon="5.62601">
        <ele>1671.39</ele>
        <time>2021-05-09T09:52:02Z</time>
      </trkpt>
      <trkpt lat="44.58976" lon="5.62603">
        <ele>1667.54</ele>
        <time>2021-05-09T09:52:06Z</time>
      </trkpt>
      <trkpt lat="44.58978" lon="5.62604">
        <ele>1671.87</ele>
        <time>2021-05-09T09:52:08Z</time>
      </trkpt>
      <trkpt lat="44.58979" lon="5.62605">
        <ele>1668.02</ele>
        <time>2021-05-09T09:52:10Z</time>
      </trkpt>
      <trkpt lat="44.5898" lon="5.62606">
        <ele>1668.02</ele>
        <time>2021-05-09T09:52:11Z</time>
      </trkpt>
      <trkpt lat="44.58983" lon="5.62607">
        <ele>1671.39</ele>
        <time>2021-05-09T09:52:14Z</time>
      </trkpt>
      <trkpt lat="44.58983" lon="5.62608">
        <ele>1674.27</ele>
        <time>2021-05-09T09:52:15Z</time>
      </trkpt>
      <trkpt lat="44.58984" lon="5.62608">
        <ele>1673.79</ele>
        <time>2021-05-09T09:52:16Z</time>
      </trkpt>
      <trkpt lat="44.58987" lon="5.62611">
        <ele>1673.79</ele>
        <time>2021-05-09T09:52:20Z</time>
      </trkpt>
      <trkpt lat="44.58988" lon="5.62612">
        <ele>1677.16</ele>
        <time>2021-05-09T09:52:21Z</time>
      </trkpt>
      <trkpt lat="44.58989" lon="5.62612">
        <ele>1673.79</ele>
        <time>2021-05-09T09:52:22Z</time>
      </trkpt>
      <trkpt lat="44.58992" lon="5.62615">
        <ele>1671.87</ele>
        <time>2021-05-09T09:52:26Z</time>
      </trkpt>
      <trkpt lat="44.58999" lon="5.62623">
        <ele>1668.99</ele>
        <time>2021-05-09T09:52:35Z</time>
      </trkpt>
      <trkpt lat="44.59002" lon="5.62627">
        <ele>1665.62</ele>
        <time>2021-05-09T09:52:39Z</time>
      </trkpt>
      <trkpt lat="44.59006" lon="5.62635">
        <ele>1662.74</ele>
        <time>2021-05-09T09:52:46Z</time>
      </trkpt>
      <trkpt lat="44.59008" lon="5.62638">
        <ele>1658.89</ele>
        <time>2021-05-09T09:52:49Z</time>
      </trkpt>
      <trkpt lat="44.59009" lon="5.62639">
        <ele>1660.33</ele>
        <time>2021-05-09T09:52:50Z</time>
      </trkpt>
      <trkpt lat="44.5901" lon="5.62641">
        <ele>1662.26</ele>
        <time>2021-05-09T09:52:52Z</time>
      </trkpt>
      <trkpt lat="44.59011" lon="5.62643">
        <ele>1658.41</ele>
        <time>2021-05-09T09:52:54Z</time>
      </trkpt>
      <trkpt lat="44.59013" lon="5.62646">
        <ele>1663.7</ele>
        <time>2021-05-09T09:52:57Z</time>
      </trkpt>
      <trkpt lat="44.59013" lon="5.62647">
        <ele>1664.66</ele>
        <time>2021-05-09T09:52:59Z</time>
      </trkpt>
      <trkpt lat="44.59014" lon="5.62648">
        <ele>1668.99</ele>
        <time>2021-05-09T09:53:02Z</time>
      </trkpt>
      <trkpt lat="44.59015" lon="5.62648">
        <ele>1669.95</ele>
        <time>2021-05-09T09:53:04Z</time>
      </trkpt>
      <trkpt lat="44.59016" lon="5.62648">
        <ele>1665.62</ele>
        <time>2021-05-09T09:53:06Z</time>
      </trkpt>
      <trkpt lat="44.59017" lon="5.62648">
        <ele>1665.14</ele>
        <time>2021-05-09T09:53:08Z</time>
      </trkpt>
      <trkpt lat="44.59019" lon="5.62649">
        <ele>1660.81</ele>
        <time>2021-05-09T09:53:11Z</time>
      </trkpt>
      <trkpt lat="44.59019" lon="5.6265">
        <ele>1660.81</ele>
        <time>2021-05-09T09:53:12Z</time>
      </trkpt>
      <trkpt lat="44.59021" lon="5.62652">
        <ele>1662.74</ele>
        <time>2021-05-09T09:53:15Z</time>
      </trkpt>
      <trkpt lat="44.59024" lon="5.62657">
        <ele>1660.81</ele>
        <time>2021-05-09T09:53:21Z</time>
      </trkpt>
      <trkpt lat="44.59028" lon="5.6266">
        <ele>1659.37</ele>
        <time>2021-05-09T09:53:27Z</time>
      </trkpt>
      <trkpt lat="44.59029" lon="5.6266">
        <ele>1659.37</ele>
        <time>2021-05-09T09:53:28Z</time>
      </trkpt>
      <trkpt lat="44.5903" lon="5.62662">
        <ele>1657.93</ele>
        <time>2021-05-09T09:53:30Z</time>
      </trkpt>
      <trkpt lat="44.59037" lon="5.62671">
        <ele>1656.49</ele>
        <time>2021-05-09T09:53:46Z</time>
      </trkpt>
      <trkpt lat="44.59044" lon="5.62676">
        <ele>1654.09</ele>
        <time>2021-05-09T09:53:55Z</time>
      </trkpt>
      <trkpt lat="44.59053" lon="5.62686">
        <ele>1654.09</ele>
        <time>2021-05-09T09:54:09Z</time>
      </trkpt>
      <trkpt lat="44.59056" lon="5.62688">
        <ele>1652.16</ele>
        <time>2021-05-09T09:54:12Z</time>
      </trkpt>
      <trkpt lat="44.59058" lon="5.62689">
        <ele>1650.72</ele>
        <time>2021-05-09T09:54:14Z</time>
      </trkpt>
      <trkpt lat="44.59065" lon="5.62695">
        <ele>1648.32</ele>
        <time>2021-05-09T09:54:23Z</time>
      </trkpt>
      <trkpt lat="44.59066" lon="5.62696">
        <ele>1648.32</ele>
        <time>2021-05-09T09:54:24Z</time>
      </trkpt>
      <trkpt lat="44.59072" lon="5.627">
        <ele>1649.28</ele>
        <time>2021-05-09T09:54:31Z</time>
      </trkpt>
      <trkpt lat="44.59082" lon="5.62708">
        <ele>1645.91</ele>
        <time>2021-05-09T09:54:42Z</time>
      </trkpt>
      <trkpt lat="44.59085" lon="5.62712">
        <ele>1649.28</ele>
        <time>2021-05-09T09:54:46Z</time>
      </trkpt>
      <trkpt lat="44.59086" lon="5.62713">
        <ele>1649.28</ele>
        <time>2021-05-09T09:54:47Z</time>
      </trkpt>
      <trkpt lat="44.59093" lon="5.62718">
        <ele>1647.36</ele>
        <time>2021-05-09T09:54:55Z</time>
      </trkpt>
      <trkpt lat="44.59095" lon="5.62719">
        <ele>1647.84</ele>
        <time>2021-05-09T09:54:58Z</time>
      </trkpt>
      <trkpt lat="44.591" lon="5.62722">
        <ele>1646.4</ele>
        <time>2021-05-09T09:55:04Z</time>
      </trkpt>
      <trkpt lat="44.59101" lon="5.62722">
        <ele>1646.4</ele>
        <time>2021-05-09T09:55:05Z</time>
      </trkpt>
      <trkpt lat="44.5911" lon="5.62729">
        <ele>1644.95</ele>
        <time>2021-05-09T09:55:20Z</time>
      </trkpt>
      <trkpt lat="44.59122" lon="5.62737">
        <ele>1643.51</ele>
        <time>2021-05-09T09:55:34Z</time>
      </trkpt>
      <trkpt lat="44.59124" lon="5.62738">
        <ele>1644.95</ele>
        <time>2021-05-09T09:55:36Z</time>
      </trkpt>
      <trkpt lat="44.59128" lon="5.6274">
        <ele>1643.51</ele>
        <time>2021-05-09T09:55:40Z</time>
      </trkpt>
      <trkpt lat="44.59131" lon="5.62741">
        <ele>1644.95</ele>
        <time>2021-05-09T09:55:43Z</time>
      </trkpt>
      <trkpt lat="44.59146" lon="5.62745">
        <ele>1643.99</ele>
        <time>2021-05-09T09:56:00Z</time>
      </trkpt>
      <trkpt lat="44.5915" lon="5.62746">
        <ele>1643.51</ele>
        <time>2021-05-09T09:56:05Z</time>
      </trkpt>
      <trkpt lat="44.59153" lon="5.62747">
        <ele>1644.95</ele>
        <time>2021-05-09T09:56:08Z</time>
      </trkpt>
      <trkpt lat="44.59159" lon="5.62749">
        <ele>1647.84</ele>
        <time>2021-05-09T09:56:15Z</time>
      </trkpt>
      <trkpt lat="44.59163" lon="5.6275">
        <ele>1646.4</ele>
        <time>2021-05-09T09:56:19Z</time>
      </trkpt>
      <trkpt lat="44.59165" lon="5.62751">
        <ele>1646.4</ele>
        <time>2021-05-09T09:56:21Z</time>
      </trkpt>
      <trkpt lat="44.5917" lon="5.62751">
        <ele>1646.4</ele>
        <time>2021-05-09T09:56:27Z</time>
      </trkpt>
      <trkpt lat="44.59174" lon="5.62752">
        <ele>1643.99</ele>
        <time>2021-05-09T09:56:32Z</time>
      </trkpt>
      <trkpt lat="44.59187" lon="5.62755">
        <ele>1641.59</ele>
        <time>2021-05-09T09:56:44Z</time>
      </trkpt>
      <trkpt lat="44.59197" lon="5.62754">
        <ele>1642.55</ele>
        <time>2021-05-09T09:56:55Z</time>
      </trkpt>
      <trkpt lat="44.59206" lon="5.62745">
        <ele>1643.03</ele>
        <time>2021-05-09T09:57:12Z</time>
      </trkpt>
      <trkpt lat="44.59213" lon="5.62747">
        <ele>1641.11</ele>
        <time>2021-05-09T09:57:26Z</time>
      </trkpt>
      <trkpt lat="44.59224" lon="5.6275">
        <ele>1640.15</ele>
        <time>2021-05-09T09:57:41Z</time>
      </trkpt>
      <trkpt lat="44.59225" lon="5.6275">
        <ele>1642.55</ele>
        <time>2021-05-09T09:57:44Z</time>
      </trkpt>
      <trkpt lat="44.59226" lon="5.62749">
        <ele>1640.63</ele>
        <time>2021-05-09T09:57:48Z</time>
      </trkpt>
      <trkpt lat="44.59228" lon="5.6275">
        <ele>1642.55</ele>
        <time>2021-05-09T09:57:52Z</time>
      </trkpt>
      <trkpt lat="44.59243" lon="5.62751">
        <ele>1644.47</ele>
        <time>2021-05-09T09:58:09Z</time>
      </trkpt>
      <trkpt lat="44.59258" lon="5.62753">
        <ele>1642.55</ele>
        <time>2021-05-09T09:58:26Z</time>
      </trkpt>
      <trkpt lat="44.59265" lon="5.62754">
        <ele>1643.99</ele>
        <time>2021-05-09T09:58:33Z</time>
      </trkpt>
      <trkpt lat="44.59266" lon="5.62754">
        <ele>1644.47</ele>
        <time>2021-05-09T09:58:35Z</time>
      </trkpt>
      <trkpt lat="44.59273" lon="5.62755">
        <ele>1644.47</ele>
        <time>2021-05-09T09:58:43Z</time>
      </trkpt>
      <trkpt lat="44.59286" lon="5.62757">
        <ele>1645.91</ele>
        <time>2021-05-09T09:58:58Z</time>
      </trkpt>
      <trkpt lat="44.59293" lon="5.62756">
        <ele>1646.88</ele>
        <time>2021-05-09T09:59:06Z</time>
      </trkpt>
      <trkpt lat="44.59297" lon="5.62756">
        <ele>1645.43</ele>
        <time>2021-05-09T09:59:10Z</time>
      </trkpt>
      <trkpt lat="44.59309" lon="5.62753">
        <ele>1646.88</ele>
        <time>2021-05-09T09:59:22Z</time>
      </trkpt>
      <trkpt lat="44.59326" lon="5.62751">
        <ele>1649.28</ele>
        <time>2021-05-09T09:59:40Z</time>
      </trkpt>
      <trkpt lat="44.59337" lon="5.62749">
        <ele>1648.32</ele>
        <time>2021-05-09T09:59:51Z</time>
      </trkpt>
      <trkpt lat="44.59347" lon="5.62748">
        <ele>1650.72</ele>
        <time>2021-05-09T10:00:01Z</time>
      </trkpt>
      <trkpt lat="44.59352" lon="5.62746">
        <ele>1649.28</ele>
        <time>2021-05-09T10:00:07Z</time>
      </trkpt>
      <trkpt lat="44.59355" lon="5.62745">
        <ele>1651.2</ele>
        <time>2021-05-09T10:00:11Z</time>
      </trkpt>
      <trkpt lat="44.59357" lon="5.62744">
        <ele>1652.16</ele>
        <time>2021-05-09T10:00:14Z</time>
      </trkpt>
      <trkpt lat="44.59365" lon="5.62741">
        <ele>1651.68</ele>
        <time>2021-05-09T10:00:22Z</time>
      </trkpt>
      <trkpt lat="44.59379" lon="5.6274">
        <ele>1651.2</ele>
        <time>2021-05-09T10:00:36Z</time>
      </trkpt>
      <trkpt lat="44.59389" lon="5.62737">
        <ele>1652.64</ele>
        <time>2021-05-09T10:00:46Z</time>
      </trkpt>
      <trkpt lat="44.59399" lon="5.62736">
        <ele>1651.2</ele>
        <time>2021-05-09T10:00:57Z</time>
      </trkpt>
      <trkpt lat="44.59403" lon="5.62736">
        <ele>1652.16</ele>
        <time>2021-05-09T10:01:01Z</time>
      </trkpt>
      <trkpt lat="44.5942" lon="5.62734">
        <ele>1649.76</ele>
        <time>2021-05-09T10:01:18Z</time>
      </trkpt>
      <trkpt lat="44.59437" lon="5.6273">
        <ele>1649.28</ele>
        <time>2021-05-09T10:01:35Z</time>
      </trkpt>
      <trkpt lat="44.5945" lon="5.62726">
        <ele>1648.8</ele>
        <time>2021-05-09T10:01:51Z</time>
      </trkpt>
      <trkpt lat="44.59462" lon="5.62726">
        <ele>1650.24</ele>
        <time>2021-05-09T10:02:06Z</time>
      </trkpt>
      <trkpt lat="44.59463" lon="5.62726">
        <ele>1647.84</ele>
        <time>2021-05-09T10:02:08Z</time>
      </trkpt>
      <trkpt lat="44.59465" lon="5.62726">
        <ele>1649.76</ele>
        <time>2021-05-09T10:02:10Z</time>
      </trkpt>
      <trkpt lat="44.59477" lon="5.62726">
        <ele>1650.72</ele>
        <time>2021-05-09T10:02:25Z</time>
      </trkpt>
      <trkpt lat="44.59488" lon="5.62727">
        <ele>1650.72</ele>
        <time>2021-05-09T10:02:42Z</time>
      </trkpt>
      <trkpt lat="44.5949" lon="5.62728">
        <ele>1649.28</ele>
        <time>2021-05-09T10:02:46Z</time>
      </trkpt>
      <trkpt lat="44.59493" lon="5.6273">
        <ele>1649.28</ele>
        <time>2021-05-09T10:03:03Z</time>
      </trkpt>
      <trkpt lat="44.59493" lon="5.62729">
        <ele>1651.2</ele>
        <time>2021-05-09T10:03:16Z</time>
      </trkpt>
      <trkpt lat="44.59492" lon="5.62729">
        <ele>1649.76</ele>
        <time>2021-05-09T10:03:20Z</time>
      </trkpt>
      <trkpt lat="44.59492" lon="5.62729">
        <ele>1651.2</ele>
        <time>2021-05-09T10:03:24Z</time>
      </trkpt>
      <trkpt lat="44.59493" lon="5.62729">
        <ele>1649.76</ele>
        <time>2021-05-09T10:03:29Z</time>
      </trkpt>
      <trkpt lat="44.59494" lon="5.62731">
        <ele>1650.24</ele>
        <time>2021-05-09T10:03:50Z</time>
      </trkpt>
      <trkpt lat="44.59495" lon="5.62731">
        <ele>1651.68</ele>
        <time>2021-05-09T10:04:01Z</time>
      </trkpt>
      <trkpt lat="44.59499" lon="5.62738">
        <ele>1652.64</ele>
        <time>2021-05-09T10:04:17Z</time>
      </trkpt>
      <trkpt lat="44.59503" lon="5.62744">
        <ele>1653.6</ele>
        <time>2021-05-09T10:04:32Z</time>
      </trkpt>
      <trkpt lat="44.59505" lon="5.6275">
        <ele>1657.45</ele>
        <time>2021-05-09T10:04:41Z</time>
      </trkpt>
      <trkpt lat="44.59506" lon="5.6275">
        <ele>1657.45</ele>
        <time>2021-05-09T10:04:42Z</time>
      </trkpt>
      <trkpt lat="44.59507" lon="5.62755">
        <ele>1659.37</ele>
        <time>2021-05-09T10:04:56Z</time>
      </trkpt>
      <trkpt lat="44.59508" lon="5.62755">
        <ele>1659.37</ele>
        <time>2021-05-09T10:05:11Z</time>
      </trkpt>
      <trkpt lat="44.59509" lon="5.62758">
        <ele>1657.45</ele>
        <time>2021-05-09T10:05:17Z</time>
      </trkpt>
      <trkpt lat="44.59514" lon="5.62762">
        <ele>1658.41</ele>
        <time>2021-05-09T10:05:34Z</time>
      </trkpt>
      <trkpt lat="44.59517" lon="5.62761">
        <ele>1659.85</ele>
        <time>2021-05-09T10:05:41Z</time>
      </trkpt>
      <trkpt lat="44.59517" lon="5.6276">
        <ele>1659.85</ele>
        <time>2021-05-09T10:05:49Z</time>
      </trkpt>
      <trkpt lat="44.59522" lon="5.6276">
        <ele>1657.45</ele>
        <time>2021-05-09T10:06:02Z</time>
      </trkpt>
      <trkpt lat="44.59524" lon="5.62761">
        <ele>1656.97</ele>
        <time>2021-05-09T10:06:04Z</time>
      </trkpt>
      <trkpt lat="44.59531" lon="5.62759">
        <ele>1654.09</ele>
        <time>2021-05-09T10:06:17Z</time>
      </trkpt>
      <trkpt lat="44.59532" lon="5.62759">
        <ele>1654.09</ele>
        <time>2021-05-09T10:06:18Z</time>
      </trkpt>
      <trkpt lat="44.59534" lon="5.62759">
        <ele>1650.72</ele>
        <time>2021-05-09T10:06:24Z</time>
      </trkpt>
      <trkpt lat="44.59534" lon="5.62759">
        <ele>1650.72</ele>
        <time>2021-05-09T10:06:25Z</time>
      </trkpt>
      <trkpt lat="44.59537" lon="5.62759">
        <ele>1652.64</ele>
        <time>2021-05-09T10:06:41Z</time>
      </trkpt>
      <trkpt lat="44.59541" lon="5.62757">
        <ele>1649.28</ele>
        <time>2021-05-09T10:06:51Z</time>
      </trkpt>
      <trkpt lat="44.59543" lon="5.62755">
        <ele>1647.36</ele>
        <time>2021-05-09T10:06:57Z</time>
      </trkpt>
      <trkpt lat="44.59548" lon="5.62756">
        <ele>1645.43</ele>
        <time>2021-05-09T10:07:11Z</time>
      </trkpt>
      <trkpt lat="44.59548" lon="5.6276">
        <ele>1643.99</ele>
        <time>2021-05-09T10:07:15Z</time>
      </trkpt>
      <trkpt lat="44.59544" lon="5.6277">
        <ele>1646.4</ele>
        <time>2021-05-09T10:07:25Z</time>
      </trkpt>
      <trkpt lat="44.59542" lon="5.62776">
        <ele>1645.91</ele>
        <time>2021-05-09T10:07:29Z</time>
      </trkpt>
      <trkpt lat="44.59541" lon="5.6278">
        <ele>1645.91</ele>
        <time>2021-05-09T10:07:33Z</time>
      </trkpt>
      <trkpt lat="44.59539" lon="5.62782">
        <ele>1648.32</ele>
        <time>2021-05-09T10:07:35Z</time>
      </trkpt>
      <trkpt lat="44.59536" lon="5.62787">
        <ele>1643.99</ele>
        <time>2021-05-09T10:07:39Z</time>
      </trkpt>
      <trkpt lat="44.59536" lon="5.62788">
        <ele>1646.4</ele>
        <time>2021-05-09T10:07:40Z</time>
      </trkpt>
      <trkpt lat="44.59534" lon="5.62793">
        <ele>1641.59</ele>
        <time>2021-05-09T10:07:44Z</time>
      </trkpt>
      <trkpt lat="44.59533" lon="5.62793">
        <ele>1643.99</ele>
        <time>2021-05-09T10:07:45Z</time>
      </trkpt>
      <trkpt lat="44.59532" lon="5.62797">
        <ele>1640.63</ele>
        <time>2021-05-09T10:07:48Z</time>
      </trkpt>
      <trkpt lat="44.59532" lon="5.62798">
        <ele>1643.99</ele>
        <time>2021-05-09T10:07:49Z</time>
      </trkpt>
      <trkpt lat="44.5953" lon="5.62806">
        <ele>1640.63</ele>
        <time>2021-05-09T10:07:55Z</time>
      </trkpt>
      <trkpt lat="44.59529" lon="5.62813">
        <ele>1639.67</ele>
        <time>2021-05-09T10:08:00Z</time>
      </trkpt>
      <trkpt lat="44.59527" lon="5.62822">
        <ele>1640.63</ele>
        <time>2021-05-09T10:08:07Z</time>
      </trkpt>
      <trkpt lat="44.59526" lon="5.62826">
        <ele>1638.7</ele>
        <time>2021-05-09T10:08:10Z</time>
      </trkpt>
      <trkpt lat="44.59526" lon="5.62844">
        <ele>1639.19</ele>
        <time>2021-05-09T10:08:21Z</time>
      </trkpt>
      <trkpt lat="44.59527" lon="5.6285">
        <ele>1635.82</ele>
        <time>2021-05-09T10:08:25Z</time>
      </trkpt>
      <trkpt lat="44.59528" lon="5.62854">
        <ele>1634.86</ele>
        <time>2021-05-09T10:08:27Z</time>
      </trkpt>
      <trkpt lat="44.5953" lon="5.6286">
        <ele>1637.26</ele>
        <time>2021-05-09T10:08:31Z</time>
      </trkpt>
      <trkpt lat="44.59531" lon="5.62864">
        <ele>1635.82</ele>
        <time>2021-05-09T10:08:34Z</time>
      </trkpt>
      <trkpt lat="44.59533" lon="5.6287">
        <ele>1632.94</ele>
        <time>2021-05-09T10:08:38Z</time>
      </trkpt>
      <trkpt lat="44.59534" lon="5.62874">
        <ele>1634.86</ele>
        <time>2021-05-09T10:08:41Z</time>
      </trkpt>
      <trkpt lat="44.59539" lon="5.62888">
        <ele>1631.01</ele>
        <time>2021-05-09T10:08:52Z</time>
      </trkpt>
      <trkpt lat="44.5954" lon="5.62891">
        <ele>1629.57</ele>
        <time>2021-05-09T10:08:54Z</time>
      </trkpt>
      <trkpt lat="44.59542" lon="5.62901">
        <ele>1629.09</ele>
        <time>2021-05-09T10:09:01Z</time>
      </trkpt>
      <trkpt lat="44.59543" lon="5.62907">
        <ele>1625.25</ele>
        <time>2021-05-09T10:09:05Z</time>
      </trkpt>
      <trkpt lat="44.59544" lon="5.62913">
        <ele>1625.73</ele>
        <time>2021-05-09T10:09:09Z</time>
      </trkpt>
      <trkpt lat="44.59545" lon="5.62917">
        <ele>1624.28</ele>
        <time>2021-05-09T10:09:11Z</time>
      </trkpt>
      <trkpt lat="44.59546" lon="5.6292">
        <ele>1625.73</ele>
        <time>2021-05-09T10:09:13Z</time>
      </trkpt>
      <trkpt lat="44.59557" lon="5.62935">
        <ele>1626.21</ele>
        <time>2021-05-09T10:09:26Z</time>
      </trkpt>
      <trkpt lat="44.5956" lon="5.62938">
        <ele>1628.13</ele>
        <time>2021-05-09T10:09:30Z</time>
      </trkpt>
      <trkpt lat="44.59563" lon="5.62942">
        <ele>1626.69</ele>
        <time>2021-05-09T10:09:34Z</time>
      </trkpt>
      <trkpt lat="44.59567" lon="5.62946">
        <ele>1627.65</ele>
        <time>2021-05-09T10:09:38Z</time>
      </trkpt>
      <trkpt lat="44.59568" lon="5.62947">
        <ele>1625.73</ele>
        <time>2021-05-09T10:09:40Z</time>
      </trkpt>
      <trkpt lat="44.5958" lon="5.62963">
        <ele>1627.17</ele>
        <time>2021-05-09T10:09:57Z</time>
      </trkpt>
      <trkpt lat="44.59581" lon="5.62964">
        <ele>1627.17</ele>
        <time>2021-05-09T10:09:58Z</time>
      </trkpt>
      <trkpt lat="44.59584" lon="5.62967">
        <ele>1628.13</ele>
        <time>2021-05-09T10:10:02Z</time>
      </trkpt>
      <trkpt lat="44.59586" lon="5.6297">
        <ele>1622.84</ele>
        <time>2021-05-09T10:10:06Z</time>
      </trkpt>
      <trkpt lat="44.59589" lon="5.62973">
        <ele>1625.73</ele>
        <time>2021-05-09T10:10:10Z</time>
      </trkpt>
      <trkpt lat="44.59601" lon="5.62987">
        <ele>1624.28</ele>
        <time>2021-05-09T10:10:24Z</time>
      </trkpt>
      <trkpt lat="44.59614" lon="5.63001">
        <ele>1619.96</ele>
        <time>2021-05-09T10:10:39Z</time>
      </trkpt>
      <trkpt lat="44.59626" lon="5.63012">
        <ele>1619.48</ele>
        <time>2021-05-09T10:10:57Z</time>
      </trkpt>
      <trkpt lat="44.59626" lon="5.63013">
        <ele>1618.04</ele>
        <time>2021-05-09T10:13:06Z</time>
      </trkpt>
      <trkpt lat="44.59627" lon="5.63014">
        <ele>1619</ele>
        <time>2021-05-09T10:13:28Z</time>
      </trkpt>
      <trkpt lat="44.59643" lon="5.63024">
        <ele>1618.52</ele>
        <time>2021-05-09T10:13:46Z</time>
      </trkpt>
      <trkpt lat="44.5965" lon="5.6303">
        <ele>1616.11</ele>
        <time>2021-05-09T10:13:53Z</time>
      </trkpt>
      <trkpt lat="44.59656" lon="5.63035">
        <ele>1617.07</ele>
        <time>2021-05-09T10:13:58Z</time>
      </trkpt>
      <trkpt lat="44.5966" lon="5.6304">
        <ele>1613.23</ele>
        <time>2021-05-09T10:14:03Z</time>
      </trkpt>
      <trkpt lat="44.59661" lon="5.63041">
        <ele>1616.11</ele>
        <time>2021-05-09T10:14:04Z</time>
      </trkpt>
      <trkpt lat="44.59668" lon="5.63049">
        <ele>1617.56</ele>
        <time>2021-05-09T10:14:11Z</time>
      </trkpt>
      <trkpt lat="44.5967" lon="5.6305">
        <ele>1615.15</ele>
        <time>2021-05-09T10:14:13Z</time>
      </trkpt>
      <trkpt lat="44.59672" lon="5.63052">
        <ele>1616.59</ele>
        <time>2021-05-09T10:14:15Z</time>
      </trkpt>
      <trkpt lat="44.59676" lon="5.63055">
        <ele>1616.59</ele>
        <time>2021-05-09T10:14:19Z</time>
      </trkpt>
      <trkpt lat="44.59678" lon="5.63057">
        <ele>1619</ele>
        <time>2021-05-09T10:14:21Z</time>
      </trkpt>
      <trkpt lat="44.59684" lon="5.63063">
        <ele>1613.71</ele>
        <time>2021-05-09T10:14:27Z</time>
      </trkpt>
      <trkpt lat="44.59685" lon="5.63064">
        <ele>1613.71</ele>
        <time>2021-05-09T10:14:28Z</time>
      </trkpt>
      <trkpt lat="44.59687" lon="5.63065">
        <ele>1614.67</ele>
        <time>2021-05-09T10:14:30Z</time>
      </trkpt>
      <trkpt lat="44.5969" lon="5.63068">
        <ele>1616.11</ele>
        <time>2021-05-09T10:14:34Z</time>
      </trkpt>
      <trkpt lat="44.59694" lon="5.6307">
        <ele>1615.63</ele>
        <time>2021-05-09T10:14:38Z</time>
      </trkpt>
      <trkpt lat="44.59695" lon="5.6307">
        <ele>1615.63</ele>
        <time>2021-05-09T10:14:39Z</time>
      </trkpt>
      <trkpt lat="44.59699" lon="5.63075">
        <ele>1617.07</ele>
        <time>2021-05-09T10:14:44Z</time>
      </trkpt>
      <trkpt lat="44.59704" lon="5.63079">
        <ele>1618.04</ele>
        <time>2021-05-09T10:14:49Z</time>
      </trkpt>
      <trkpt lat="44.59711" lon="5.63083">
        <ele>1614.67</ele>
        <time>2021-05-09T10:14:55Z</time>
      </trkpt>
      <trkpt lat="44.59712" lon="5.63083">
        <ele>1614.67</ele>
        <time>2021-05-09T10:14:56Z</time>
      </trkpt>
      <trkpt lat="44.59722" lon="5.63089">
        <ele>1611.79</ele>
        <time>2021-05-09T10:15:05Z</time>
      </trkpt>
      <trkpt lat="44.5973" lon="5.63093">
        <ele>1612.75</ele>
        <time>2021-05-09T10:15:13Z</time>
      </trkpt>
      <trkpt lat="44.59737" lon="5.63096">
        <ele>1611.31</ele>
        <time>2021-05-09T10:15:19Z</time>
      </trkpt>
      <trkpt lat="44.59739" lon="5.63097">
        <ele>1616.11</ele>
        <time>2021-05-09T10:15:21Z</time>
      </trkpt>
      <trkpt lat="44.5974" lon="5.63097">
        <ele>1614.67</ele>
        <time>2021-05-09T10:15:22Z</time>
      </trkpt>
      <trkpt lat="44.59743" lon="5.63099">
        <ele>1618.04</ele>
        <time>2021-05-09T10:15:25Z</time>
      </trkpt>
      <trkpt lat="44.59747" lon="5.631">
        <ele>1615.63</ele>
        <time>2021-05-09T10:15:28Z</time>
      </trkpt>
      <trkpt lat="44.59749" lon="5.63101">
        <ele>1611.79</ele>
        <time>2021-05-09T10:15:30Z</time>
      </trkpt>
      <trkpt lat="44.59751" lon="5.63102">
        <ele>1608.42</ele>
        <time>2021-05-09T10:15:32Z</time>
      </trkpt>
      <trkpt lat="44.59763" lon="5.63107">
        <ele>1604.58</ele>
        <time>2021-05-09T10:15:42Z</time>
      </trkpt>
      <trkpt lat="44.59764" lon="5.63107">
        <ele>1604.58</ele>
        <time>2021-05-09T10:15:43Z</time>
      </trkpt>
      <trkpt lat="44.59767" lon="5.63107">
        <ele>1608.42</ele>
        <time>2021-05-09T10:15:46Z</time>
      </trkpt>
      <trkpt lat="44.59776" lon="5.6311">
        <ele>1605.06</ele>
        <time>2021-05-09T10:15:54Z</time>
      </trkpt>
      <trkpt lat="44.59777" lon="5.6311">
        <ele>1605.06</ele>
        <time>2021-05-09T10:15:55Z</time>
      </trkpt>
      <trkpt lat="44.59781" lon="5.63111">
        <ele>1606.98</ele>
        <time>2021-05-09T10:15:59Z</time>
      </trkpt>
      <trkpt lat="44.59785" lon="5.63112">
        <ele>1605.06</ele>
        <time>2021-05-09T10:16:03Z</time>
      </trkpt>
      <trkpt lat="44.59787" lon="5.63112">
        <ele>1607.46</ele>
        <time>2021-05-09T10:16:05Z</time>
      </trkpt>
      <trkpt lat="44.59803" lon="5.63115">
        <ele>1606.5</ele>
        <time>2021-05-09T10:16:19Z</time>
      </trkpt>
      <trkpt lat="44.59809" lon="5.63116">
        <ele>1605.06</ele>
        <time>2021-05-09T10:16:25Z</time>
      </trkpt>
      <trkpt lat="44.5982" lon="5.63118">
        <ele>1605.54</ele>
        <time>2021-05-09T10:16:37Z</time>
      </trkpt>
      <trkpt lat="44.59832" lon="5.63118">
        <ele>1606.5</ele>
        <time>2021-05-09T10:16:49Z</time>
      </trkpt>
      <trkpt lat="44.59835" lon="5.63118">
        <ele>1609.86</ele>
        <time>2021-05-09T10:16:51Z</time>
      </trkpt>
      <trkpt lat="44.59836" lon="5.63118">
        <ele>1609.38</ele>
        <time>2021-05-09T10:16:52Z</time>
      </trkpt>
      <trkpt lat="44.59842" lon="5.63118">
        <ele>1607.94</ele>
        <time>2021-05-09T10:16:58Z</time>
      </trkpt>
      <trkpt lat="44.59843" lon="5.63119">
        <ele>1606.5</ele>
        <time>2021-05-09T10:17:00Z</time>
      </trkpt>
      <trkpt lat="44.59854" lon="5.63119">
        <ele>1604.58</ele>
        <time>2021-05-09T10:17:10Z</time>
      </trkpt>
      <trkpt lat="44.5986" lon="5.63121">
        <ele>1606.02</ele>
        <time>2021-05-09T10:17:18Z</time>
      </trkpt>
      <trkpt lat="44.59862" lon="5.63122">
        <ele>1604.1</ele>
        <time>2021-05-09T10:17:21Z</time>
      </trkpt>
      <trkpt lat="44.59876" lon="5.63127">
        <ele>1601.21</ele>
        <time>2021-05-09T10:17:37Z</time>
      </trkpt>
      <trkpt lat="44.59882" lon="5.63131">
        <ele>1603.14</ele>
        <time>2021-05-09T10:17:44Z</time>
      </trkpt>
      <trkpt lat="44.59887" lon="5.63135">
        <ele>1601.69</ele>
        <time>2021-05-09T10:17:50Z</time>
      </trkpt>
      <trkpt lat="44.59889" lon="5.63136">
        <ele>1602.66</ele>
        <time>2021-05-09T10:17:52Z</time>
      </trkpt>
      <trkpt lat="44.59902" lon="5.63146">
        <ele>1600.25</ele>
        <time>2021-05-09T10:18:08Z</time>
      </trkpt>
      <trkpt lat="44.59914" lon="5.63155">
        <ele>1602.17</ele>
        <time>2021-05-09T10:18:22Z</time>
      </trkpt>
      <trkpt lat="44.59917" lon="5.63156">
        <ele>1600.25</ele>
        <time>2021-05-09T10:18:25Z</time>
      </trkpt>
      <trkpt lat="44.59923" lon="5.6316">
        <ele>1602.17</ele>
        <time>2021-05-09T10:18:32Z</time>
      </trkpt>
      <trkpt lat="44.59924" lon="5.63161">
        <ele>1599.29</ele>
        <time>2021-05-09T10:18:33Z</time>
      </trkpt>
      <trkpt lat="44.59925" lon="5.63162">
        <ele>1599.29</ele>
        <time>2021-05-09T10:18:34Z</time>
      </trkpt>
      <trkpt lat="44.5993" lon="5.63165">
        <ele>1600.73</ele>
        <time>2021-05-09T10:18:40Z</time>
      </trkpt>
      <trkpt lat="44.59934" lon="5.63168">
        <ele>1597.37</ele>
        <time>2021-05-09T10:18:45Z</time>
      </trkpt>
      <trkpt lat="44.59945" lon="5.63174">
        <ele>1599.77</ele>
        <time>2021-05-09T10:18:58Z</time>
      </trkpt>
      <trkpt lat="44.59958" lon="5.63183">
        <ele>1598.33</ele>
        <time>2021-05-09T10:19:15Z</time>
      </trkpt>
      <trkpt lat="44.59959" lon="5.63184">
        <ele>1598.33</ele>
        <time>2021-05-09T10:19:16Z</time>
      </trkpt>
      <trkpt lat="44.59963" lon="5.63184">
        <ele>1594.96</ele>
        <time>2021-05-09T10:19:23Z</time>
      </trkpt>
      <trkpt lat="44.59969" lon="5.63186">
        <ele>1593.04</ele>
        <time>2021-05-09T10:19:31Z</time>
      </trkpt>
      <trkpt lat="44.59975" lon="5.63194">
        <ele>1597.37</ele>
        <time>2021-05-09T10:19:44Z</time>
      </trkpt>
      <trkpt lat="44.59975" lon="5.63195">
        <ele>1595.93</ele>
        <time>2021-05-09T10:19:45Z</time>
      </trkpt>
      <trkpt lat="44.59978" lon="5.63198">
        <ele>1600.73</ele>
        <time>2021-05-09T10:19:52Z</time>
      </trkpt>
      <trkpt lat="44.59979" lon="5.63199">
        <ele>1596.89</ele>
        <time>2021-05-09T10:19:54Z</time>
      </trkpt>
      <trkpt lat="44.59979" lon="5.63201">
        <ele>1595.45</ele>
        <time>2021-05-09T10:19:56Z</time>
      </trkpt>
      <trkpt lat="44.5998" lon="5.63205">
        <ele>1597.37</ele>
        <time>2021-05-09T10:20:00Z</time>
      </trkpt>
      <trkpt lat="44.5998" lon="5.63207">
        <ele>1600.73</ele>
        <time>2021-05-09T10:20:02Z</time>
      </trkpt>
      <trkpt lat="44.59981" lon="5.63208">
        <ele>1604.1</ele>
        <time>2021-05-09T10:20:04Z</time>
      </trkpt>
      <trkpt lat="44.59983" lon="5.63208">
        <ele>1601.21</ele>
        <time>2021-05-09T10:20:06Z</time>
      </trkpt>
      <trkpt lat="44.59995" lon="5.63209">
        <ele>1605.54</ele>
        <time>2021-05-09T10:20:17Z</time>
      </trkpt>
      <trkpt lat="44.59996" lon="5.6321">
        <ele>1604.1</ele>
        <time>2021-05-09T10:20:18Z</time>
      </trkpt>
      <trkpt lat="44.59998" lon="5.63211">
        <ele>1601.69</ele>
        <time>2021-05-09T10:20:23Z</time>
      </trkpt>
      <trkpt lat="44.60009" lon="5.63223">
        <ele>1601.69</ele>
        <time>2021-05-09T10:20:41Z</time>
      </trkpt>
      <trkpt lat="44.6001" lon="5.63223">
        <ele>1598.33</ele>
        <time>2021-05-09T10:20:49Z</time>
      </trkpt>
      <trkpt lat="44.6001" lon="5.63221">
        <ele>1597.37</ele>
        <time>2021-05-09T10:20:51Z</time>
      </trkpt>
      <trkpt lat="44.6001" lon="5.63217">
        <ele>1596.89</ele>
        <time>2021-05-09T10:20:55Z</time>
      </trkpt>
      <trkpt lat="44.60009" lon="5.63213">
        <ele>1594.96</ele>
        <time>2021-05-09T10:20:59Z</time>
      </trkpt>
      <trkpt lat="44.60013" lon="5.63212">
        <ele>1591.6</ele>
        <time>2021-05-09T10:21:05Z</time>
      </trkpt>
      <trkpt lat="44.60015" lon="5.6321">
        <ele>1588.72</ele>
        <time>2021-05-09T10:21:09Z</time>
      </trkpt>
      <trkpt lat="44.60015" lon="5.6321">
        <ele>1589.2</ele>
        <time>2021-05-09T10:21:18Z</time>
      </trkpt>
      <trkpt lat="44.60014" lon="5.63208">
        <ele>1589.2</ele>
        <time>2021-05-09T10:21:34Z</time>
      </trkpt>
      <trkpt lat="44.60015" lon="5.63208">
        <ele>1587.27</ele>
        <time>2021-05-09T10:21:37Z</time>
      </trkpt>
      <trkpt lat="44.60016" lon="5.63207">
        <ele>1584.87</ele>
        <time>2021-05-09T10:21:42Z</time>
      </trkpt>
      <trkpt lat="44.60016" lon="5.63207">
        <ele>1586.79</ele>
        <time>2021-05-09T10:21:45Z</time>
      </trkpt>
      <trkpt lat="44.60016" lon="5.63207">
        <ele>1584.39</ele>
        <time>2021-05-09T10:21:48Z</time>
      </trkpt>
      <trkpt lat="44.60015" lon="5.63202">
        <ele>1584.39</ele>
        <time>2021-05-09T10:21:59Z</time>
      </trkpt>
      <trkpt lat="44.60016" lon="5.63193">
        <ele>1582.95</ele>
        <time>2021-05-09T10:22:15Z</time>
      </trkpt>
      <trkpt lat="44.60016" lon="5.63192">
        <ele>1584.39</ele>
        <time>2021-05-09T10:22:20Z</time>
      </trkpt>
      <trkpt lat="44.60016" lon="5.63189">
        <ele>1581.03</ele>
        <time>2021-05-09T10:22:24Z</time>
      </trkpt>
      <trkpt lat="44.60016" lon="5.63189">
        <ele>1581.03</ele>
        <time>2021-05-09T10:22:25Z</time>
      </trkpt>
      <trkpt lat="44.60018" lon="5.63183">
        <ele>1579.58</ele>
        <time>2021-05-09T10:22:39Z</time>
      </trkpt>
      <trkpt lat="44.60024" lon="5.63182">
        <ele>1576.22</ele>
        <time>2021-05-09T10:22:54Z</time>
      </trkpt>
      <trkpt lat="44.60026" lon="5.63181">
        <ele>1573.82</ele>
        <time>2021-05-09T10:23:03Z</time>
      </trkpt>
      <trkpt lat="44.60027" lon="5.63176">
        <ele>1572.85</ele>
        <time>2021-05-09T10:23:15Z</time>
      </trkpt>
      <trkpt lat="44.60027" lon="5.6317">
        <ele>1570.45</ele>
        <time>2021-05-09T10:23:28Z</time>
      </trkpt>
      <trkpt lat="44.60027" lon="5.63165">
        <ele>1573.33</ele>
        <time>2021-05-09T11:18:07Z</time>
      </trkpt>
      <trkpt lat="44.60027" lon="5.63165">
        <ele>1571.89</ele>
        <time>2021-05-09T11:18:14Z</time>
      </trkpt>
      <trkpt lat="44.6002" lon="5.6316">
        <ele>1570.45</ele>
        <time>2021-05-09T11:18:33Z</time>
      </trkpt>
      <trkpt lat="44.60019" lon="5.63158">
        <ele>1571.89</ele>
        <time>2021-05-09T11:18:36Z</time>
      </trkpt>
      <trkpt lat="44.60018" lon="5.63157">
        <ele>1569.97</ele>
        <time>2021-05-09T11:18:38Z</time>
      </trkpt>
      <trkpt lat="44.60014" lon="5.63154">
        <ele>1570.45</ele>
        <time>2021-05-09T11:18:46Z</time>
      </trkpt>
      <trkpt lat="44.60011" lon="5.63151">
        <ele>1569.49</ele>
        <time>2021-05-09T11:18:51Z</time>
      </trkpt>
      <trkpt lat="44.60007" lon="5.63147">
        <ele>1569.97</ele>
        <time>2021-05-09T11:18:58Z</time>
      </trkpt>
      <trkpt lat="44.60001" lon="5.63144">
        <ele>1572.37</ele>
        <time>2021-05-09T11:19:07Z</time>
      </trkpt>
      <trkpt lat="44.59995" lon="5.63141">
        <ele>1571.41</ele>
        <time>2021-05-09T11:19:15Z</time>
      </trkpt>
      <trkpt lat="44.59991" lon="5.63142">
        <ele>1573.33</ele>
        <time>2021-05-09T11:19:21Z</time>
      </trkpt>
      <trkpt lat="44.59986" lon="5.63139">
        <ele>1571.89</ele>
        <time>2021-05-09T11:19:28Z</time>
      </trkpt>
      <trkpt lat="44.59972" lon="5.6313">
        <ele>1569.01</ele>
        <time>2021-05-09T11:19:46Z</time>
      </trkpt>
      <trkpt lat="44.59969" lon="5.63128">
        <ele>1570.45</ele>
        <time>2021-05-09T11:19:50Z</time>
      </trkpt>
      <trkpt lat="44.59961" lon="5.63122">
        <ele>1569.97</ele>
        <time>2021-05-09T11:20:02Z</time>
      </trkpt>
      <trkpt lat="44.59951" lon="5.63111">
        <ele>1568.05</ele>
        <time>2021-05-09T11:20:17Z</time>
      </trkpt>
      <trkpt lat="44.59947" lon="5.63108">
        <ele>1568.05</ele>
        <time>2021-05-09T11:20:23Z</time>
      </trkpt>
      <trkpt lat="44.59942" lon="5.63104">
        <ele>1571.41</ele>
        <time>2021-05-09T11:20:32Z</time>
      </trkpt>
      <trkpt lat="44.59931" lon="5.63096">
        <ele>1571.41</ele>
        <time>2021-05-09T11:20:48Z</time>
      </trkpt>
      <trkpt lat="44.59924" lon="5.6309">
        <ele>1570.93</ele>
        <time>2021-05-09T11:21:04Z</time>
      </trkpt>
      <trkpt lat="44.59913" lon="5.63081">
        <ele>1572.85</ele>
        <time>2021-05-09T11:21:20Z</time>
      </trkpt>
      <trkpt lat="44.59904" lon="5.63076">
        <ele>1572.85</ele>
        <time>2021-05-09T11:21:35Z</time>
      </trkpt>
      <trkpt lat="44.59894" lon="5.63071">
        <ele>1572.85</ele>
        <time>2021-05-09T11:21:50Z</time>
      </trkpt>
      <trkpt lat="44.59894" lon="5.63071">
        <ele>1572.85</ele>
        <time>2021-05-09T11:21:51Z</time>
      </trkpt>
      <trkpt lat="44.59893" lon="5.63069">
        <ele>1576.22</ele>
        <time>2021-05-09T11:22:24Z</time>
      </trkpt>
      <trkpt lat="44.59891" lon="5.63069">
        <ele>1575.26</ele>
        <time>2021-05-09T11:22:30Z</time>
      </trkpt>
      <trkpt lat="44.59885" lon="5.63068">
        <ele>1576.22</ele>
        <time>2021-05-09T11:22:40Z</time>
      </trkpt>
      <trkpt lat="44.59875" lon="5.6307">
        <ele>1578.62</ele>
        <time>2021-05-09T11:22:55Z</time>
      </trkpt>
      <trkpt lat="44.59862" lon="5.63066">
        <ele>1577.18</ele>
        <time>2021-05-09T11:23:12Z</time>
      </trkpt>
      <trkpt lat="44.59854" lon="5.63064">
        <ele>1575.74</ele>
        <time>2021-05-09T11:23:21Z</time>
      </trkpt>
      <trkpt lat="44.59844" lon="5.63061">
        <ele>1574.3</ele>
        <time>2021-05-09T11:23:31Z</time>
      </trkpt>
      <trkpt lat="44.59825" lon="5.63053">
        <ele>1573.33</ele>
        <time>2021-05-09T11:23:51Z</time>
      </trkpt>
      <trkpt lat="44.59813" lon="5.63046">
        <ele>1572.85</ele>
        <time>2021-05-09T11:24:04Z</time>
      </trkpt>
      <trkpt lat="44.59797" lon="5.63035">
        <ele>1571.89</ele>
        <time>2021-05-09T11:24:22Z</time>
      </trkpt>
      <trkpt lat="44.59782" lon="5.63019">
        <ele>1569.49</ele>
        <time>2021-05-09T11:24:39Z</time>
      </trkpt>
      <trkpt lat="44.59772" lon="5.63007">
        <ele>1566.12</ele>
        <time>2021-05-09T11:24:52Z</time>
      </trkpt>
      <trkpt lat="44.5976" lon="5.62982">
        <ele>1564.68</ele>
        <time>2021-05-09T11:25:10Z</time>
      </trkpt>
      <trkpt lat="44.59755" lon="5.62969">
        <ele>1561.32</ele>
        <time>2021-05-09T11:25:19Z</time>
      </trkpt>
      <trkpt lat="44.59752" lon="5.62948">
        <ele>1558.43</ele>
        <time>2021-05-09T11:25:34Z</time>
      </trkpt>
      <trkpt lat="44.59751" lon="5.62942">
        <ele>1557.95</ele>
        <time>2021-05-09T11:25:47Z</time>
      </trkpt>
      <trkpt lat="44.59751" lon="5.62942">
        <ele>1558.92</ele>
        <time>2021-05-09T11:25:49Z</time>
      </trkpt>
      <trkpt lat="44.5975" lon="5.62939">
        <ele>1562.28</ele>
        <time>2021-05-09T11:26:00Z</time>
      </trkpt>
      <trkpt lat="44.5975" lon="5.62939">
        <ele>1556.99</ele>
        <time>2021-05-09T11:26:02Z</time>
      </trkpt>
      <trkpt lat="44.59749" lon="5.62939">
        <ele>1556.99</ele>
        <time>2021-05-09T11:26:03Z</time>
      </trkpt>
      <trkpt lat="44.59753" lon="5.62928">
        <ele>1555.55</ele>
        <time>2021-05-09T11:26:16Z</time>
      </trkpt>
      <trkpt lat="44.59753" lon="5.62926">
        <ele>1553.63</ele>
        <time>2021-05-09T11:26:18Z</time>
      </trkpt>
      <trkpt lat="44.59752" lon="5.62916">
        <ele>1550.74</ele>
        <time>2021-05-09T11:26:26Z</time>
      </trkpt>
      <trkpt lat="44.59751" lon="5.62914">
        <ele>1549.78</ele>
        <time>2021-05-09T11:26:28Z</time>
      </trkpt>
      <trkpt lat="44.59747" lon="5.62892">
        <ele>1548.34</ele>
        <time>2021-05-09T11:26:46Z</time>
      </trkpt>
      <trkpt lat="44.59749" lon="5.62875">
        <ele>1544.5</ele>
        <time>2021-05-09T11:26:57Z</time>
      </trkpt>
      <trkpt lat="44.5975" lon="5.62874">
        <ele>1544.5</ele>
        <time>2021-05-09T11:26:58Z</time>
      </trkpt>
      <trkpt lat="44.59747" lon="5.62848">
        <ele>1541.61</ele>
        <time>2021-05-09T11:27:17Z</time>
      </trkpt>
      <trkpt lat="44.59745" lon="5.62834">
        <ele>1538.25</ele>
        <time>2021-05-09T11:27:27Z</time>
      </trkpt>
      <trkpt lat="44.59745" lon="5.62819">
        <ele>1534.88</ele>
        <time>2021-05-09T11:27:39Z</time>
      </trkpt>
      <trkpt lat="44.59746" lon="5.62816">
        <ele>1534.4</ele>
        <time>2021-05-09T11:27:41Z</time>
      </trkpt>
      <trkpt lat="44.59745" lon="5.628">
        <ele>1532</ele>
        <time>2021-05-09T11:27:56Z</time>
      </trkpt>
      <trkpt lat="44.59742" lon="5.62784">
        <ele>1530.56</ele>
        <time>2021-05-09T11:28:08Z</time>
      </trkpt>
      <trkpt lat="44.59741" lon="5.6277">
        <ele>1527.67</ele>
        <time>2021-05-09T11:28:17Z</time>
      </trkpt>
      <trkpt lat="44.5974" lon="5.62752">
        <ele>1526.71</ele>
        <time>2021-05-09T11:28:28Z</time>
      </trkpt>
      <trkpt lat="44.59742" lon="5.62733">
        <ele>1525.27</ele>
        <time>2021-05-09T11:28:41Z</time>
      </trkpt>
      <trkpt lat="44.59739" lon="5.62713">
        <ele>1522.87</ele>
        <time>2021-05-09T11:28:54Z</time>
      </trkpt>
      <trkpt lat="44.59734" lon="5.62693">
        <ele>1519.5</ele>
        <time>2021-05-09T11:29:09Z</time>
      </trkpt>
      <trkpt lat="44.59731" lon="5.62675">
        <ele>1516.62</ele>
        <time>2021-05-09T11:29:21Z</time>
      </trkpt>
      <trkpt lat="44.5973" lon="5.62658">
        <ele>1513.73</ele>
        <time>2021-05-09T11:29:30Z</time>
      </trkpt>
      <trkpt lat="44.59725" lon="5.62641">
        <ele>1510.85</ele>
        <time>2021-05-09T11:29:40Z</time>
      </trkpt>
      <trkpt lat="44.59718" lon="5.62623">
        <ele>1509.89</ele>
        <time>2021-05-09T11:29:54Z</time>
      </trkpt>
      <trkpt lat="44.59708" lon="5.62606">
        <ele>1509.41</ele>
        <time>2021-05-09T11:30:09Z</time>
      </trkpt>
      <trkpt lat="44.59701" lon="5.62589">
        <ele>1508.93</ele>
        <time>2021-05-09T11:30:21Z</time>
      </trkpt>
      <trkpt lat="44.59694" lon="5.62569">
        <ele>1507.97</ele>
        <time>2021-05-09T11:30:36Z</time>
      </trkpt>
      <trkpt lat="44.59689" lon="5.62555">
        <ele>1507</ele>
        <time>2021-05-09T11:30:46Z</time>
      </trkpt>
      <trkpt lat="44.59683" lon="5.62536">
        <ele>1505.56</ele>
        <time>2021-05-09T11:31:00Z</time>
      </trkpt>
      <trkpt lat="44.59671" lon="5.62513">
        <ele>1502.2</ele>
        <time>2021-05-09T11:31:12Z</time>
      </trkpt>
      <trkpt lat="44.59661" lon="5.62499">
        <ele>1501.24</ele>
        <time>2021-05-09T11:31:23Z</time>
      </trkpt>
      <trkpt lat="44.59655" lon="5.6249">
        <ele>1500.27</ele>
        <time>2021-05-09T11:31:37Z</time>
      </trkpt>
      <trkpt lat="44.59646" lon="5.62479">
        <ele>1499.79</ele>
        <time>2021-05-09T11:31:54Z</time>
      </trkpt>
      <trkpt lat="44.59631" lon="5.62469">
        <ele>1496.43</ele>
        <time>2021-05-09T11:32:09Z</time>
      </trkpt>
      <trkpt lat="44.59624" lon="5.62459">
        <ele>1497.87</ele>
        <time>2021-05-09T11:32:19Z</time>
      </trkpt>
      <trkpt lat="44.59621" lon="5.62443">
        <ele>1495.47</ele>
        <time>2021-05-09T11:32:33Z</time>
      </trkpt>
      <trkpt lat="44.59616" lon="5.62423">
        <ele>1494.51</ele>
        <time>2021-05-09T11:32:51Z</time>
      </trkpt>
      <trkpt lat="44.59608" lon="5.62413">
        <ele>1493.06</ele>
        <time>2021-05-09T11:33:01Z</time>
      </trkpt>
      <trkpt lat="44.59595" lon="5.62395">
        <ele>1490.18</ele>
        <time>2021-05-09T11:33:15Z</time>
      </trkpt>
      <trkpt lat="44.59594" lon="5.62394">
        <ele>1490.18</ele>
        <time>2021-05-09T11:33:16Z</time>
      </trkpt>
      <trkpt lat="44.59586" lon="5.62369">
        <ele>1487.3</ele>
        <time>2021-05-09T11:33:33Z</time>
      </trkpt>
      <trkpt lat="44.59583" lon="5.62358">
        <ele>1483.93</ele>
        <time>2021-05-09T11:33:41Z</time>
      </trkpt>
      <trkpt lat="44.59577" lon="5.62333">
        <ele>1481.05</ele>
        <time>2021-05-09T11:33:56Z</time>
      </trkpt>
      <trkpt lat="44.59573" lon="5.62316">
        <ele>1477.68</ele>
        <time>2021-05-09T11:34:07Z</time>
      </trkpt>
      <trkpt lat="44.59574" lon="5.623">
        <ele>1475.28</ele>
        <time>2021-05-09T11:34:16Z</time>
      </trkpt>
      <trkpt lat="44.59577" lon="5.62268">
        <ele>1472.4</ele>
        <time>2021-05-09T11:34:36Z</time>
      </trkpt>
      <trkpt lat="44.59576" lon="5.62259">
        <ele>1472.4</ele>
        <time>2021-05-09T11:34:50Z</time>
      </trkpt>
      <trkpt lat="44.59575" lon="5.62258">
        <ele>1475.28</ele>
        <time>2021-05-09T11:34:53Z</time>
      </trkpt>
      <trkpt lat="44.59574" lon="5.62253">
        <ele>1470.95</ele>
        <time>2021-05-09T11:35:00Z</time>
      </trkpt>
      <trkpt lat="44.59574" lon="5.62253">
        <ele>1470.95</ele>
        <time>2021-05-09T11:35:01Z</time>
      </trkpt>
      <trkpt lat="44.59574" lon="5.62248">
        <ele>1474.8</ele>
        <time>2021-05-09T11:35:55Z</time>
      </trkpt>
      <trkpt lat="44.59576" lon="5.62233">
        <ele>1475.28</ele>
        <time>2021-05-09T11:36:07Z</time>
      </trkpt>
      <trkpt lat="44.5958" lon="5.62217">
        <ele>1476.24</ele>
        <time>2021-05-09T11:36:18Z</time>
      </trkpt>
      <trkpt lat="44.59587" lon="5.62197">
        <ele>1476.24</ele>
        <time>2021-05-09T11:36:34Z</time>
      </trkpt>
      <trkpt lat="44.59589" lon="5.62193">
        <ele>1479.61</ele>
        <time>2021-05-09T11:36:39Z</time>
      </trkpt>
      <trkpt lat="44.59589" lon="5.62192">
        <ele>1479.61</ele>
        <time>2021-05-09T11:36:40Z</time>
      </trkpt>
      <trkpt lat="44.5959" lon="5.62188">
        <ele>1482.01</ele>
        <time>2021-05-09T11:36:44Z</time>
      </trkpt>
      <trkpt lat="44.59594" lon="5.62177">
        <ele>1484.41</ele>
        <time>2021-05-09T11:37:00Z</time>
      </trkpt>
      <trkpt lat="44.59595" lon="5.62175">
        <ele>1482.49</ele>
        <time>2021-05-09T11:37:02Z</time>
      </trkpt>
      <trkpt lat="44.59596" lon="5.62171">
        <ele>1485.37</ele>
        <time>2021-05-09T11:37:09Z</time>
      </trkpt>
      <trkpt lat="44.59597" lon="5.62168">
        <ele>1488.26</ele>
        <time>2021-05-09T11:37:15Z</time>
      </trkpt>
      <trkpt lat="44.59596" lon="5.62168">
        <ele>1484.89</ele>
        <time>2021-05-09T11:37:17Z</time>
      </trkpt>
      <trkpt lat="44.59596" lon="5.62167">
        <ele>1484.89</ele>
        <time>2021-05-09T11:37:18Z</time>
      </trkpt>
      <trkpt lat="44.59594" lon="5.62163">
        <ele>1489.7</ele>
        <time>2021-05-09T11:37:31Z</time>
      </trkpt>
      <trkpt lat="44.59594" lon="5.62162">
        <ele>1487.3</ele>
        <time>2021-05-09T11:37:34Z</time>
      </trkpt>
      <trkpt lat="44.59593" lon="5.62156">
        <ele>1489.7</ele>
        <time>2021-05-09T11:37:51Z</time>
      </trkpt>
      <trkpt lat="44.59597" lon="5.62153">
        <ele>1491.14</ele>
        <time>2021-05-09T11:37:59Z</time>
      </trkpt>
      <trkpt lat="44.59598" lon="5.6215">
        <ele>1489.7</ele>
        <time>2021-05-09T11:38:03Z</time>
      </trkpt>
      <trkpt lat="44.59598" lon="5.62149">
        <ele>1491.14</ele>
        <time>2021-05-09T11:38:05Z</time>
      </trkpt>
      <trkpt lat="44.59603" lon="5.62144">
        <ele>1491.14</ele>
        <time>2021-05-09T11:38:21Z</time>
      </trkpt>
      <trkpt lat="44.59606" lon="5.62141">
        <ele>1492.58</ele>
        <time>2021-05-09T11:38:31Z</time>
      </trkpt>
      <trkpt lat="44.59607" lon="5.62139">
        <ele>1494.99</ele>
        <time>2021-05-09T11:38:49Z</time>
      </trkpt>
      <trkpt lat="44.59615" lon="5.62135">
        <ele>1495.95</ele>
        <time>2021-05-09T11:39:03Z</time>
      </trkpt>
      <trkpt lat="44.59623" lon="5.62131">
        <ele>1495.95</ele>
        <time>2021-05-09T11:39:21Z</time>
      </trkpt>
      <trkpt lat="44.59628" lon="5.62122">
        <ele>1499.31</ele>
        <time>2021-05-09T11:39:35Z</time>
      </trkpt>
      <trkpt lat="44.59626" lon="5.62112">
        <ele>1500.76</ele>
        <time>2021-05-09T11:39:53Z</time>
      </trkpt>
      <trkpt lat="44.59619" lon="5.62098">
        <ele>1500.27</ele>
        <time>2021-05-09T11:40:06Z</time>
      </trkpt>
      <trkpt lat="44.59608" lon="5.62089">
        <ele>1503.16</ele>
        <time>2021-05-09T11:40:22Z</time>
      </trkpt>
      <trkpt lat="44.59606" lon="5.62087">
        <ele>1504.6</ele>
        <time>2021-05-09T11:40:25Z</time>
      </trkpt>
      <trkpt lat="44.59604" lon="5.62075">
        <ele>1506.04</ele>
        <time>2021-05-09T11:40:40Z</time>
      </trkpt>
      <trkpt lat="44.59605" lon="5.62072">
        <ele>1504.6</ele>
        <time>2021-05-09T11:40:43Z</time>
      </trkpt>
      <trkpt lat="44.59609" lon="5.62059">
        <ele>1504.12</ele>
        <time>2021-05-09T11:40:56Z</time>
      </trkpt>
      <trkpt lat="44.5961" lon="5.62058">
        <ele>1505.56</ele>
        <time>2021-05-09T11:40:59Z</time>
      </trkpt>
      <trkpt lat="44.59613" lon="5.62054">
        <ele>1505.56</ele>
        <time>2021-05-09T11:41:14Z</time>
      </trkpt>
      <trkpt lat="44.59619" lon="5.62051">
        <ele>1505.56</ele>
        <time>2021-05-09T11:41:30Z</time>
      </trkpt>
      <trkpt lat="44.5962" lon="5.62051">
        <ele>1504.12</ele>
        <time>2021-05-09T11:41:32Z</time>
      </trkpt>
      <trkpt lat="44.59623" lon="5.62049">
        <ele>1500.76</ele>
        <time>2021-05-09T11:41:40Z</time>
      </trkpt>
      <trkpt lat="44.59627" lon="5.62045">
        <ele>1498.83</ele>
        <time>2021-05-09T11:41:45Z</time>
      </trkpt>
      <trkpt lat="44.59637" lon="5.62035">
        <ele>1498.35</ele>
        <time>2021-05-09T11:41:58Z</time>
      </trkpt>
      <trkpt lat="44.59639" lon="5.62034">
        <ele>1500.76</ele>
        <time>2021-05-09T11:42:01Z</time>
      </trkpt>
      <trkpt lat="44.59652" lon="5.62028">
        <ele>1501.72</ele>
        <time>2021-05-09T11:42:20Z</time>
      </trkpt>
      <trkpt lat="44.59658" lon="5.62023">
        <ele>1503.16</ele>
        <time>2021-05-09T11:42:38Z</time>
      </trkpt>
      <trkpt lat="44.59659" lon="5.6202">
        <ele>1506.52</ele>
        <time>2021-05-09T11:42:44Z</time>
      </trkpt>
      <trkpt lat="44.59659" lon="5.6202">
        <ele>1507.48</ele>
        <time>2021-05-09T11:42:46Z</time>
      </trkpt>
      <trkpt lat="44.59661" lon="5.62016">
        <ele>1506.04</ele>
        <time>2021-05-09T11:42:56Z</time>
      </trkpt>
      <trkpt lat="44.59664" lon="5.62016">
        <ele>1508.45</ele>
        <time>2021-05-09T11:43:02Z</time>
      </trkpt>
      <trkpt lat="44.59664" lon="5.62015">
        <ele>1511.33</ele>
        <time>2021-05-09T11:43:04Z</time>
      </trkpt>
      <trkpt lat="44.59664" lon="5.62015">
        <ele>1511.33</ele>
        <time>2021-05-09T11:43:05Z</time>
      </trkpt>
      <trkpt lat="44.59665" lon="5.62014">
        <ele>1510.37</ele>
        <time>2021-05-09T11:43:08Z</time>
      </trkpt>
      <trkpt lat="44.59668" lon="5.62012">
        <ele>1511.33</ele>
        <time>2021-05-09T11:43:18Z</time>
      </trkpt>
      <trkpt lat="44.59671" lon="5.62002">
        <ele>1514.21</ele>
        <time>2021-05-09T11:43:36Z</time>
      </trkpt>
      <trkpt lat="44.59672" lon="5.61997">
        <ele>1517.58</ele>
        <time>2021-05-09T11:43:41Z</time>
      </trkpt>
      <trkpt lat="44.59678" lon="5.61987">
        <ele>1519.5</ele>
        <time>2021-05-09T11:43:58Z</time>
      </trkpt>
      <trkpt lat="44.59685" lon="5.61983">
        <ele>1518.06</ele>
        <time>2021-05-09T11:44:07Z</time>
      </trkpt>
      <trkpt lat="44.59696" lon="5.61978">
        <ele>1516.62</ele>
        <time>2021-05-09T11:44:21Z</time>
      </trkpt>
      <trkpt lat="44.59704" lon="5.61969">
        <ele>1514.21</ele>
        <time>2021-05-09T11:44:34Z</time>
      </trkpt>
      <trkpt lat="44.59708" lon="5.61965">
        <ele>1512.29</ele>
        <time>2021-05-09T11:44:39Z</time>
      </trkpt>
      <trkpt lat="44.59711" lon="5.6196">
        <ele>1511.81</ele>
        <time>2021-05-09T11:44:43Z</time>
      </trkpt>
      <trkpt lat="44.59715" lon="5.61939">
        <ele>1511.81</ele>
        <time>2021-05-09T11:45:00Z</time>
      </trkpt>
      <trkpt lat="44.5972" lon="5.61924">
        <ele>1511.33</ele>
        <time>2021-05-09T11:45:14Z</time>
      </trkpt>
      <trkpt lat="44.5972" lon="5.61922">
        <ele>1512.29</ele>
        <time>2021-05-09T11:45:16Z</time>
      </trkpt>
      <trkpt lat="44.59722" lon="5.61907">
        <ele>1515.66</ele>
        <time>2021-05-09T11:45:34Z</time>
      </trkpt>
      <trkpt lat="44.59724" lon="5.61896">
        <ele>1518.06</ele>
        <time>2021-05-09T11:45:51Z</time>
      </trkpt>
      <trkpt lat="44.59724" lon="5.61885">
        <ele>1519.98</ele>
        <time>2021-05-09T11:46:08Z</time>
      </trkpt>
      <trkpt lat="44.59722" lon="5.61877">
        <ele>1523.35</ele>
        <time>2021-05-09T11:46:21Z</time>
      </trkpt>
      <trkpt lat="44.59723" lon="5.61866">
        <ele>1523.35</ele>
        <time>2021-05-09T11:46:34Z</time>
      </trkpt>
      <trkpt lat="44.59728" lon="5.61859">
        <ele>1523.83</ele>
        <time>2021-05-09T11:46:51Z</time>
      </trkpt>
      <trkpt lat="44.5973" lon="5.61858">
        <ele>1524.79</ele>
        <time>2021-05-09T11:47:12Z</time>
      </trkpt>
      <trkpt lat="44.59731" lon="5.61858">
        <ele>1527.19</ele>
        <time>2021-05-09T11:48:56Z</time>
      </trkpt>
      <trkpt lat="44.59732" lon="5.61857">
        <ele>1526.71</ele>
        <time>2021-05-09T11:49:21Z</time>
      </trkpt>
      <trkpt lat="44.59733" lon="5.61855">
        <ele>1527.67</ele>
        <time>2021-05-09T11:49:30Z</time>
      </trkpt>
      <trkpt lat="44.59733" lon="5.61853">
        <ele>1524.79</ele>
        <time>2021-05-09T11:49:32Z</time>
      </trkpt>
      <trkpt lat="44.59733" lon="5.61852">
        <ele>1523.35</ele>
        <time>2021-05-09T11:49:34Z</time>
      </trkpt>
      <trkpt lat="44.59735" lon="5.61847">
        <ele>1526.71</ele>
        <time>2021-05-09T11:49:43Z</time>
      </trkpt>
      <trkpt lat="44.59736" lon="5.61845">
        <ele>1528.63</ele>
        <time>2021-05-09T11:49:46Z</time>
      </trkpt>
      <trkpt lat="44.59745" lon="5.61838">
        <ele>1530.56</ele>
        <time>2021-05-09T11:50:05Z</time>
      </trkpt>
      <trkpt lat="44.59749" lon="5.61834">
        <ele>1532</ele>
        <time>2021-05-09T11:50:12Z</time>
      </trkpt>
      <trkpt lat="44.59755" lon="5.61827">
        <ele>1533.44</ele>
        <time>2021-05-09T11:50:30Z</time>
      </trkpt>
      <trkpt lat="44.5976" lon="5.61823">
        <ele>1536.8</ele>
        <time>2021-05-09T11:50:41Z</time>
      </trkpt>
      <trkpt lat="44.59761" lon="5.61823">
        <ele>1537.77</ele>
        <time>2021-05-09T11:50:43Z</time>
      </trkpt>
      <trkpt lat="44.59766" lon="5.61813">
        <ele>1540.17</ele>
        <time>2021-05-09T11:51:03Z</time>
      </trkpt>
      <trkpt lat="44.59767" lon="5.61805">
        <ele>1543.53</ele>
        <time>2021-05-09T11:51:16Z</time>
      </trkpt>
      <trkpt lat="44.59769" lon="5.61798">
        <ele>1545.94</ele>
        <time>2021-05-09T11:51:34Z</time>
      </trkpt>
      <trkpt lat="44.59775" lon="5.61788">
        <ele>1548.82</ele>
        <time>2021-05-09T11:51:53Z</time>
      </trkpt>
      <trkpt lat="44.5978" lon="5.61784">
        <ele>1551.71</ele>
        <time>2021-05-09T11:52:05Z</time>
      </trkpt>
      <trkpt lat="44.5978" lon="5.61783">
        <ele>1551.71</ele>
        <time>2021-05-09T11:52:06Z</time>
      </trkpt>
      <trkpt lat="44.59782" lon="5.61781">
        <ele>1553.15</ele>
        <time>2021-05-09T11:52:11Z</time>
      </trkpt>
      <trkpt lat="44.59784" lon="5.61779">
        <ele>1557.47</ele>
        <time>2021-05-09T11:52:16Z</time>
      </trkpt>
      <trkpt lat="44.59784" lon="5.61778">
        <ele>1557.47</ele>
        <time>2021-05-09T11:52:17Z</time>
      </trkpt>
      <trkpt lat="44.59785" lon="5.61777">
        <ele>1555.07</ele>
        <time>2021-05-09T11:52:21Z</time>
      </trkpt>
      <trkpt lat="44.59787" lon="5.61773">
        <ele>1558.43</ele>
        <time>2021-05-09T11:52:27Z</time>
      </trkpt>
      <trkpt lat="44.59788" lon="5.61772">
        <ele>1560.36</ele>
        <time>2021-05-09T11:52:29Z</time>
      </trkpt>
      <trkpt lat="44.59793" lon="5.6177">
        <ele>1556.99</ele>
        <time>2021-05-09T11:52:40Z</time>
      </trkpt>
      <trkpt lat="44.59794" lon="5.6177">
        <ele>1558.92</ele>
        <time>2021-05-09T11:52:41Z</time>
      </trkpt>
      <trkpt lat="44.59795" lon="5.6177">
        <ele>1559.88</ele>
        <time>2021-05-09T11:52:43Z</time>
      </trkpt>
      <trkpt lat="44.59797" lon="5.61771">
        <ele>1561.32</ele>
        <time>2021-05-09T11:52:48Z</time>
      </trkpt>
      <trkpt lat="44.59801" lon="5.6177">
        <ele>1563.72</ele>
        <time>2021-05-09T11:52:58Z</time>
      </trkpt>
      <trkpt lat="44.59808" lon="5.61767">
        <ele>1567.09</ele>
        <time>2021-05-09T11:53:09Z</time>
      </trkpt>
      <trkpt lat="44.59808" lon="5.61766">
        <ele>1567.09</ele>
        <time>2021-05-09T11:53:10Z</time>
      </trkpt>
      <trkpt lat="44.5981" lon="5.61766">
        <ele>1564.2</ele>
        <time>2021-05-09T11:53:12Z</time>
      </trkpt>
      <trkpt lat="44.59813" lon="5.61765">
        <ele>1565.64</ele>
        <time>2021-05-09T11:53:18Z</time>
      </trkpt>
      <trkpt lat="44.59815" lon="5.61763">
        <ele>1569.97</ele>
        <time>2021-05-09T11:53:26Z</time>
      </trkpt>
      <trkpt lat="44.59816" lon="5.61763">
        <ele>1569.97</ele>
        <time>2021-05-09T11:53:27Z</time>
      </trkpt>
      <trkpt lat="44.59818" lon="5.61761">
        <ele>1568.05</ele>
        <time>2021-05-09T11:53:32Z</time>
      </trkpt>
      <trkpt lat="44.59819" lon="5.6176">
        <ele>1569.01</ele>
        <time>2021-05-09T11:53:36Z</time>
      </trkpt>
      <trkpt lat="44.59825" lon="5.61757">
        <ele>1571.89</ele>
        <time>2021-05-09T11:53:54Z</time>
      </trkpt>
      <trkpt lat="44.59832" lon="5.61754">
        <ele>1572.85</ele>
        <time>2021-05-09T11:54:12Z</time>
      </trkpt>
      <trkpt lat="44.5984" lon="5.61753">
        <ele>1575.74</ele>
        <time>2021-05-09T11:54:29Z</time>
      </trkpt>
      <trkpt lat="44.59844" lon="5.6175">
        <ele>1576.22</ele>
        <time>2021-05-09T11:54:43Z</time>
      </trkpt>
      <trkpt lat="44.59846" lon="5.61744">
        <ele>1579.58</ele>
        <time>2021-05-09T11:54:55Z</time>
      </trkpt>
      <trkpt lat="44.59853" lon="5.61737">
        <ele>1582.47</ele>
        <time>2021-05-09T11:55:14Z</time>
      </trkpt>
      <trkpt lat="44.59856" lon="5.61734">
        <ele>1585.83</ele>
        <time>2021-05-09T11:55:23Z</time>
      </trkpt>
      <trkpt lat="44.59857" lon="5.61732">
        <ele>1587.75</ele>
        <time>2021-05-09T11:55:26Z</time>
      </trkpt>
      <trkpt lat="44.5986" lon="5.61729">
        <ele>1591.12</ele>
        <time>2021-05-09T11:55:34Z</time>
      </trkpt>
      <trkpt lat="44.59862" lon="5.61726">
        <ele>1592.08</ele>
        <time>2021-05-09T11:55:39Z</time>
      </trkpt>
      <trkpt lat="44.59864" lon="5.61724">
        <ele>1590.64</ele>
        <time>2021-05-09T11:55:43Z</time>
      </trkpt>
      <trkpt lat="44.59874" lon="5.61721">
        <ele>1592.56</ele>
        <time>2021-05-09T11:55:57Z</time>
      </trkpt>
      <trkpt lat="44.5988" lon="5.6172">
        <ele>1592.08</ele>
        <time>2021-05-09T11:56:05Z</time>
      </trkpt>
      <trkpt lat="44.59881" lon="5.6172">
        <ele>1592.56</ele>
        <time>2021-05-09T11:56:06Z</time>
      </trkpt>
      <trkpt lat="44.59894" lon="5.61715">
        <ele>1595.93</ele>
        <time>2021-05-09T11:56:23Z</time>
      </trkpt>
      <trkpt lat="44.59896" lon="5.61714">
        <ele>1596.41</ele>
        <time>2021-05-09T11:56:25Z</time>
      </trkpt>
      <trkpt lat="44.59908" lon="5.61711">
        <ele>1599.29</ele>
        <time>2021-05-09T11:56:41Z</time>
      </trkpt>
      <trkpt lat="44.59918" lon="5.61706">
        <ele>1599.29</ele>
        <time>2021-05-09T11:56:56Z</time>
      </trkpt>
      <trkpt lat="44.5993" lon="5.61697">
        <ele>1601.21</ele>
        <time>2021-05-09T11:57:13Z</time>
      </trkpt>
      <trkpt lat="44.59939" lon="5.61692">
        <ele>1605.54</ele>
        <time>2021-05-09T11:57:26Z</time>
      </trkpt>
      <trkpt lat="44.59946" lon="5.61688">
        <ele>1604.58</ele>
        <time>2021-05-09T11:57:36Z</time>
      </trkpt>
      <trkpt lat="44.59957" lon="5.61684">
        <ele>1606.02</ele>
        <time>2021-05-09T11:57:50Z</time>
      </trkpt>
      <trkpt lat="44.59963" lon="5.6168">
        <ele>1609.38</ele>
        <time>2021-05-09T11:57:59Z</time>
      </trkpt>
      <trkpt lat="44.59974" lon="5.61671">
        <ele>1610.35</ele>
        <time>2021-05-09T11:58:16Z</time>
      </trkpt>
      <trkpt lat="44.59984" lon="5.61665">
        <ele>1613.23</ele>
        <time>2021-05-09T11:58:30Z</time>
      </trkpt>
      <trkpt lat="44.59989" lon="5.61662">
        <ele>1614.67</ele>
        <time>2021-05-09T11:58:36Z</time>
      </trkpt>
      <trkpt lat="44.60001" lon="5.61653">
        <ele>1616.11</ele>
        <time>2021-05-09T11:58:54Z</time>
      </trkpt>
      <trkpt lat="44.6001" lon="5.61644">
        <ele>1617.56</ele>
        <time>2021-05-09T11:59:13Z</time>
      </trkpt>
      <trkpt lat="44.60013" lon="5.61644">
        <ele>1610.35</ele>
        <time>2021-05-09T11:59:21Z</time>
      </trkpt>
      <trkpt lat="44.60013" lon="5.61643">
        <ele>1610.35</ele>
        <time>2021-05-09T11:59:22Z</time>
      </trkpt>
      <trkpt lat="44.60014" lon="5.61643">
        <ele>1614.19</ele>
        <time>2021-05-09T11:59:26Z</time>
      </trkpt>
      <trkpt lat="44.60015" lon="5.61642">
        <ele>1618.52</ele>
        <time>2021-05-09T11:59:33Z</time>
      </trkpt>
      <trkpt lat="44.60016" lon="5.61642">
        <ele>1620.44</ele>
        <time>2021-05-09T11:59:36Z</time>
      </trkpt>
      <trkpt lat="44.60016" lon="5.61642">
        <ele>1618.04</ele>
        <time>2021-05-09T11:59:38Z</time>
      </trkpt>
      <trkpt lat="44.60016" lon="5.61642">
        <ele>1616.59</ele>
        <time>2021-05-09T11:59:42Z</time>
      </trkpt>
      <trkpt lat="44.60016" lon="5.61642">
        <ele>1619.96</ele>
        <time>2021-05-09T11:59:43Z</time>
      </trkpt>
      <trkpt lat="44.60017" lon="5.61641">
        <ele>1619.96</ele>
        <time>2021-05-09T11:59:49Z</time>
      </trkpt>
      <trkpt lat="44.60018" lon="5.6164">
        <ele>1618.04</ele>
        <time>2021-05-09T11:59:51Z</time>
      </trkpt>
      <trkpt lat="44.60027" lon="5.61636">
        <ele>1616.11</ele>
        <time>2021-05-09T12:00:08Z</time>
      </trkpt>
      <trkpt lat="44.60033" lon="5.61633">
        <ele>1616.59</ele>
        <time>2021-05-09T12:00:26Z</time>
      </trkpt>
      <trkpt lat="44.60033" lon="5.61634">
        <ele>1614.19</ele>
        <time>2021-05-09T12:00:29Z</time>
      </trkpt>
      <trkpt lat="44.60033" lon="5.61633">
        <ele>1611.79</ele>
        <time>2021-05-09T12:00:33Z</time>
      </trkpt>
      <trkpt lat="44.60034" lon="5.61634">
        <ele>1613.23</ele>
        <time>2021-05-09T12:00:37Z</time>
      </trkpt>
      <trkpt lat="44.60034" lon="5.61634">
        <ele>1613.71</ele>
        <time>2021-05-09T12:01:01Z</time>
      </trkpt>
      <trkpt lat="44.60035" lon="5.61634">
        <ele>1617.56</ele>
        <time>2021-05-09T12:01:11Z</time>
      </trkpt>
      <trkpt lat="44.60035" lon="5.61634">
        <ele>1614.19</ele>
        <time>2021-05-09T12:01:15Z</time>
      </trkpt>
      <trkpt lat="44.60035" lon="5.61634">
        <ele>1614.19</ele>
        <time>2021-05-09T12:01:16Z</time>
      </trkpt>
      <trkpt lat="44.60037" lon="5.61635">
        <ele>1609.86</ele>
        <time>2021-05-09T12:01:34Z</time>
      </trkpt>
      <trkpt lat="44.60037" lon="5.61636">
        <ele>1609.86</ele>
        <time>2021-05-09T12:01:35Z</time>
      </trkpt>
      <trkpt lat="44.60038" lon="5.61636">
        <ele>1611.31</ele>
        <time>2021-05-09T12:01:38Z</time>
      </trkpt>
      <trkpt lat="44.60045" lon="5.6164">
        <ele>1608.42</ele>
        <time>2021-05-09T12:01:52Z</time>
      </trkpt>
      <trkpt lat="44.60049" lon="5.61643">
        <ele>1606.98</ele>
        <time>2021-05-09T12:01:59Z</time>
      </trkpt>
      <trkpt lat="44.60053" lon="5.61645">
        <ele>1604.58</ele>
        <time>2021-05-09T12:02:05Z</time>
      </trkpt>
      <trkpt lat="44.60055" lon="5.61646">
        <ele>1606.02</ele>
        <time>2021-05-09T12:02:10Z</time>
      </trkpt>
      <trkpt lat="44.60056" lon="5.61647">
        <ele>1604.58</ele>
        <time>2021-05-09T12:02:12Z</time>
      </trkpt>
      <trkpt lat="44.60062" lon="5.61649">
        <ele>1601.21</ele>
        <time>2021-05-09T12:02:22Z</time>
      </trkpt>
      <trkpt lat="44.60063" lon="5.6165">
        <ele>1600.73</ele>
        <time>2021-05-09T12:02:24Z</time>
      </trkpt>
      <trkpt lat="44.60066" lon="5.61651">
        <ele>1600.25</ele>
        <time>2021-05-09T12:02:29Z</time>
      </trkpt>
      <trkpt lat="44.60069" lon="5.61654">
        <ele>1598.81</ele>
        <time>2021-05-09T12:02:35Z</time>
      </trkpt>
      <trkpt lat="44.60077" lon="5.61656">
        <ele>1594.96</ele>
        <time>2021-05-09T12:02:49Z</time>
      </trkpt>
      <trkpt lat="44.60081" lon="5.61655">
        <ele>1592.08</ele>
        <time>2021-05-09T12:03:02Z</time>
      </trkpt>
      <trkpt lat="44.60082" lon="5.61657">
        <ele>1590.64</ele>
        <time>2021-05-09T12:03:05Z</time>
      </trkpt>
      <trkpt lat="44.60083" lon="5.61658">
        <ele>1592.56</ele>
        <time>2021-05-09T12:03:07Z</time>
      </trkpt>
      <trkpt lat="44.60086" lon="5.61656">
        <ele>1590.64</ele>
        <time>2021-05-09T12:03:16Z</time>
      </trkpt>
      <trkpt lat="44.6009" lon="5.61645">
        <ele>1590.64</ele>
        <time>2021-05-09T12:03:33Z</time>
      </trkpt>
      <trkpt lat="44.60094" lon="5.61632">
        <ele>1588.24</ele>
        <time>2021-05-09T12:03:50Z</time>
      </trkpt>
      <trkpt lat="44.60098" lon="5.61621">
        <ele>1584.87</ele>
        <time>2021-05-09T12:04:03Z</time>
      </trkpt>
      <trkpt lat="44.60101" lon="5.61603">
        <ele>1582.47</ele>
        <time>2021-05-09T12:04:21Z</time>
      </trkpt>
      <trkpt lat="44.60102" lon="5.61595">
        <ele>1582.47</ele>
        <time>2021-05-09T12:04:30Z</time>
      </trkpt>
      <trkpt lat="44.60106" lon="5.61595">
        <ele>1579.1</ele>
        <time>2021-05-09T12:04:38Z</time>
      </trkpt>
      <trkpt lat="44.6011" lon="5.61603">
        <ele>1578.62</ele>
        <time>2021-05-09T12:04:48Z</time>
      </trkpt>
      <trkpt lat="44.60112" lon="5.61608">
        <ele>1577.66</ele>
        <time>2021-05-09T12:04:53Z</time>
      </trkpt>
      <trkpt lat="44.60115" lon="5.6162">
        <ele>1574.78</ele>
        <time>2021-05-09T12:05:03Z</time>
      </trkpt>
      <trkpt lat="44.60116" lon="5.61627">
        <ele>1576.22</ele>
        <time>2021-05-09T12:05:10Z</time>
      </trkpt>
      <trkpt lat="44.60117" lon="5.61632">
        <ele>1574.3</ele>
        <time>2021-05-09T12:05:15Z</time>
      </trkpt>
      <trkpt lat="44.60119" lon="5.61649">
        <ele>1572.85</ele>
        <time>2021-05-09T12:05:32Z</time>
      </trkpt>
      <trkpt lat="44.6012" lon="5.61655">
        <ele>1573.82</ele>
        <time>2021-05-09T12:05:38Z</time>
      </trkpt>
      <trkpt lat="44.60121" lon="5.61656">
        <ele>1569.97</ele>
        <time>2021-05-09T12:05:39Z</time>
      </trkpt>
      <trkpt lat="44.60121" lon="5.6166">
        <ele>1572.37</ele>
        <time>2021-05-09T12:05:42Z</time>
      </trkpt>
      <trkpt lat="44.60121" lon="5.61662">
        <ele>1570.93</ele>
        <time>2021-05-09T12:05:44Z</time>
      </trkpt>
      <trkpt lat="44.60121" lon="5.61666">
        <ele>1572.85</ele>
        <time>2021-05-09T12:05:48Z</time>
      </trkpt>
      <trkpt lat="44.60121" lon="5.61669">
        <ele>1571.41</ele>
        <time>2021-05-09T12:05:51Z</time>
      </trkpt>
      <trkpt lat="44.60122" lon="5.61678">
        <ele>1570.93</ele>
        <time>2021-05-09T12:05:59Z</time>
      </trkpt>
      <trkpt lat="44.60123" lon="5.61682">
        <ele>1571.89</ele>
        <time>2021-05-09T12:06:03Z</time>
      </trkpt>
      <trkpt lat="44.60124" lon="5.61693">
        <ele>1571.41</ele>
        <time>2021-05-09T12:06:15Z</time>
      </trkpt>
      <trkpt lat="44.60124" lon="5.61698">
        <ele>1569.01</ele>
        <time>2021-05-09T12:06:20Z</time>
      </trkpt>
      <trkpt lat="44.60125" lon="5.61705">
        <ele>1565.64</ele>
        <time>2021-05-09T12:06:27Z</time>
      </trkpt>
      <trkpt lat="44.60125" lon="5.61705">
        <ele>1565.64</ele>
        <time>2021-05-09T12:06:28Z</time>
      </trkpt>
      <trkpt lat="44.60127" lon="5.61717">
        <ele>1564.68</ele>
        <time>2021-05-09T12:06:41Z</time>
      </trkpt>
      <trkpt lat="44.60127" lon="5.61721">
        <ele>1561.8</ele>
        <time>2021-05-09T12:06:45Z</time>
      </trkpt>
      <trkpt lat="44.60129" lon="5.61726">
        <ele>1560.36</ele>
        <time>2021-05-09T12:06:53Z</time>
      </trkpt>
      <trkpt lat="44.6013" lon="5.61734">
        <ele>1557.47</ele>
        <time>2021-05-09T12:07:02Z</time>
      </trkpt>
      <trkpt lat="44.6013" lon="5.61735">
        <ele>1557.47</ele>
        <time>2021-05-09T12:07:03Z</time>
      </trkpt>
      <trkpt lat="44.60131" lon="5.61741">
        <ele>1557.47</ele>
        <time>2021-05-09T12:07:12Z</time>
      </trkpt>
      <trkpt lat="44.60133" lon="5.6175">
        <ele>1556.03</ele>
        <time>2021-05-09T12:07:25Z</time>
      </trkpt>
      <trkpt lat="44.60133" lon="5.61757">
        <ele>1553.63</ele>
        <time>2021-05-09T12:07:41Z</time>
      </trkpt>
      <trkpt lat="44.60135" lon="5.61768">
        <ele>1550.26</ele>
        <time>2021-05-09T12:07:56Z</time>
      </trkpt>
      <trkpt lat="44.60136" lon="5.6178">
        <ele>1549.78</ele>
        <time>2021-05-09T12:08:10Z</time>
      </trkpt>
      <trkpt lat="44.60136" lon="5.61785">
        <ele>1547.86</ele>
        <time>2021-05-09T12:08:15Z</time>
      </trkpt>
      <trkpt lat="44.60137" lon="5.61788">
        <ele>1542.57</ele>
        <time>2021-05-09T12:08:19Z</time>
      </trkpt>
      <trkpt lat="44.60137" lon="5.61789">
        <ele>1543.05</ele>
        <time>2021-05-09T12:08:20Z</time>
      </trkpt>
      <trkpt lat="44.60137" lon="5.6179">
        <ele>1545.94</ele>
        <time>2021-05-09T12:08:21Z</time>
      </trkpt>
      <trkpt lat="44.60136" lon="5.6179">
        <ele>1545.94</ele>
        <time>2021-05-09T12:08:22Z</time>
      </trkpt>
      <trkpt lat="44.60136" lon="5.61791">
        <ele>1547.86</ele>
        <time>2021-05-09T12:08:24Z</time>
      </trkpt>
      <trkpt lat="44.60136" lon="5.61793">
        <ele>1546.42</ele>
        <time>2021-05-09T12:08:26Z</time>
      </trkpt>
      <trkpt lat="44.60136" lon="5.61797">
        <ele>1546.9</ele>
        <time>2021-05-09T12:08:30Z</time>
      </trkpt>
      <trkpt lat="44.60136" lon="5.61799">
        <ele>1543.53</ele>
        <time>2021-05-09T12:08:33Z</time>
      </trkpt>
      <trkpt lat="44.60137" lon="5.61801">
        <ele>1542.57</ele>
        <time>2021-05-09T12:08:35Z</time>
      </trkpt>
      <trkpt lat="44.60137" lon="5.61803">
        <ele>1544.5</ele>
        <time>2021-05-09T12:08:38Z</time>
      </trkpt>
      <trkpt lat="44.60136" lon="5.6181">
        <ele>1540.17</ele>
        <time>2021-05-09T12:08:44Z</time>
      </trkpt>
      <trkpt lat="44.60136" lon="5.61818">
        <ele>1542.09</ele>
        <time>2021-05-09T12:08:51Z</time>
      </trkpt>
      <trkpt lat="44.60136" lon="5.6183">
        <ele>1538.25</ele>
        <time>2021-05-09T12:09:01Z</time>
      </trkpt>
      <trkpt lat="44.60136" lon="5.61831">
        <ele>1538.25</ele>
        <time>2021-05-09T12:09:02Z</time>
      </trkpt>
      <trkpt lat="44.60137" lon="5.61846">
        <ele>1534.4</ele>
        <time>2021-05-09T12:09:19Z</time>
      </trkpt>
      <trkpt lat="44.60137" lon="5.61847">
        <ele>1534.4</ele>
        <time>2021-05-09T12:09:20Z</time>
      </trkpt>
      <trkpt lat="44.60137" lon="5.61851">
        <ele>1532.48</ele>
        <time>2021-05-09T12:09:25Z</time>
      </trkpt>
      <trkpt lat="44.60137" lon="5.61856">
        <ele>1532</ele>
        <time>2021-05-09T12:09:31Z</time>
      </trkpt>
      <trkpt lat="44.60138" lon="5.61868">
        <ele>1531.04</ele>
        <time>2021-05-09T12:09:47Z</time>
      </trkpt>
      <trkpt lat="44.6014" lon="5.61872">
        <ele>1528.63</ele>
        <time>2021-05-09T12:09:52Z</time>
      </trkpt>
      <trkpt lat="44.6014" lon="5.61882">
        <ele>1528.63</ele>
        <time>2021-05-09T12:10:04Z</time>
      </trkpt>
      <trkpt lat="44.6014" lon="5.61884">
        <ele>1527.19</ele>
        <time>2021-05-09T12:10:06Z</time>
      </trkpt>
      <trkpt lat="44.60142" lon="5.61892">
        <ele>1524.79</ele>
        <time>2021-05-09T12:10:15Z</time>
      </trkpt>
      <trkpt lat="44.60142" lon="5.61895">
        <ele>1521.42</ele>
        <time>2021-05-09T12:10:21Z</time>
      </trkpt>
      <trkpt lat="44.60143" lon="5.61896">
        <ele>1520.46</ele>
        <time>2021-05-09T12:10:23Z</time>
      </trkpt>
      <trkpt lat="44.60143" lon="5.61903">
        <ele>1518.54</ele>
        <time>2021-05-09T12:10:31Z</time>
      </trkpt>
      <trkpt lat="44.60145" lon="5.6191">
        <ele>1515.66</ele>
        <time>2021-05-09T12:10:40Z</time>
      </trkpt>
      <trkpt lat="44.60145" lon="5.61911">
        <ele>1518.06</ele>
        <time>2021-05-09T12:10:42Z</time>
      </trkpt>
      <trkpt lat="44.60146" lon="5.61917">
        <ele>1515.66</ele>
        <time>2021-05-09T12:10:49Z</time>
      </trkpt>
      <trkpt lat="44.60147" lon="5.61923">
        <ele>1514.21</ele>
        <time>2021-05-09T12:10:56Z</time>
      </trkpt>
      <trkpt lat="44.60152" lon="5.61933">
        <ele>1513.73</ele>
        <time>2021-05-09T12:11:10Z</time>
      </trkpt>
      <trkpt lat="44.60153" lon="5.61935">
        <ele>1511.81</ele>
        <time>2021-05-09T12:11:13Z</time>
      </trkpt>
      <trkpt lat="44.60154" lon="5.61938">
        <ele>1509.89</ele>
        <time>2021-05-09T12:11:16Z</time>
      </trkpt>
      <trkpt lat="44.60156" lon="5.61944">
        <ele>1508.45</ele>
        <time>2021-05-09T12:11:25Z</time>
      </trkpt>
      <trkpt lat="44.60166" lon="5.61954">
        <ele>1506.04</ele>
        <time>2021-05-09T12:11:42Z</time>
      </trkpt>
      <trkpt lat="44.60177" lon="5.6196">
        <ele>1505.08</ele>
        <time>2021-05-09T12:11:59Z</time>
      </trkpt>
      <trkpt lat="44.60179" lon="5.6196">
        <ele>1501.72</ele>
        <time>2021-05-09T12:12:02Z</time>
      </trkpt>
      <trkpt lat="44.6019" lon="5.61963">
        <ele>1499.31</ele>
        <time>2021-05-09T12:12:19Z</time>
      </trkpt>
      <trkpt lat="44.60198" lon="5.61963">
        <ele>1496.43</ele>
        <time>2021-05-09T12:12:29Z</time>
      </trkpt>
      <trkpt lat="44.60208" lon="5.61958">
        <ele>1494.03</ele>
        <time>2021-05-09T12:12:45Z</time>
      </trkpt>
      <trkpt lat="44.60217" lon="5.61959">
        <ele>1491.62</ele>
        <time>2021-05-09T12:12:57Z</time>
      </trkpt>
      <trkpt lat="44.60231" lon="5.61962">
        <ele>1490.66</ele>
        <time>2021-05-09T12:13:13Z</time>
      </trkpt>
      <trkpt lat="44.60232" lon="5.61963">
        <ele>1488.26</ele>
        <time>2021-05-09T12:13:31Z</time>
      </trkpt>
      <trkpt lat="44.60233" lon="5.61966">
        <ele>1485.37</ele>
        <time>2021-05-09T12:13:44Z</time>
      </trkpt>
      <trkpt lat="44.60232" lon="5.61967">
        <ele>1489.7</ele>
        <time>2021-05-09T12:13:52Z</time>
      </trkpt>
      <trkpt lat="44.60231" lon="5.61968">
        <ele>1490.18</ele>
        <time>2021-05-09T12:13:58Z</time>
      </trkpt>
      <trkpt lat="44.60231" lon="5.61969">
        <ele>1489.22</ele>
        <time>2021-05-09T12:14:08Z</time>
      </trkpt>
      <trkpt lat="44.60233" lon="5.61972">
        <ele>1486.82</ele>
        <time>2021-05-09T12:14:24Z</time>
      </trkpt>
      <trkpt lat="44.60234" lon="5.61973">
        <ele>1485.85</ele>
        <time>2021-05-09T12:14:26Z</time>
      </trkpt>
      <trkpt lat="44.60235" lon="5.61975">
        <ele>1487.78</ele>
        <time>2021-05-09T12:14:28Z</time>
      </trkpt>
      <trkpt lat="44.60243" lon="5.61983">
        <ele>1487.3</ele>
        <time>2021-05-09T12:14:38Z</time>
      </trkpt>
      <trkpt lat="44.60247" lon="5.61983">
        <ele>1489.22</ele>
        <time>2021-05-09T12:14:46Z</time>
      </trkpt>
      <trkpt lat="44.60248" lon="5.61981">
        <ele>1485.85</ele>
        <time>2021-05-09T12:14:51Z</time>
      </trkpt>
      <trkpt lat="44.60251" lon="5.6198">
        <ele>1482.01</ele>
        <time>2021-05-09T12:14:55Z</time>
      </trkpt>
      <trkpt lat="44.60251" lon="5.6198">
        <ele>1482.01</ele>
        <time>2021-05-09T12:14:56Z</time>
      </trkpt>
      <trkpt lat="44.60258" lon="5.61974">
        <ele>1480.57</ele>
        <time>2021-05-09T12:15:08Z</time>
      </trkpt>
      <trkpt lat="44.60265" lon="5.61968">
        <ele>1477.2</ele>
        <time>2021-05-09T12:15:18Z</time>
      </trkpt>
      <trkpt lat="44.60269" lon="5.61961">
        <ele>1473.84</ele>
        <time>2021-05-09T12:15:26Z</time>
      </trkpt>
      <trkpt lat="44.60274" lon="5.61956">
        <ele>1470.95</ele>
        <time>2021-05-09T12:15:33Z</time>
      </trkpt>
      <trkpt lat="44.60281" lon="5.6195">
        <ele>1467.59</ele>
        <time>2021-05-09T12:15:43Z</time>
      </trkpt>
      <trkpt lat="44.60287" lon="5.61942">
        <ele>1463.26</ele>
        <time>2021-05-09T12:15:53Z</time>
      </trkpt>
      <trkpt lat="44.60288" lon="5.61935">
        <ele>1459.9</ele>
        <time>2021-05-09T12:16:02Z</time>
      </trkpt>
      <trkpt lat="44.60297" lon="5.61928">
        <ele>1456.05</ele>
        <time>2021-05-09T12:16:13Z</time>
      </trkpt>
      <trkpt lat="44.60299" lon="5.61926">
        <ele>1455.09</ele>
        <time>2021-05-09T12:16:15Z</time>
      </trkpt>
      <trkpt lat="44.60307" lon="5.61919">
        <ele>1456.53</ele>
        <time>2021-05-09T12:16:25Z</time>
      </trkpt>
      <trkpt lat="44.60308" lon="5.61917">
        <ele>1454.13</ele>
        <time>2021-05-09T12:16:27Z</time>
      </trkpt>
      <trkpt lat="44.60313" lon="5.61912">
        <ele>1451.25</ele>
        <time>2021-05-09T12:16:33Z</time>
      </trkpt>
      <trkpt lat="44.60317" lon="5.61904">
        <ele>1447.88</ele>
        <time>2021-05-09T12:16:41Z</time>
      </trkpt>
      <trkpt lat="44.6032" lon="5.61893">
        <ele>1445.96</ele>
        <time>2021-05-09T12:16:55Z</time>
      </trkpt>
      <trkpt lat="44.60325" lon="5.61888">
        <ele>1443.08</ele>
        <time>2021-05-09T12:17:02Z</time>
      </trkpt>
      <trkpt lat="44.6033" lon="5.61875">
        <ele>1440.19</ele>
        <time>2021-05-09T12:17:19Z</time>
      </trkpt>
      <trkpt lat="44.60334" lon="5.61865">
        <ele>1436.83</ele>
        <time>2021-05-09T12:17:30Z</time>
      </trkpt>
      <trkpt lat="44.60335" lon="5.61864">
        <ele>1436.35</ele>
        <time>2021-05-09T12:17:31Z</time>
      </trkpt>
      <trkpt lat="44.6034" lon="5.61855">
        <ele>1434.42</ele>
        <time>2021-05-09T12:17:46Z</time>
      </trkpt>
      <trkpt lat="44.60341" lon="5.61839">
        <ele>1432.5</ele>
        <time>2021-05-09T12:18:04Z</time>
      </trkpt>
      <trkpt lat="44.60342" lon="5.61825">
        <ele>1429.14</ele>
        <time>2021-05-09T12:18:20Z</time>
      </trkpt>
      <trkpt lat="44.60343" lon="5.61821">
        <ele>1429.14</ele>
        <time>2021-05-09T12:18:35Z</time>
      </trkpt>
      <trkpt lat="44.60343" lon="5.6182">
        <ele>1429.14</ele>
        <time>2021-05-09T12:18:36Z</time>
      </trkpt>
      <trkpt lat="44.60344" lon="5.61815">
        <ele>1427.7</ele>
        <time>2021-05-09T12:18:41Z</time>
      </trkpt>
      <trkpt lat="44.60348" lon="5.61802">
        <ele>1424.33</ele>
        <time>2021-05-09T12:18:54Z</time>
      </trkpt>
      <trkpt lat="44.6035" lon="5.61783">
        <ele>1425.77</ele>
        <time>2021-05-09T12:19:09Z</time>
      </trkpt>
      <trkpt lat="44.60351" lon="5.61778">
        <ele>1423.85</ele>
        <time>2021-05-09T12:19:13Z</time>
      </trkpt>
      <trkpt lat="44.60357" lon="5.61763">
        <ele>1420.49</ele>
        <time>2021-05-09T12:19:25Z</time>
      </trkpt>
      <trkpt lat="44.60363" lon="5.61747">
        <ele>1417.12</ele>
        <time>2021-05-09T12:19:39Z</time>
      </trkpt>
      <trkpt lat="44.60368" lon="5.61731">
        <ele>1414.72</ele>
        <time>2021-05-09T12:19:54Z</time>
      </trkpt>
      <trkpt lat="44.60372" lon="5.61713">
        <ele>1411.83</ele>
        <time>2021-05-09T12:20:09Z</time>
      </trkpt>
      <trkpt lat="44.60377" lon="5.61698">
        <ele>1408.47</ele>
        <time>2021-05-09T12:20:22Z</time>
      </trkpt>
      <trkpt lat="44.60381" lon="5.61679">
        <ele>1405.1</ele>
        <time>2021-05-09T12:20:38Z</time>
      </trkpt>
      <trkpt lat="44.60383" lon="5.61665">
        <ele>1401.74</ele>
        <time>2021-05-09T12:20:50Z</time>
      </trkpt>
      <trkpt lat="44.60384" lon="5.61664">
        <ele>1401.26</ele>
        <time>2021-05-09T12:20:51Z</time>
      </trkpt>
      <trkpt lat="44.60387" lon="5.61651">
        <ele>1398.37</ele>
        <time>2021-05-09T12:21:03Z</time>
      </trkpt>
      <trkpt lat="44.60388" lon="5.61649">
        <ele>1397.41</ele>
        <time>2021-05-09T12:21:05Z</time>
      </trkpt>
      <trkpt lat="44.6039" lon="5.6164">
        <ele>1395.49</ele>
        <time>2021-05-09T12:21:12Z</time>
      </trkpt>
      <trkpt lat="44.60391" lon="5.61626">
        <ele>1392.13</ele>
        <time>2021-05-09T12:21:23Z</time>
      </trkpt>
      <trkpt lat="44.60391" lon="5.61624">
        <ele>1392.13</ele>
        <time>2021-05-09T12:21:24Z</time>
      </trkpt>
      <trkpt lat="44.60391" lon="5.6162">
        <ele>1391.17</ele>
        <time>2021-05-09T12:21:27Z</time>
      </trkpt>
      <trkpt lat="44.60394" lon="5.61604">
        <ele>1387.32</ele>
        <time>2021-05-09T12:21:40Z</time>
      </trkpt>
      <trkpt lat="44.60397" lon="5.61585">
        <ele>1383.96</ele>
        <time>2021-05-09T12:21:55Z</time>
      </trkpt>
      <trkpt lat="44.60402" lon="5.61569">
        <ele>1381.07</ele>
        <time>2021-05-09T12:22:08Z</time>
      </trkpt>
      <trkpt lat="44.60408" lon="5.61553">
        <ele>1378.19</ele>
        <time>2021-05-09T12:22:22Z</time>
      </trkpt>
      <trkpt lat="44.60411" lon="5.61534">
        <ele>1375.78</ele>
        <time>2021-05-09T12:22:37Z</time>
      </trkpt>
      <trkpt lat="44.60418" lon="5.61516">
        <ele>1371.94</ele>
        <time>2021-05-09T12:22:52Z</time>
      </trkpt>
      <trkpt lat="44.60425" lon="5.615">
        <ele>1369.54</ele>
        <time>2021-05-09T12:23:08Z</time>
      </trkpt>
      <trkpt lat="44.60434" lon="5.61488">
        <ele>1367.61</ele>
        <time>2021-05-09T12:23:24Z</time>
      </trkpt>
      <trkpt lat="44.60441" lon="5.6148">
        <ele>1364.25</ele>
        <time>2021-05-09T12:23:39Z</time>
      </trkpt>
      <trkpt lat="44.60447" lon="5.61474">
        <ele>1360.88</ele>
        <time>2021-05-09T12:23:50Z</time>
      </trkpt>
      <trkpt lat="44.60453" lon="5.61461">
        <ele>1358</ele>
        <time>2021-05-09T12:24:04Z</time>
      </trkpt>
      <trkpt lat="44.60456" lon="5.61444">
        <ele>1354.63</ele>
        <time>2021-05-09T12:24:18Z</time>
      </trkpt>
      <trkpt lat="44.60458" lon="5.61427">
        <ele>1352.23</ele>
        <time>2021-05-09T12:24:33Z</time>
      </trkpt>
      <trkpt lat="44.60459" lon="5.61414">
        <ele>1348.87</ele>
        <time>2021-05-09T12:24:46Z</time>
      </trkpt>
      <trkpt lat="44.60461" lon="5.61398">
        <ele>1345.02</ele>
        <time>2021-05-09T12:25:01Z</time>
      </trkpt>
      <trkpt lat="44.60463" lon="5.61385">
        <ele>1341.66</ele>
        <time>2021-05-09T12:25:14Z</time>
      </trkpt>
      <trkpt lat="44.60465" lon="5.61374">
        <ele>1338.77</ele>
        <time>2021-05-09T12:25:27Z</time>
      </trkpt>
      <trkpt lat="44.60469" lon="5.61362">
        <ele>1335.89</ele>
        <time>2021-05-09T12:25:42Z</time>
      </trkpt>
      <trkpt lat="44.6047" lon="5.6135">
        <ele>1332.52</ele>
        <time>2021-05-09T12:25:54Z</time>
      </trkpt>
      <trkpt lat="44.60474" lon="5.61337">
        <ele>1329.64</ele>
        <time>2021-05-09T12:26:08Z</time>
      </trkpt>
      <trkpt lat="44.60477" lon="5.6133">
        <ele>1324.83</ele>
        <time>2021-05-09T12:29:36Z</time>
      </trkpt>
      <trkpt lat="44.60478" lon="5.61321">
        <ele>1325.8</ele>
        <time>2021-05-09T12:29:54Z</time>
      </trkpt>
      <trkpt lat="44.60477" lon="5.6132">
        <ele>1324.35</ele>
        <time>2021-05-09T12:29:56Z</time>
      </trkpt>
      <trkpt lat="44.60474" lon="5.61306">
        <ele>1322.43</ele>
        <time>2021-05-09T12:30:10Z</time>
      </trkpt>
      <trkpt lat="44.60472" lon="5.61293">
        <ele>1318.59</ele>
        <time>2021-05-09T12:30:23Z</time>
      </trkpt>
      <trkpt lat="44.6047" lon="5.61278">
        <ele>1315.22</ele>
        <time>2021-05-09T12:30:37Z</time>
      </trkpt>
      <trkpt lat="44.60469" lon="5.61277">
        <ele>1315.22</ele>
        <time>2021-05-09T12:30:38Z</time>
      </trkpt>
      <trkpt lat="44.60469" lon="5.61266">
        <ele>1311.86</ele>
        <time>2021-05-09T12:30:46Z</time>
      </trkpt>
      <trkpt lat="44.60472" lon="5.61245">
        <ele>1308.01</ele>
        <time>2021-05-09T12:31:00Z</time>
      </trkpt>
      <trkpt lat="44.60482" lon="5.61227">
        <ele>1304.17</ele>
        <time>2021-05-09T12:31:15Z</time>
      </trkpt>
      <trkpt lat="44.60486" lon="5.61208">
        <ele>1301.28</ele>
        <time>2021-05-09T12:31:29Z</time>
      </trkpt>
      <trkpt lat="44.60486" lon="5.61188">
        <ele>1298.4</ele>
        <time>2021-05-09T12:31:44Z</time>
      </trkpt>
      <trkpt lat="44.60487" lon="5.61165">
        <ele>1295.03</ele>
        <time>2021-05-09T12:32:02Z</time>
      </trkpt>
      <trkpt lat="44.60481" lon="5.61149">
        <ele>1292.15</ele>
        <time>2021-05-09T12:32:18Z</time>
      </trkpt>
      <trkpt lat="44.60479" lon="5.61144">
        <ele>1291.19</ele>
        <time>2021-05-09T12:32:22Z</time>
      </trkpt>
      <trkpt lat="44.60471" lon="5.61137">
        <ele>1289.27</ele>
        <time>2021-05-09T12:32:32Z</time>
      </trkpt>
      <trkpt lat="44.60457" lon="5.61122">
        <ele>1285.9</ele>
        <time>2021-05-09T12:32:49Z</time>
      </trkpt>
      <trkpt lat="44.60448" lon="5.61106">
        <ele>1283.02</ele>
        <time>2021-05-09T12:33:04Z</time>
      </trkpt>
      <trkpt lat="44.60442" lon="5.61089">
        <ele>1280.13</ele>
        <time>2021-05-09T12:33:19Z</time>
      </trkpt>
      <trkpt lat="44.60437" lon="5.61074">
        <ele>1276.77</ele>
        <time>2021-05-09T12:33:30Z</time>
      </trkpt>
      <trkpt lat="44.60436" lon="5.61073">
        <ele>1276.77</ele>
        <time>2021-05-09T12:33:31Z</time>
      </trkpt>
      <trkpt lat="44.60426" lon="5.61052">
        <ele>1272.92</ele>
        <time>2021-05-09T12:33:48Z</time>
      </trkpt>
      <trkpt lat="44.60416" lon="5.61036">
        <ele>1270.04</ele>
        <time>2021-05-09T12:34:01Z</time>
      </trkpt>
      <trkpt lat="44.60401" lon="5.61018">
        <ele>1267.16</ele>
        <time>2021-05-09T12:34:19Z</time>
      </trkpt>
      <trkpt lat="44.60386" lon="5.61">
        <ele>1265.23</ele>
        <time>2021-05-09T12:34:38Z</time>
      </trkpt>
      <trkpt lat="44.60378" lon="5.60995">
        <ele>1262.83</ele>
        <time>2021-05-09T12:34:48Z</time>
      </trkpt>
      <trkpt lat="44.60374" lon="5.6099">
        <ele>1260.43</ele>
        <time>2021-05-09T12:34:54Z</time>
      </trkpt>
      <trkpt lat="44.60363" lon="5.6097">
        <ele>1257.54</ele>
        <time>2021-05-09T12:35:11Z</time>
      </trkpt>
      <trkpt lat="44.60354" lon="5.60957">
        <ele>1255.62</ele>
        <time>2021-05-09T12:35:23Z</time>
      </trkpt>
      <trkpt lat="44.60337" lon="5.60942">
        <ele>1255.14</ele>
        <time>2021-05-09T12:35:40Z</time>
      </trkpt>
      <trkpt lat="44.60328" lon="5.60932">
        <ele>1258.5</ele>
        <time>2021-05-09T12:35:50Z</time>
      </trkpt>
      <trkpt lat="44.60325" lon="5.60929">
        <ele>1256.1</ele>
        <time>2021-05-09T12:35:53Z</time>
      </trkpt>
      <trkpt lat="44.6032" lon="5.60919">
        <ele>1252.74</ele>
        <time>2021-05-09T12:36:02Z</time>
      </trkpt>
      <trkpt lat="44.60319" lon="5.60906">
        <ele>1249.37</ele>
        <time>2021-05-09T12:36:11Z</time>
      </trkpt>
      <trkpt lat="44.60319" lon="5.60896">
        <ele>1247.45</ele>
        <time>2021-05-09T12:36:19Z</time>
      </trkpt>
      <trkpt lat="44.60319" lon="5.6088">
        <ele>1244.56</ele>
        <time>2021-05-09T12:36:30Z</time>
      </trkpt>
      <trkpt lat="44.60318" lon="5.60871">
        <ele>1242.16</ele>
        <time>2021-05-09T12:36:37Z</time>
      </trkpt>
      <trkpt lat="44.60308" lon="5.60864">
        <ele>1240.24</ele>
        <time>2021-05-09T12:36:49Z</time>
      </trkpt>
      <trkpt lat="44.60294" lon="5.60856">
        <ele>1236.87</ele>
        <time>2021-05-09T12:37:03Z</time>
      </trkpt>
      <trkpt lat="44.60281" lon="5.60846">
        <ele>1233.51</ele>
        <time>2021-05-09T12:37:15Z</time>
      </trkpt>
      <trkpt lat="44.60259" lon="5.60841">
        <ele>1232.07</ele>
        <time>2021-05-09T12:37:34Z</time>
      </trkpt>
      <trkpt lat="44.60241" lon="5.60844">
        <ele>1232.07</ele>
        <time>2021-05-09T12:37:50Z</time>
      </trkpt>
      <trkpt lat="44.60226" lon="5.60846">
        <ele>1233.51</ele>
        <time>2021-05-09T12:38:04Z</time>
      </trkpt>
      <trkpt lat="44.60222" lon="5.60844">
        <ele>1233.51</ele>
        <time>2021-05-09T12:38:08Z</time>
      </trkpt>
      <trkpt lat="44.60211" lon="5.60836">
        <ele>1232.07</ele>
        <time>2021-05-09T12:38:18Z</time>
      </trkpt>
      <trkpt lat="44.60204" lon="5.60824">
        <ele>1229.18</ele>
        <time>2021-05-09T12:38:27Z</time>
      </trkpt>
      <trkpt lat="44.602" lon="5.608">
        <ele>1225.82</ele>
        <time>2021-05-09T12:38:42Z</time>
      </trkpt>
      <trkpt lat="44.60192" lon="5.60786">
        <ele>1222.45</ele>
        <time>2021-05-09T12:38:55Z</time>
      </trkpt>
      <trkpt lat="44.6019" lon="5.60783">
        <ele>1221.97</ele>
        <time>2021-05-09T12:38:57Z</time>
      </trkpt>
      <trkpt lat="44.60198" lon="5.60763">
        <ele>1219.57</ele>
        <time>2021-05-09T12:39:15Z</time>
      </trkpt>
      <trkpt lat="44.60212" lon="5.60759">
        <ele>1216.69</ele>
        <time>2021-05-09T12:39:29Z</time>
      </trkpt>
      <trkpt lat="44.60213" lon="5.60755">
        <ele>1216.21</ele>
        <time>2021-05-09T12:39:48Z</time>
      </trkpt>
      <trkpt lat="44.60203" lon="5.60742">
        <ele>1213.8</ele>
        <time>2021-05-09T12:40:01Z</time>
      </trkpt>
      <trkpt lat="44.602" lon="5.60734">
        <ele>1212.36</ele>
        <time>2021-05-09T12:40:07Z</time>
      </trkpt>
      <trkpt lat="44.6019" lon="5.60715">
        <ele>1208.51</ele>
        <time>2021-05-09T12:40:22Z</time>
      </trkpt>
      <trkpt lat="44.60181" lon="5.60694">
        <ele>1205.63</ele>
        <time>2021-05-09T12:40:38Z</time>
      </trkpt>
      <trkpt lat="44.60172" lon="5.60672">
        <ele>1202.75</ele>
        <time>2021-05-09T12:40:53Z</time>
      </trkpt>
      <trkpt lat="44.60163" lon="5.60644">
        <ele>1201.3</ele>
        <time>2021-05-09T12:41:12Z</time>
      </trkpt>
      <trkpt lat="44.60152" lon="5.60625">
        <ele>1199.38</ele>
        <time>2021-05-09T12:41:29Z</time>
      </trkpt>
      <trkpt lat="44.60139" lon="5.60604">
        <ele>1196.98</ele>
        <time>2021-05-09T12:41:47Z</time>
      </trkpt>
      <trkpt lat="44.60131" lon="5.60581">
        <ele>1194.58</ele>
        <time>2021-05-09T12:42:04Z</time>
      </trkpt>
      <trkpt lat="44.60127" lon="5.60581">
        <ele>1194.58</ele>
        <time>2021-05-09T12:42:20Z</time>
      </trkpt>
      <trkpt lat="44.60123" lon="5.60579">
        <ele>1193.61</ele>
        <time>2021-05-09T12:42:37Z</time>
      </trkpt>
      <trkpt lat="44.60112" lon="5.60572">
        <ele>1193.13</ele>
        <time>2021-05-09T12:42:54Z</time>
      </trkpt>
      <trkpt lat="44.60104" lon="5.60568">
        <ele>1192.65</ele>
        <time>2021-05-09T12:43:04Z</time>
      </trkpt>
      <trkpt lat="44.60089" lon="5.60578">
        <ele>1192.65</ele>
        <time>2021-05-09T12:43:20Z</time>
      </trkpt>
      <trkpt lat="44.60073" lon="5.60592">
        <ele>1192.65</ele>
        <time>2021-05-09T12:43:36Z</time>
      </trkpt>
      <trkpt lat="44.60053" lon="5.60597">
        <ele>1189.29</ele>
        <time>2021-05-09T12:43:52Z</time>
      </trkpt>
      <trkpt lat="44.60031" lon="5.60588">
        <ele>1187.85</ele>
        <time>2021-05-09T12:44:10Z</time>
      </trkpt>
      <trkpt lat="44.60012" lon="5.60585">
        <ele>1185.92</ele>
        <time>2021-05-09T12:44:26Z</time>
      </trkpt>
      <trkpt lat="44.59991" lon="5.60582">
        <ele>1183.52</ele>
        <time>2021-05-09T12:44:44Z</time>
      </trkpt>
      <trkpt lat="44.59979" lon="5.60578">
        <ele>1182.56</ele>
        <time>2021-05-09T12:44:54Z</time>
      </trkpt>
      <trkpt lat="44.59973" lon="5.60576">
        <ele>1182.08</ele>
        <time>2021-05-09T12:44:59Z</time>
      </trkpt>
      <trkpt lat="44.59948" lon="5.60568">
        <ele>1179.67</ele>
        <time>2021-05-09T12:45:21Z</time>
      </trkpt>
      <trkpt lat="44.5993" lon="5.60566">
        <ele>1177.75</ele>
        <time>2021-05-09T12:45:37Z</time>
      </trkpt>
      <trkpt lat="44.5991" lon="5.60559">
        <ele>1176.79</ele>
        <time>2021-05-09T12:45:55Z</time>
      </trkpt>
      <trkpt lat="44.599" lon="5.60556">
        <ele>1175.83</ele>
        <time>2021-05-09T12:46:03Z</time>
      </trkpt>
      <trkpt lat="44.59877" lon="5.60552">
        <ele>1174.39</ele>
        <time>2021-05-09T12:46:23Z</time>
      </trkpt>
      <trkpt lat="44.59862" lon="5.60536">
        <ele>1172.47</ele>
        <time>2021-05-09T12:46:41Z</time>
      </trkpt>
      <trkpt lat="44.59844" lon="5.60511">
        <ele>1170.06</ele>
        <time>2021-05-09T12:47:00Z</time>
      </trkpt>
      <trkpt lat="44.59829" lon="5.60504">
        <ele>1168.62</ele>
        <time>2021-05-09T12:47:16Z</time>
      </trkpt>
      <trkpt lat="44.59825" lon="5.60503">
        <ele>1168.14</ele>
        <time>2021-05-09T12:47:21Z</time>
      </trkpt>
      <trkpt lat="44.59813" lon="5.60504">
        <ele>1166.22</ele>
        <time>2021-05-09T12:47:32Z</time>
      </trkpt>
      <trkpt lat="44.59802" lon="5.60497">
        <ele>1165.26</ele>
        <time>2021-05-09T12:47:42Z</time>
      </trkpt>
      <trkpt lat="44.59785" lon="5.6047">
        <ele>1162.85</ele>
        <time>2021-05-09T12:48:02Z</time>
      </trkpt>
      <trkpt lat="44.59767" lon="5.60442">
        <ele>1160.45</ele>
        <time>2021-05-09T12:48:23Z</time>
      </trkpt>
      <trkpt lat="44.59748" lon="5.60415">
        <ele>1157.56</ele>
        <time>2021-05-09T12:48:45Z</time>
      </trkpt>
      <trkpt lat="44.59741" lon="5.60397">
        <ele>1156.6</ele>
        <time>2021-05-09T12:48:58Z</time>
      </trkpt>
      <trkpt lat="44.59746" lon="5.60389">
        <ele>1156.12</ele>
        <time>2021-05-09T12:49:04Z</time>
      </trkpt>
      <trkpt lat="44.59761" lon="5.60382">
        <ele>1156.12</ele>
        <time>2021-05-09T12:49:19Z</time>
      </trkpt>
      <trkpt lat="44.59763" lon="5.60368">
        <ele>1156.12</ele>
        <time>2021-05-09T12:49:32Z</time>
      </trkpt>
      <trkpt lat="44.59752" lon="5.60359">
        <ele>1156.12</ele>
        <time>2021-05-09T12:49:50Z</time>
      </trkpt>
      <trkpt lat="44.59729" lon="5.60357">
        <ele>1153.72</ele>
        <time>2021-05-09T12:50:09Z</time>
      </trkpt>
      <trkpt lat="44.59726" lon="5.60358">
        <ele>1153.72</ele>
        <time>2021-05-09T12:50:11Z</time>
      </trkpt>
      <trkpt lat="44.59716" lon="5.60364">
        <ele>1153.72</ele>
        <time>2021-05-09T12:50:20Z</time>
      </trkpt>
      <trkpt lat="44.59697" lon="5.6035">
        <ele>1152.28</ele>
        <time>2021-05-09T12:50:39Z</time>
      </trkpt>
      <trkpt lat="44.59682" lon="5.60326">
        <ele>1151.8</ele>
        <time>2021-05-09T12:50:59Z</time>
      </trkpt>
      <trkpt lat="44.59671" lon="5.60302">
        <ele>1150.84</ele>
        <time>2021-05-09T12:51:16Z</time>
      </trkpt>
      <trkpt lat="44.59656" lon="5.60279">
        <ele>1149.87</ele>
        <time>2021-05-09T12:51:34Z</time>
      </trkpt>
      <trkpt lat="44.59653" lon="5.6028">
        <ele>1149.39</ele>
        <time>2021-05-09T12:51:48Z</time>
      </trkpt>
      <trkpt lat="44.5965" lon="5.6028">
        <ele>1146.99</ele>
        <time>2021-05-09T12:53:15Z</time>
      </trkpt>
      <trkpt lat="44.59633" lon="5.6027">
        <ele>1146.99</ele>
        <time>2021-05-09T12:53:34Z</time>
      </trkpt>
      <trkpt lat="44.59619" lon="5.60273">
        <ele>1146.51</ele>
        <time>2021-05-09T12:53:52Z</time>
      </trkpt>
      <trkpt lat="44.59616" lon="5.60272">
        <ele>1146.03</ele>
        <time>2021-05-09T12:54:06Z</time>
      </trkpt>
      <trkpt lat="44.59614" lon="5.60272">
        <ele>1145.55</ele>
        <time>2021-05-09T12:54:23Z</time>
      </trkpt>
      <trkpt lat="44.59612" lon="5.60273">
        <ele>1144.59</ele>
        <time>2021-05-09T12:54:38Z</time>
      </trkpt>
      <trkpt lat="44.59597" lon="5.60271">
        <ele>1142.66</ele>
        <time>2021-05-09T12:54:51Z</time>
      </trkpt>
      <trkpt lat="44.59583" lon="5.60248">
        <ele>1142.18</ele>
        <time>2021-05-09T12:55:09Z</time>
      </trkpt>
      <trkpt lat="44.5958" lon="5.60247">
        <ele>1142.18</ele>
        <time>2021-05-09T12:55:13Z</time>
      </trkpt>
      <trkpt lat="44.59558" lon="5.60252">
        <ele>1142.18</ele>
        <time>2021-05-09T12:55:32Z</time>
      </trkpt>
      <trkpt lat="44.59546" lon="5.60249">
        <ele>1141.22</ele>
        <time>2021-05-09T12:55:42Z</time>
      </trkpt>
      <trkpt lat="44.59521" lon="5.60234">
        <ele>1139.78</ele>
        <time>2021-05-09T12:56:03Z</time>
      </trkpt>
      <trkpt lat="44.59501" lon="5.60217">
        <ele>1137.38</ele>
        <time>2021-05-09T12:56:21Z</time>
      </trkpt>
      <trkpt lat="44.59483" lon="5.60195">
        <ele>1134.49</ele>
        <time>2021-05-09T12:56:40Z</time>
      </trkpt>
      <trkpt lat="44.5946" lon="5.60188">
        <ele>1132.09</ele>
        <time>2021-05-09T12:56:59Z</time>
      </trkpt>
      <trkpt lat="44.59449" lon="5.60189">
        <ele>1130.65</ele>
        <time>2021-05-09T12:57:10Z</time>
      </trkpt>
      <trkpt lat="44.59452" lon="5.60196">
        <ele>1129.69</ele>
        <time>2021-05-09T12:57:16Z</time>
      </trkpt>
      <trkpt lat="44.5946" lon="5.60203">
        <ele>1128.73</ele>
        <time>2021-05-09T12:57:25Z</time>
      </trkpt>
      <trkpt lat="44.59476" lon="5.60213">
        <ele>1126.32</ele>
        <time>2021-05-09T12:57:41Z</time>
      </trkpt>
      <trkpt lat="44.59484" lon="5.60224">
        <ele>1126.32</ele>
        <time>2021-05-09T12:57:49Z</time>
      </trkpt>
      <trkpt lat="44.59488" lon="5.60232">
        <ele>1125.84</ele>
        <time>2021-05-09T12:57:55Z</time>
      </trkpt>
      <trkpt lat="44.59489" lon="5.60234">
        <ele>1125.36</ele>
        <time>2021-05-09T12:57:57Z</time>
      </trkpt>
      <trkpt lat="44.59486" lon="5.6024">
        <ele>1123.92</ele>
        <time>2021-05-09T12:58:02Z</time>
      </trkpt>
      <trkpt lat="44.5947" lon="5.60227">
        <ele>1122.48</ele>
        <time>2021-05-09T12:58:18Z</time>
      </trkpt>
      <trkpt lat="44.59444" lon="5.6022">
        <ele>1121.03</ele>
        <time>2021-05-09T12:58:38Z</time>
      </trkpt>
      <trkpt lat="44.59428" lon="5.60209">
        <ele>1120.07</ele>
        <time>2021-05-09T12:58:53Z</time>
      </trkpt>
      <trkpt lat="44.59412" lon="5.60189">
        <ele>1118.63</ele>
        <time>2021-05-09T12:59:09Z</time>
      </trkpt>
      <trkpt lat="44.59401" lon="5.60162">
        <ele>1116.23</ele>
        <time>2021-05-09T12:59:28Z</time>
      </trkpt>
      <trkpt lat="44.59382" lon="5.6014">
        <ele>1113.34</ele>
        <time>2021-05-09T12:59:49Z</time>
      </trkpt>
      <trkpt lat="44.59373" lon="5.60129">
        <ele>1112.38</ele>
        <time>2021-05-09T13:00:03Z</time>
      </trkpt>
      <trkpt lat="44.59359" lon="5.6011">
        <ele>1110.94</ele>
        <time>2021-05-09T13:00:20Z</time>
      </trkpt>
      <trkpt lat="44.59339" lon="5.60092">
        <ele>1109.5</ele>
        <time>2021-05-09T13:00:39Z</time>
      </trkpt>
      <trkpt lat="44.59337" lon="5.6009">
        <ele>1109.5</ele>
        <time>2021-05-09T13:00:41Z</time>
      </trkpt>
      <trkpt lat="44.59338" lon="5.60072">
        <ele>1109.5</ele>
        <time>2021-05-09T13:00:57Z</time>
      </trkpt>
    </trkseg>
  </trk>
</gpx>